<?xml version="1.0" encoding="UTF-8" standalone="no" ?>
<gpx xmlns="http://www.topografix.com/GPX/1/1" xmlns:xsi="http://www.w3.org/2001/XMLSchema-instance" xsi:schemaLocation="http://www.topografix.com/GPX/1/1 http://www.topografix.com/GPX/1/1/gpx.xsd" version="1.1" creator="VisuGPX - https://www.visugpx.com">
  <metadata>
    <name>2017/09/11-46-Lacapelle-Cabanac</name>
    <desc><![CDATA[11,5km pour 275m de dénivelé pour cette randonnée sans difficulté, au travers des vignes des champs de pruniers et des forets.]]></desc>
  </metadata>
  <trk>
    <name><![CDATA[Tracé 11 sept. 2017 2:05:29 PMlacapalle]]></name>
    <trkseg>
      <trkpt lat="44.4653" lon="1.06894">
        <ele>210.23101153611</ele>
        <time>2017-09-11T12:05:29Z</time>
      </trkpt>
      <trkpt lat="44.46529" lon="1.06883">
        <ele>226.17166439468</ele>
        <time>2017-09-11T12:06:05Z</time>
      </trkpt>
      <trkpt lat="44.46527" lon="1.06858">
        <ele>236.81554701613</ele>
        <time>2017-09-11T12:06:10Z</time>
      </trkpt>
      <trkpt lat="44.46525" lon="1.06849">
        <ele>241.95206634762</ele>
        <time>2017-09-11T12:06:14Z</time>
      </trkpt>
      <trkpt lat="44.46525" lon="1.06839">
        <ele>241.17851117768</ele>
        <time>2017-09-11T12:06:22Z</time>
      </trkpt>
      <trkpt lat="44.46528" lon="1.06824">
        <ele>237.27309092012</ele>
        <time>2017-09-11T12:06:26Z</time>
      </trkpt>
      <trkpt lat="44.46528" lon="1.06812">
        <ele>235.11474645273</ele>
        <time>2017-09-11T12:06:34Z</time>
      </trkpt>
      <trkpt lat="44.4653" lon="1.068">
        <ele>234.50905211455</ele>
        <time>2017-09-11T12:06:44Z</time>
      </trkpt>
      <trkpt lat="44.46535" lon="1.06791">
        <ele>234.09933668734</ele>
        <time>2017-09-11T12:06:51Z</time>
      </trkpt>
      <trkpt lat="44.46541" lon="1.06781">
        <ele>233.08531830048</ele>
        <time>2017-09-11T12:06:59Z</time>
      </trkpt>
      <trkpt lat="44.46546" lon="1.06772">
        <ele>230.61796924588</ele>
        <time>2017-09-11T12:07:10Z</time>
      </trkpt>
      <trkpt lat="44.46553" lon="1.06765">
        <ele>229.03094679486</ele>
        <time>2017-09-11T12:07:17Z</time>
      </trkpt>
      <trkpt lat="44.46559" lon="1.06757">
        <ele>227.33739654398</ele>
        <time>2017-09-11T12:07:31Z</time>
      </trkpt>
      <trkpt lat="44.46567" lon="1.06752">
        <ele>226.53454759961</ele>
        <time>2017-09-11T12:07:37Z</time>
      </trkpt>
      <trkpt lat="44.46575" lon="1.06748">
        <ele>225.5198360419</ele>
        <time>2017-09-11T12:07:43Z</time>
      </trkpt>
      <trkpt lat="44.46582" lon="1.06741">
        <ele>224.798222162</ele>
        <time>2017-09-11T12:07:49Z</time>
      </trkpt>
      <trkpt lat="44.46587" lon="1.06731">
        <ele>223.28182948751</ele>
        <time>2017-09-11T12:08:00Z</time>
      </trkpt>
      <trkpt lat="44.46591" lon="1.0672">
        <ele>221.73268631329</ele>
        <time>2017-09-11T12:08:15Z</time>
      </trkpt>
      <trkpt lat="44.46597" lon="1.06711">
        <ele>221.10628791934</ele>
        <time>2017-09-11T12:08:24Z</time>
      </trkpt>
      <trkpt lat="44.46601" lon="1.06703">
        <ele>220.61292440905</ele>
        <time>2017-09-11T12:08:34Z</time>
      </trkpt>
      <trkpt lat="44.46607" lon="1.06694">
        <ele>219.21737555061</ele>
        <time>2017-09-11T12:08:42Z</time>
      </trkpt>
      <trkpt lat="44.46613" lon="1.06687">
        <ele>217.47409604599</ele>
        <time>2017-09-11T12:08:52Z</time>
      </trkpt>
      <trkpt lat="44.4662" lon="1.06679">
        <ele>216.28621051714</ele>
        <time>2017-09-11T12:08:58Z</time>
      </trkpt>
      <trkpt lat="44.46627" lon="1.06673">
        <ele>214.86248667573</ele>
        <time>2017-09-11T12:09:06Z</time>
      </trkpt>
      <trkpt lat="44.46635" lon="1.06666">
        <ele>213.7415474897</ele>
        <time>2017-09-11T12:09:16Z</time>
      </trkpt>
      <trkpt lat="44.46642" lon="1.06661">
        <ele>212.83355060019</ele>
        <time>2017-09-11T12:09:25Z</time>
      </trkpt>
      <trkpt lat="44.4665" lon="1.06658">
        <ele>212.67349540899</ele>
        <time>2017-09-11T12:09:32Z</time>
      </trkpt>
      <trkpt lat="44.46658" lon="1.0666">
        <ele>211.63442534949</ele>
        <time>2017-09-11T12:09:43Z</time>
      </trkpt>
      <trkpt lat="44.46667" lon="1.06659">
        <ele>211.22065656271</ele>
        <time>2017-09-11T12:09:53Z</time>
      </trkpt>
      <trkpt lat="44.46676" lon="1.06658">
        <ele>209.79389326902</ele>
        <time>2017-09-11T12:10:04Z</time>
      </trkpt>
      <trkpt lat="44.46685" lon="1.06655">
        <ele>208.42870102599</ele>
        <time>2017-09-11T12:10:15Z</time>
      </trkpt>
      <trkpt lat="44.46693" lon="1.06651">
        <ele>206.82199455471</ele>
        <time>2017-09-11T12:10:25Z</time>
      </trkpt>
      <trkpt lat="44.46701" lon="1.06649">
        <ele>205.77895434023</ele>
        <time>2017-09-11T12:10:33Z</time>
      </trkpt>
      <trkpt lat="44.4671" lon="1.06647">
        <ele>204.69560659424</ele>
        <time>2017-09-11T12:10:42Z</time>
      </trkpt>
      <trkpt lat="44.46718" lon="1.06646">
        <ele>203.83224367999</ele>
        <time>2017-09-11T12:10:50Z</time>
      </trkpt>
      <trkpt lat="44.46726" lon="1.06644">
        <ele>202.35126749894</ele>
        <time>2017-09-11T12:11:01Z</time>
      </trkpt>
      <trkpt lat="44.46734" lon="1.0664">
        <ele>200.85302558516</ele>
        <time>2017-09-11T12:11:11Z</time>
      </trkpt>
      <trkpt lat="44.46741" lon="1.06636">
        <ele>199.75598099073</ele>
        <time>2017-09-11T12:11:17Z</time>
      </trkpt>
      <trkpt lat="44.4675" lon="1.06632">
        <ele>198.21270333191</ele>
        <time>2017-09-11T12:11:24Z</time>
      </trkpt>
      <trkpt lat="44.46757" lon="1.06628">
        <ele>197.16943002817</ele>
        <time>2017-09-11T12:11:32Z</time>
      </trkpt>
      <trkpt lat="44.46766" lon="1.06624">
        <ele>195.58570314024</ele>
        <time>2017-09-11T12:11:42Z</time>
      </trkpt>
      <trkpt lat="44.46773" lon="1.06617">
        <ele>194.47948481947</ele>
        <time>2017-09-11T12:11:50Z</time>
      </trkpt>
      <trkpt lat="44.4678" lon="1.0661">
        <ele>193.40176957269</ele>
        <time>2017-09-11T12:11:58Z</time>
      </trkpt>
      <trkpt lat="44.46787" lon="1.06605">
        <ele>192.49930707312</ele>
        <time>2017-09-11T12:12:05Z</time>
      </trkpt>
      <trkpt lat="44.46795" lon="1.066">
        <ele>191.46488813244</ele>
        <time>2017-09-11T12:12:14Z</time>
      </trkpt>
      <trkpt lat="44.46802" lon="1.06594">
        <ele>190.2519761886</ele>
        <time>2017-09-11T12:12:22Z</time>
      </trkpt>
      <trkpt lat="44.4681" lon="1.06589">
        <ele>188.76780137991</ele>
        <time>2017-09-11T12:12:31Z</time>
      </trkpt>
      <trkpt lat="44.46816" lon="1.06585">
        <ele>188.16534004106</ele>
        <time>2017-09-11T12:12:36Z</time>
      </trkpt>
      <trkpt lat="44.46825" lon="1.06582">
        <ele>187.72962198494</ele>
        <time>2017-09-11T12:12:46Z</time>
      </trkpt>
      <trkpt lat="44.46832" lon="1.06576">
        <ele>187.24545582248</ele>
        <time>2017-09-11T12:12:53Z</time>
      </trkpt>
      <trkpt lat="44.4684" lon="1.0657">
        <ele>186.79745405442</ele>
        <time>2017-09-11T12:13:01Z</time>
      </trkpt>
      <trkpt lat="44.46847" lon="1.06565">
        <ele>186.00185911064</ele>
        <time>2017-09-11T12:13:10Z</time>
      </trkpt>
      <trkpt lat="44.46854" lon="1.06558">
        <ele>185.20661326642</ele>
        <time>2017-09-11T12:13:19Z</time>
      </trkpt>
      <trkpt lat="44.46861" lon="1.06551">
        <ele>184.25781506079</ele>
        <time>2017-09-11T12:13:28Z</time>
      </trkpt>
      <trkpt lat="44.46868" lon="1.06548">
        <ele>183.42526646392</ele>
        <time>2017-09-11T12:13:36Z</time>
      </trkpt>
      <trkpt lat="44.46876" lon="1.06545">
        <ele>182.40089677365</ele>
        <time>2017-09-11T12:13:44Z</time>
      </trkpt>
      <trkpt lat="44.46883" lon="1.06542">
        <ele>181.37260437342</ele>
        <time>2017-09-11T12:13:51Z</time>
      </trkpt>
      <trkpt lat="44.46891" lon="1.06539">
        <ele>180.69282669267</ele>
        <time>2017-09-11T12:13:57Z</time>
      </trkpt>
      <trkpt lat="44.46898" lon="1.06533">
        <ele>179.80459232962</ele>
        <time>2017-09-11T12:14:09Z</time>
      </trkpt>
      <trkpt lat="44.46904" lon="1.06523">
        <ele>178.94833865278</ele>
        <time>2017-09-11T12:14:17Z</time>
      </trkpt>
      <trkpt lat="44.46911" lon="1.06518">
        <ele>178.17965588864</ele>
        <time>2017-09-11T12:14:25Z</time>
      </trkpt>
      <trkpt lat="44.46919" lon="1.06515">
        <ele>176.64218809686</ele>
        <time>2017-09-11T12:14:34Z</time>
      </trkpt>
      <trkpt lat="44.46928" lon="1.06511">
        <ele>174.16373891462</ele>
        <time>2017-09-11T12:14:44Z</time>
      </trkpt>
      <trkpt lat="44.46935" lon="1.06508">
        <ele>173.09428724568</ele>
        <time>2017-09-11T12:14:52Z</time>
      </trkpt>
      <trkpt lat="44.46942" lon="1.06503">
        <ele>172.59905042135</ele>
        <time>2017-09-11T12:15:00Z</time>
      </trkpt>
      <trkpt lat="44.46951" lon="1.06499">
        <ele>170.82898026847</ele>
        <time>2017-09-11T12:15:10Z</time>
      </trkpt>
      <trkpt lat="44.46958" lon="1.06492">
        <ele>169.23203583162</ele>
        <time>2017-09-11T12:15:23Z</time>
      </trkpt>
      <trkpt lat="44.46954" lon="1.0648">
        <ele>167.01636472846</ele>
        <time>2017-09-11T12:15:41Z</time>
      </trkpt>
      <trkpt lat="44.46948" lon="1.06471">
        <ele>165.81728529358</ele>
        <time>2017-09-11T12:15:48Z</time>
      </trkpt>
      <trkpt lat="44.46945" lon="1.0646">
        <ele>164.66996125582</ele>
        <time>2017-09-11T12:15:57Z</time>
      </trkpt>
      <trkpt lat="44.46949" lon="1.06448">
        <ele>162.36250356988</ele>
        <time>2017-09-11T12:16:08Z</time>
      </trkpt>
      <trkpt lat="44.46956" lon="1.06449">
        <ele>160.60255781483</ele>
        <time>2017-09-11T12:16:19Z</time>
      </trkpt>
      <trkpt lat="44.46965" lon="1.06448">
        <ele>158.87228989499</ele>
        <time>2017-09-11T12:16:29Z</time>
      </trkpt>
      <trkpt lat="44.46971" lon="1.0644">
        <ele>157.28489042997</ele>
        <time>2017-09-11T12:16:43Z</time>
      </trkpt>
      <trkpt lat="44.4698" lon="1.06438">
        <ele>155.74006557016</ele>
        <time>2017-09-11T12:16:58Z</time>
      </trkpt>
      <trkpt lat="44.46988" lon="1.0644">
        <ele>154.39043577094</ele>
        <time>2017-09-11T12:17:08Z</time>
      </trkpt>
      <trkpt lat="44.46996" lon="1.06437">
        <ele>152.37967341171</ele>
        <time>2017-09-11T12:17:19Z</time>
      </trkpt>
      <trkpt lat="44.47004" lon="1.06435">
        <ele>149.35627315973</ele>
        <time>2017-09-11T12:17:34Z</time>
      </trkpt>
      <trkpt lat="44.47012" lon="1.0644">
        <ele>144.46246886356</ele>
        <time>2017-09-11T12:18:22Z</time>
      </trkpt>
      <trkpt lat="44.47021" lon="1.06439">
        <ele>139.9590655697</ele>
        <time>2017-09-11T12:18:42Z</time>
      </trkpt>
      <trkpt lat="44.47029" lon="1.06434">
        <ele>140.12305852274</ele>
        <time>2017-09-11T12:18:54Z</time>
      </trkpt>
      <trkpt lat="44.47037" lon="1.06429">
        <ele>140.1315516292</ele>
        <time>2017-09-11T12:19:08Z</time>
      </trkpt>
      <trkpt lat="44.47045" lon="1.06424">
        <ele>141.07541149121</ele>
        <time>2017-09-11T12:19:23Z</time>
      </trkpt>
      <trkpt lat="44.47054" lon="1.06423">
        <ele>137.89467522263</ele>
        <time>2017-09-11T12:19:50Z</time>
      </trkpt>
      <trkpt lat="44.47062" lon="1.06419">
        <ele>136.17731137014</ele>
        <time>2017-09-11T12:20:11Z</time>
      </trkpt>
      <trkpt lat="44.47069" lon="1.06412">
        <ele>134.55368352034</ele>
        <time>2017-09-11T12:20:28Z</time>
      </trkpt>
      <trkpt lat="44.47077" lon="1.06417">
        <ele>132.13478420673</ele>
        <time>2017-09-11T12:21:19Z</time>
      </trkpt>
      <trkpt lat="44.47084" lon="1.0641">
        <ele>128.15680454753</ele>
        <time>2017-09-11T12:22:01Z</time>
      </trkpt>
      <trkpt lat="44.4709" lon="1.06401">
        <ele>128.37436877168</ele>
        <time>2017-09-11T12:22:14Z</time>
      </trkpt>
      <trkpt lat="44.47096" lon="1.06391">
        <ele>128.60562114005</ele>
        <time>2017-09-11T12:22:24Z</time>
      </trkpt>
      <trkpt lat="44.47102" lon="1.06384">
        <ele>128.88793925806</ele>
        <time>2017-09-11T12:22:33Z</time>
      </trkpt>
      <trkpt lat="44.47108" lon="1.06375">
        <ele>128.08466628641</ele>
        <time>2017-09-11T12:22:43Z</time>
      </trkpt>
      <trkpt lat="44.47115" lon="1.06369">
        <ele>128.11242707859</ele>
        <time>2017-09-11T12:22:52Z</time>
      </trkpt>
      <trkpt lat="44.47122" lon="1.06363">
        <ele>128.06974236965</ele>
        <time>2017-09-11T12:23:02Z</time>
      </trkpt>
      <trkpt lat="44.47129" lon="1.06356">
        <ele>127.70485774174</ele>
        <time>2017-09-11T12:23:13Z</time>
      </trkpt>
      <trkpt lat="44.47138" lon="1.06352">
        <ele>126.37218300998</ele>
        <time>2017-09-11T12:23:23Z</time>
      </trkpt>
      <trkpt lat="44.47146" lon="1.06348">
        <ele>124.54613467777</ele>
        <time>2017-09-11T12:23:34Z</time>
      </trkpt>
      <trkpt lat="44.47152" lon="1.0634">
        <ele>124.02216373889</ele>
        <time>2017-09-11T12:23:39Z</time>
      </trkpt>
      <trkpt lat="44.47156" lon="1.0633">
        <ele>122.18691842114</ele>
        <time>2017-09-11T12:23:50Z</time>
      </trkpt>
      <trkpt lat="44.47163" lon="1.06324">
        <ele>121.79968589943</ele>
        <time>2017-09-11T12:23:57Z</time>
      </trkpt>
      <trkpt lat="44.47168" lon="1.06315">
        <ele>121.46131406557</ele>
        <time>2017-09-11T12:24:03Z</time>
      </trkpt>
      <trkpt lat="44.47176" lon="1.06309">
        <ele>120.71850638611</ele>
        <time>2017-09-11T12:24:10Z</time>
      </trkpt>
      <trkpt lat="44.47183" lon="1.06301">
        <ele>119.96247666013</ele>
        <time>2017-09-11T12:24:19Z</time>
      </trkpt>
      <trkpt lat="44.47191" lon="1.06297">
        <ele>119.09529843565</ele>
        <time>2017-09-11T12:24:26Z</time>
      </trkpt>
      <trkpt lat="44.47198" lon="1.06289">
        <ele>118.57561900579</ele>
        <time>2017-09-11T12:24:34Z</time>
      </trkpt>
      <trkpt lat="44.47204" lon="1.0628">
        <ele>117.877299977</ele>
        <time>2017-09-11T12:24:43Z</time>
      </trkpt>
      <trkpt lat="44.47211" lon="1.06273">
        <ele>117.0592130511</ele>
        <time>2017-09-11T12:24:52Z</time>
      </trkpt>
      <trkpt lat="44.47218" lon="1.06268">
        <ele>116.54473589384</ele>
        <time>2017-09-11T12:24:58Z</time>
      </trkpt>
      <trkpt lat="44.47224" lon="1.06259">
        <ele>115.45085313162</ele>
        <time>2017-09-11T12:25:06Z</time>
      </trkpt>
      <trkpt lat="44.47232" lon="1.06252">
        <ele>115.03784556297</ele>
        <time>2017-09-11T12:25:13Z</time>
      </trkpt>
      <trkpt lat="44.47239" lon="1.06246">
        <ele>114.67021323399</ele>
        <time>2017-09-11T12:25:21Z</time>
      </trkpt>
      <trkpt lat="44.47246" lon="1.06238">
        <ele>114.06297966521</ele>
        <time>2017-09-11T12:25:27Z</time>
      </trkpt>
      <trkpt lat="44.47252" lon="1.0623">
        <ele>114.23603640625</ele>
        <time>2017-09-11T12:25:36Z</time>
      </trkpt>
      <trkpt lat="44.47258" lon="1.06221">
        <ele>113.94134401367</ele>
        <time>2017-09-11T12:25:43Z</time>
      </trkpt>
      <trkpt lat="44.47264" lon="1.06215">
        <ele>113.79140101848</ele>
        <time>2017-09-11T12:25:49Z</time>
      </trkpt>
      <trkpt lat="44.47271" lon="1.06208">
        <ele>113.92889622988</ele>
        <time>2017-09-11T12:25:59Z</time>
      </trkpt>
      <trkpt lat="44.47276" lon="1.062">
        <ele>114.36965846268</ele>
        <time>2017-09-11T12:26:05Z</time>
      </trkpt>
      <trkpt lat="44.47283" lon="1.06193">
        <ele>113.9295662198</ele>
        <time>2017-09-11T12:26:13Z</time>
      </trkpt>
      <trkpt lat="44.47289" lon="1.06185">
        <ele>112.84683007389</ele>
        <time>2017-09-11T12:26:22Z</time>
      </trkpt>
      <trkpt lat="44.47293" lon="1.06174">
        <ele>113.10686523221</ele>
        <time>2017-09-11T12:26:42Z</time>
      </trkpt>
      <trkpt lat="44.47294" lon="1.06162">
        <ele>113.75491079444</ele>
        <time>2017-09-11T12:27:13Z</time>
      </trkpt>
      <trkpt lat="44.47296" lon="1.06151">
        <ele>113.68575520931</ele>
        <time>2017-09-11T12:27:22Z</time>
      </trkpt>
      <trkpt lat="44.47299" lon="1.0614">
        <ele>113.47081436201</ele>
        <time>2017-09-11T12:27:30Z</time>
      </trkpt>
      <trkpt lat="44.47302" lon="1.06128">
        <ele>112.83080792522</ele>
        <time>2017-09-11T12:27:39Z</time>
      </trkpt>
      <trkpt lat="44.47305" lon="1.06117">
        <ele>112.42824291097</ele>
        <time>2017-09-11T12:27:45Z</time>
      </trkpt>
      <trkpt lat="44.4731" lon="1.06106">
        <ele>111.92547003124</ele>
        <time>2017-09-11T12:27:53Z</time>
      </trkpt>
      <trkpt lat="44.47314" lon="1.06097">
        <ele>111.72316571229</ele>
        <time>2017-09-11T12:28:00Z</time>
      </trkpt>
      <trkpt lat="44.47317" lon="1.06086">
        <ele>110.99522790613</ele>
        <time>2017-09-11T12:28:07Z</time>
      </trkpt>
      <trkpt lat="44.47324" lon="1.06079">
        <ele>110.38862176917</ele>
        <time>2017-09-11T12:28:13Z</time>
      </trkpt>
      <trkpt lat="44.47331" lon="1.06072">
        <ele>110.08911141093</ele>
        <time>2017-09-11T12:28:22Z</time>
      </trkpt>
      <trkpt lat="44.47337" lon="1.06067">
        <ele>110.01742235163</ele>
        <time>2017-09-11T12:28:27Z</time>
      </trkpt>
      <trkpt lat="44.47344" lon="1.0606">
        <ele>110.15759032219</ele>
        <time>2017-09-11T12:28:35Z</time>
      </trkpt>
      <trkpt lat="44.47351" lon="1.06053">
        <ele>110.67266975716</ele>
        <time>2017-09-11T12:28:43Z</time>
      </trkpt>
      <trkpt lat="44.4736" lon="1.06049">
        <ele>110.70604326389</ele>
        <time>2017-09-11T12:28:49Z</time>
      </trkpt>
      <trkpt lat="44.47367" lon="1.06043">
        <ele>110.80027012675</ele>
        <time>2017-09-11T12:28:57Z</time>
      </trkpt>
      <trkpt lat="44.47374" lon="1.06034">
        <ele>111.13860835665</ele>
        <time>2017-09-11T12:29:04Z</time>
      </trkpt>
      <trkpt lat="44.47379" lon="1.06025">
        <ele>111.60560926985</ele>
        <time>2017-09-11T12:29:12Z</time>
      </trkpt>
      <trkpt lat="44.47384" lon="1.06015">
        <ele>111.62388861517</ele>
        <time>2017-09-11T12:29:20Z</time>
      </trkpt>
      <trkpt lat="44.47389" lon="1.06006">
        <ele>111.1154653488</ele>
        <time>2017-09-11T12:29:26Z</time>
      </trkpt>
      <trkpt lat="44.47396" lon="1.05998">
        <ele>110.91200894751</ele>
        <time>2017-09-11T12:29:33Z</time>
      </trkpt>
      <trkpt lat="44.47402" lon="1.05989">
        <ele>110.99757991124</ele>
        <time>2017-09-11T12:29:42Z</time>
      </trkpt>
      <trkpt lat="44.47409" lon="1.05982">
        <ele>111.40426448225</ele>
        <time>2017-09-11T12:29:49Z</time>
      </trkpt>
      <trkpt lat="44.47415" lon="1.05973">
        <ele>110.60700770523</ele>
        <time>2017-09-11T12:29:56Z</time>
      </trkpt>
      <trkpt lat="44.4742" lon="1.05966">
        <ele>110.41193163907</ele>
        <time>2017-09-11T12:30:01Z</time>
      </trkpt>
      <trkpt lat="44.47426" lon="1.0596">
        <ele>110.43475944201</ele>
        <time>2017-09-11T12:30:08Z</time>
      </trkpt>
      <trkpt lat="44.47432" lon="1.0595">
        <ele>110.15621989474</ele>
        <time>2017-09-11T12:30:14Z</time>
      </trkpt>
      <trkpt lat="44.47437" lon="1.05941">
        <ele>109.78655452324</ele>
        <time>2017-09-11T12:30:22Z</time>
      </trkpt>
      <trkpt lat="44.47442" lon="1.05932">
        <ele>109.15292559983</ele>
        <time>2017-09-11T12:30:30Z</time>
      </trkpt>
      <trkpt lat="44.47446" lon="1.05921">
        <ele>108.69893715944</ele>
        <time>2017-09-11T12:30:38Z</time>
      </trkpt>
      <trkpt lat="44.47449" lon="1.05909">
        <ele>108.68988834715</ele>
        <time>2017-09-11T12:30:45Z</time>
      </trkpt>
      <trkpt lat="44.47452" lon="1.05898">
        <ele>109.10641975695</ele>
        <time>2017-09-11T12:30:52Z</time>
      </trkpt>
      <trkpt lat="44.47455" lon="1.05888">
        <ele>109.17380657648</ele>
        <time>2017-09-11T12:31:00Z</time>
      </trkpt>
      <trkpt lat="44.47458" lon="1.05878">
        <ele>109.41457432922</ele>
        <time>2017-09-11T12:31:06Z</time>
      </trkpt>
      <trkpt lat="44.47462" lon="1.05867">
        <ele>109.06116580412</ele>
        <time>2017-09-11T12:31:12Z</time>
      </trkpt>
      <trkpt lat="44.47464" lon="1.05857">
        <ele>108.68020385259</ele>
        <time>2017-09-11T12:31:20Z</time>
      </trkpt>
      <trkpt lat="44.47467" lon="1.05846">
        <ele>108.299009045</ele>
        <time>2017-09-11T12:31:27Z</time>
      </trkpt>
      <trkpt lat="44.47472" lon="1.05837">
        <ele>108.13828108279</ele>
        <time>2017-09-11T12:31:33Z</time>
      </trkpt>
      <trkpt lat="44.47478" lon="1.05828">
        <ele>106.98438445633</ele>
        <time>2017-09-11T12:32:03Z</time>
      </trkpt>
      <trkpt lat="44.47485" lon="1.05822">
        <ele>107.03946771113</ele>
        <time>2017-09-11T12:32:09Z</time>
      </trkpt>
      <trkpt lat="44.47492" lon="1.05816">
        <ele>107.194664475</ele>
        <time>2017-09-11T12:32:15Z</time>
      </trkpt>
      <trkpt lat="44.47499" lon="1.05811">
        <ele>107.16611477838</ele>
        <time>2017-09-11T12:32:22Z</time>
      </trkpt>
      <trkpt lat="44.47506" lon="1.05806">
        <ele>107.31984083117</ele>
        <time>2017-09-11T12:32:28Z</time>
      </trkpt>
      <trkpt lat="44.47512" lon="1.05797">
        <ele>107.48234958918</ele>
        <time>2017-09-11T12:32:36Z</time>
      </trkpt>
      <trkpt lat="44.47519" lon="1.05792">
        <ele>107.75626602357</ele>
        <time>2017-09-11T12:32:46Z</time>
      </trkpt>
      <trkpt lat="44.47527" lon="1.05788">
        <ele>108.17391590982</ele>
        <time>2017-09-11T12:32:52Z</time>
      </trkpt>
      <trkpt lat="44.47535" lon="1.05783">
        <ele>109.36095438952</ele>
        <time>2017-09-11T12:33:01Z</time>
      </trkpt>
      <trkpt lat="44.47543" lon="1.05777">
        <ele>110.23461597317</ele>
        <time>2017-09-11T12:33:09Z</time>
      </trkpt>
      <trkpt lat="44.47549" lon="1.05768">
        <ele>110.41907211242</ele>
        <time>2017-09-11T12:33:15Z</time>
      </trkpt>
      <trkpt lat="44.47552" lon="1.05758">
        <ele>110.33256077912</ele>
        <time>2017-09-11T12:33:24Z</time>
      </trkpt>
      <trkpt lat="44.47556" lon="1.0575">
        <ele>110.25552440072</ele>
        <time>2017-09-11T12:33:30Z</time>
      </trkpt>
      <trkpt lat="44.47561" lon="1.0574">
        <ele>110.53156443718</ele>
        <time>2017-09-11T12:33:43Z</time>
      </trkpt>
      <trkpt lat="44.47567" lon="1.05734">
        <ele>108.17147617302</ele>
        <time>2017-09-11T12:35:15Z</time>
      </trkpt>
      <trkpt lat="44.4757" lon="1.05723">
        <ele>108.18176371926</ele>
        <time>2017-09-11T12:35:23Z</time>
      </trkpt>
      <trkpt lat="44.47574" lon="1.05713">
        <ele>108.54903591691</ele>
        <time>2017-09-11T12:35:30Z</time>
      </trkpt>
      <trkpt lat="44.47578" lon="1.05703">
        <ele>109.01712909372</ele>
        <time>2017-09-11T12:35:37Z</time>
      </trkpt>
      <trkpt lat="44.47581" lon="1.05692">
        <ele>108.82100567553</ele>
        <time>2017-09-11T12:35:44Z</time>
      </trkpt>
      <trkpt lat="44.47586" lon="1.05683">
        <ele>108.48798351107</ele>
        <time>2017-09-11T12:35:51Z</time>
      </trkpt>
      <trkpt lat="44.47591" lon="1.05673">
        <ele>107.91316239052</ele>
        <time>2017-09-11T12:35:58Z</time>
      </trkpt>
      <trkpt lat="44.47596" lon="1.05663">
        <ele>107.44752880233</ele>
        <time>2017-09-11T12:36:06Z</time>
      </trkpt>
      <trkpt lat="44.47602" lon="1.05656">
        <ele>107.87088006423</ele>
        <time>2017-09-11T12:36:12Z</time>
      </trkpt>
      <trkpt lat="44.47607" lon="1.05647">
        <ele>107.78527349656</ele>
        <time>2017-09-11T12:36:18Z</time>
      </trkpt>
      <trkpt lat="44.47614" lon="1.05641">
        <ele>107.17129782632</ele>
        <time>2017-09-11T12:36:25Z</time>
      </trkpt>
      <trkpt lat="44.47621" lon="1.05635">
        <ele>106.73228428509</ele>
        <time>2017-09-11T12:36:32Z</time>
      </trkpt>
      <trkpt lat="44.47627" lon="1.05628">
        <ele>106.05806018365</ele>
        <time>2017-09-11T12:36:38Z</time>
      </trkpt>
      <trkpt lat="44.47634" lon="1.05623">
        <ele>105.61377317436</ele>
        <time>2017-09-11T12:36:47Z</time>
      </trkpt>
      <trkpt lat="44.47642" lon="1.05619">
        <ele>106.22687939937</ele>
        <time>2017-09-11T12:36:55Z</time>
      </trkpt>
      <trkpt lat="44.4765" lon="1.05614">
        <ele>106.66424038812</ele>
        <time>2017-09-11T12:37:02Z</time>
      </trkpt>
      <trkpt lat="44.47658" lon="1.05609">
        <ele>107.17614742675</ele>
        <time>2017-09-11T12:37:09Z</time>
      </trkpt>
      <trkpt lat="44.47666" lon="1.05603">
        <ele>107.63124388883</ele>
        <time>2017-09-11T12:37:17Z</time>
      </trkpt>
      <trkpt lat="44.47673" lon="1.05597">
        <ele>108.01552214261</ele>
        <time>2017-09-11T12:37:25Z</time>
      </trkpt>
      <trkpt lat="44.4768" lon="1.0559">
        <ele>107.98349941709</ele>
        <time>2017-09-11T12:37:32Z</time>
      </trkpt>
      <trkpt lat="44.47688" lon="1.05585">
        <ele>107.85059565043</ele>
        <time>2017-09-11T12:37:39Z</time>
      </trkpt>
      <trkpt lat="44.47693" lon="1.05576">
        <ele>107.33772671427</ele>
        <time>2017-09-11T12:37:49Z</time>
      </trkpt>
      <trkpt lat="44.47696" lon="1.05566">
        <ele>106.93736763005</ele>
        <time>2017-09-11T12:37:56Z</time>
      </trkpt>
      <trkpt lat="44.47704" lon="1.05561">
        <ele>106.91839048085</ele>
        <time>2017-09-11T12:38:05Z</time>
      </trkpt>
      <trkpt lat="44.47711" lon="1.05555">
        <ele>106.43094907255</ele>
        <time>2017-09-11T12:38:11Z</time>
      </trkpt>
      <trkpt lat="44.47714" lon="1.05544">
        <ele>105.79001881593</ele>
        <time>2017-09-11T12:38:18Z</time>
      </trkpt>
      <trkpt lat="44.47721" lon="1.05537">
        <ele>103.79080905584</ele>
        <time>2017-09-11T12:39:14Z</time>
      </trkpt>
      <trkpt lat="44.47728" lon="1.05531">
        <ele>104.86468053363</ele>
        <time>2017-09-11T12:39:29Z</time>
      </trkpt>
      <trkpt lat="44.47736" lon="1.05527">
        <ele>105.4767290168</ele>
        <time>2017-09-11T12:39:35Z</time>
      </trkpt>
      <trkpt lat="44.47731" lon="1.05516">
        <ele>104.12958695584</ele>
        <time>2017-09-11T12:40:03Z</time>
      </trkpt>
      <trkpt lat="44.47743" lon="1.05506">
        <ele>104.36762194656</ele>
        <time>2017-09-11T12:40:07Z</time>
      </trkpt>
      <trkpt lat="44.47752" lon="1.05503">
        <ele>103.95938825364</ele>
        <time>2017-09-11T12:40:12Z</time>
      </trkpt>
      <trkpt lat="44.4776" lon="1.055">
        <ele>103.56433633893</ele>
        <time>2017-09-11T12:40:17Z</time>
      </trkpt>
      <trkpt lat="44.47768" lon="1.05496">
        <ele>103.05293425267</ele>
        <time>2017-09-11T12:40:24Z</time>
      </trkpt>
      <trkpt lat="44.47775" lon="1.0549">
        <ele>102.11579796581</ele>
        <time>2017-09-11T12:40:32Z</time>
      </trkpt>
      <trkpt lat="44.47782" lon="1.05483">
        <ele>101.19771952651</ele>
        <time>2017-09-11T12:40:41Z</time>
      </trkpt>
      <trkpt lat="44.47788" lon="1.05475">
        <ele>99.78789468191</ele>
        <time>2017-09-11T12:40:50Z</time>
      </trkpt>
      <trkpt lat="44.47796" lon="1.05469">
        <ele>98.379113643361</ele>
        <time>2017-09-11T12:41:00Z</time>
      </trkpt>
      <trkpt lat="44.47804" lon="1.05463">
        <ele>97.327194181205</ele>
        <time>2017-09-11T12:41:06Z</time>
      </trkpt>
      <trkpt lat="44.47811" lon="1.05455">
        <ele>95.59852016679</ele>
        <time>2017-09-11T12:41:14Z</time>
      </trkpt>
      <trkpt lat="44.47817" lon="1.05448">
        <ele>94.484720881953</ele>
        <time>2017-09-11T12:41:21Z</time>
      </trkpt>
      <trkpt lat="44.47823" lon="1.05441">
        <ele>92.602916177531</ele>
        <time>2017-09-11T12:41:29Z</time>
      </trkpt>
      <trkpt lat="44.47829" lon="1.05434">
        <ele>91.665187911008</ele>
        <time>2017-09-11T12:41:34Z</time>
      </trkpt>
      <trkpt lat="44.47834" lon="1.05426">
        <ele>90.312866553103</ele>
        <time>2017-09-11T12:41:40Z</time>
      </trkpt>
      <trkpt lat="44.47841" lon="1.05418">
        <ele>89.05442247057</ele>
        <time>2017-09-11T12:41:47Z</time>
      </trkpt>
      <trkpt lat="44.47848" lon="1.05412">
        <ele>87.763372315983</ele>
        <time>2017-09-11T12:41:55Z</time>
      </trkpt>
      <trkpt lat="44.47855" lon="1.05405">
        <ele>87.187337130633</ele>
        <time>2017-09-11T12:42:01Z</time>
      </trkpt>
      <trkpt lat="44.47862" lon="1.054">
        <ele>86.945136489466</ele>
        <time>2017-09-11T12:42:09Z</time>
      </trkpt>
      <trkpt lat="44.4787" lon="1.05397">
        <ele>86.382321027519</ele>
        <time>2017-09-11T12:42:15Z</time>
      </trkpt>
      <trkpt lat="44.47878" lon="1.05396">
        <ele>85.861017711076</ele>
        <time>2017-09-11T12:42:22Z</time>
      </trkpt>
      <trkpt lat="44.47887" lon="1.05394">
        <ele>85.172954263672</ele>
        <time>2017-09-11T12:42:30Z</time>
      </trkpt>
      <trkpt lat="44.47895" lon="1.05392">
        <ele>84.747216415638</ele>
        <time>2017-09-11T12:42:35Z</time>
      </trkpt>
      <trkpt lat="44.47903" lon="1.0539">
        <ele>83.9724350881</ele>
        <time>2017-09-11T12:42:42Z</time>
      </trkpt>
      <trkpt lat="44.4791" lon="1.05383">
        <ele>83.241271623215</ele>
        <time>2017-09-11T12:42:49Z</time>
      </trkpt>
      <trkpt lat="44.47917" lon="1.05377">
        <ele>82.153570998616</ele>
        <time>2017-09-11T12:42:58Z</time>
      </trkpt>
      <trkpt lat="44.47925" lon="1.05372">
        <ele>81.657681166757</ele>
        <time>2017-09-11T12:43:04Z</time>
      </trkpt>
      <trkpt lat="44.47933" lon="1.05367">
        <ele>81.140434864381</ele>
        <time>2017-09-11T12:43:11Z</time>
      </trkpt>
      <trkpt lat="44.47941" lon="1.05363">
        <ele>80.805372016452</ele>
        <time>2017-09-11T12:43:19Z</time>
      </trkpt>
      <trkpt lat="44.47948" lon="1.05359">
        <ele>80.793691598769</ele>
        <time>2017-09-11T12:43:25Z</time>
      </trkpt>
      <trkpt lat="44.47956" lon="1.05357">
        <ele>80.905391219582</ele>
        <time>2017-09-11T12:43:31Z</time>
      </trkpt>
      <trkpt lat="44.47965" lon="1.05356">
        <ele>80.969715967644</ele>
        <time>2017-09-11T12:43:38Z</time>
      </trkpt>
      <trkpt lat="44.47973" lon="1.05351">
        <ele>79.953318647782</ele>
        <time>2017-09-11T12:43:47Z</time>
      </trkpt>
      <trkpt lat="44.47981" lon="1.05345">
        <ele>79.678466681059</ele>
        <time>2017-09-11T12:43:53Z</time>
      </trkpt>
      <trkpt lat="44.47988" lon="1.0534">
        <ele>78.864626404516</ele>
        <time>2017-09-11T12:44:01Z</time>
      </trkpt>
      <trkpt lat="44.47996" lon="1.05333">
        <ele>78.445125993941</ele>
        <time>2017-09-11T12:44:08Z</time>
      </trkpt>
      <trkpt lat="44.48002" lon="1.05325">
        <ele>78.073618909243</ele>
        <time>2017-09-11T12:44:15Z</time>
      </trkpt>
      <trkpt lat="44.48008" lon="1.05315">
        <ele>77.625062930484</ele>
        <time>2017-09-11T12:44:22Z</time>
      </trkpt>
      <trkpt lat="44.48013" lon="1.05306">
        <ele>76.954449561137</ele>
        <time>2017-09-11T12:44:30Z</time>
      </trkpt>
      <trkpt lat="44.48021" lon="1.053">
        <ele>75.043999261973</ele>
        <time>2017-09-11T12:44:47Z</time>
      </trkpt>
      <trkpt lat="44.48028" lon="1.05292">
        <ele>75.351917624767</ele>
        <time>2017-09-11T12:46:10Z</time>
      </trkpt>
      <trkpt lat="44.48036" lon="1.05294">
        <ele>76.053439630426</ele>
        <time>2017-09-11T12:46:27Z</time>
      </trkpt>
      <trkpt lat="44.48043" lon="1.053">
        <ele>76.300187837563</ele>
        <time>2017-09-11T12:46:36Z</time>
      </trkpt>
      <trkpt lat="44.4805" lon="1.05308">
        <ele>75.781480512302</ele>
        <time>2017-09-11T12:46:41Z</time>
      </trkpt>
      <trkpt lat="44.48055" lon="1.05317">
        <ele>75.060636783328</ele>
        <time>2017-09-11T12:46:48Z</time>
      </trkpt>
      <trkpt lat="44.48062" lon="1.05325">
        <ele>75.14180693305</ele>
        <time>2017-09-11T12:47:00Z</time>
      </trkpt>
      <trkpt lat="44.48068" lon="1.05332">
        <ele>75.665930445815</ele>
        <time>2017-09-11T12:47:11Z</time>
      </trkpt>
      <trkpt lat="44.48076" lon="1.05338">
        <ele>76.053699223705</ele>
        <time>2017-09-11T12:47:27Z</time>
      </trkpt>
      <trkpt lat="44.48082" lon="1.05346">
        <ele>77.338837743126</ele>
        <time>2017-09-11T12:47:34Z</time>
      </trkpt>
      <trkpt lat="44.48089" lon="1.05351">
        <ele>78.662180157563</ele>
        <time>2017-09-11T12:47:45Z</time>
      </trkpt>
      <trkpt lat="44.48097" lon="1.05355">
        <ele>78.490269129459</ele>
        <time>2017-09-11T12:47:51Z</time>
      </trkpt>
      <trkpt lat="44.48105" lon="1.0536">
        <ele>78.229648993326</ele>
        <time>2017-09-11T12:48:01Z</time>
      </trkpt>
      <trkpt lat="44.48112" lon="1.05368">
        <ele>76.499997304923</ele>
        <time>2017-09-11T12:48:59Z</time>
      </trkpt>
      <trkpt lat="44.48121" lon="1.05371">
        <ele>77.402473523658</ele>
        <time>2017-09-11T12:50:16Z</time>
      </trkpt>
      <trkpt lat="44.48129" lon="1.05376">
        <ele>79.150358456731</ele>
        <time>2017-09-11T12:50:42Z</time>
      </trkpt>
      <trkpt lat="44.48136" lon="1.05377">
        <ele>79.721119855884</ele>
        <time>2017-09-11T12:50:52Z</time>
      </trkpt>
      <trkpt lat="44.48141" lon="1.05378">
        <ele>80.508856536626</ele>
        <time>2017-09-11T12:50:58Z</time>
      </trkpt>
      <trkpt lat="44.4815" lon="1.05383">
        <ele>80.748271134543</ele>
        <time>2017-09-11T12:51:02Z</time>
      </trkpt>
      <trkpt lat="44.48157" lon="1.0539">
        <ele>80.74538792856</ele>
        <time>2017-09-11T12:51:11Z</time>
      </trkpt>
      <trkpt lat="44.48163" lon="1.05397">
        <ele>80.510232776958</ele>
        <time>2017-09-11T12:51:17Z</time>
      </trkpt>
      <trkpt lat="44.48168" lon="1.05406">
        <ele>79.69253576814</ele>
        <time>2017-09-11T12:51:23Z</time>
      </trkpt>
      <trkpt lat="44.48176" lon="1.0541">
        <ele>79.614194513688</ele>
        <time>2017-09-11T12:51:28Z</time>
      </trkpt>
      <trkpt lat="44.48184" lon="1.05413">
        <ele>78.700181318725</ele>
        <time>2017-09-11T12:51:35Z</time>
      </trkpt>
      <trkpt lat="44.4819" lon="1.05419">
        <ele>78.182394020949</ele>
        <time>2017-09-11T12:51:41Z</time>
      </trkpt>
      <trkpt lat="44.48198" lon="1.05423">
        <ele>78.186422379894</ele>
        <time>2017-09-11T12:51:47Z</time>
      </trkpt>
      <trkpt lat="44.48205" lon="1.05427">
        <ele>77.530969194903</ele>
        <time>2017-09-11T12:51:53Z</time>
      </trkpt>
      <trkpt lat="44.48212" lon="1.05432">
        <ele>77.005842177603</ele>
        <time>2017-09-11T12:51:59Z</time>
      </trkpt>
      <trkpt lat="44.48219" lon="1.05439">
        <ele>76.53825902213</ele>
        <time>2017-09-11T12:52:03Z</time>
      </trkpt>
      <trkpt lat="44.48226" lon="1.05446">
        <ele>75.801168821605</ele>
        <time>2017-09-11T12:52:09Z</time>
      </trkpt>
      <trkpt lat="44.48233" lon="1.0545">
        <ele>75.29045417609</ele>
        <time>2017-09-11T12:52:15Z</time>
      </trkpt>
      <trkpt lat="44.48239" lon="1.05455">
        <ele>74.897583169466</ele>
        <time>2017-09-11T12:52:21Z</time>
      </trkpt>
      <trkpt lat="44.48247" lon="1.0546">
        <ele>74.534877622592</ele>
        <time>2017-09-11T12:52:27Z</time>
      </trkpt>
      <trkpt lat="44.48254" lon="1.05466">
        <ele>73.913299889108</ele>
        <time>2017-09-11T12:52:34Z</time>
      </trkpt>
      <trkpt lat="44.48261" lon="1.05473">
        <ele>73.247510821334</ele>
        <time>2017-09-11T12:52:42Z</time>
      </trkpt>
      <trkpt lat="44.48269" lon="1.05477">
        <ele>72.823680717803</ele>
        <time>2017-09-11T12:52:49Z</time>
      </trkpt>
      <trkpt lat="44.48277" lon="1.0548">
        <ele>72.670821256811</ele>
        <time>2017-09-11T12:52:55Z</time>
      </trkpt>
      <trkpt lat="44.48284" lon="1.05485">
        <ele>73.188434292844</ele>
        <time>2017-09-11T12:53:01Z</time>
      </trkpt>
      <trkpt lat="44.48292" lon="1.05489">
        <ele>73.802138002627</ele>
        <time>2017-09-11T12:53:06Z</time>
      </trkpt>
      <trkpt lat="44.483" lon="1.05495">
        <ele>73.883862207053</ele>
        <time>2017-09-11T12:53:12Z</time>
      </trkpt>
      <trkpt lat="44.48309" lon="1.05496">
        <ele>73.560325433299</ele>
        <time>2017-09-11T12:53:24Z</time>
      </trkpt>
      <trkpt lat="44.48317" lon="1.05499">
        <ele>73.529234677847</ele>
        <time>2017-09-11T12:53:30Z</time>
      </trkpt>
      <trkpt lat="44.48325" lon="1.05503">
        <ele>73.468849830518</ele>
        <time>2017-09-11T12:53:36Z</time>
      </trkpt>
      <trkpt lat="44.48333" lon="1.05507">
        <ele>73.666034104205</ele>
        <time>2017-09-11T12:53:44Z</time>
      </trkpt>
      <trkpt lat="44.48341" lon="1.05511">
        <ele>73.836050837807</ele>
        <time>2017-09-11T12:53:51Z</time>
      </trkpt>
      <trkpt lat="44.4835" lon="1.05513">
        <ele>73.644256595562</ele>
        <time>2017-09-11T12:53:58Z</time>
      </trkpt>
      <trkpt lat="44.48358" lon="1.05516">
        <ele>73.114527072206</ele>
        <time>2017-09-11T12:54:06Z</time>
      </trkpt>
      <trkpt lat="44.48366" lon="1.05517">
        <ele>73.089536295883</ele>
        <time>2017-09-11T12:54:13Z</time>
      </trkpt>
      <trkpt lat="44.48373" lon="1.05517">
        <ele>73.258888404161</ele>
        <time>2017-09-11T12:54:19Z</time>
      </trkpt>
      <trkpt lat="44.48384" lon="1.05523">
        <ele>73.613319442997</ele>
        <time>2017-09-11T12:54:24Z</time>
      </trkpt>
      <trkpt lat="44.48391" lon="1.05527">
        <ele>74.016787994405</ele>
        <time>2017-09-11T12:54:31Z</time>
      </trkpt>
      <trkpt lat="44.48398" lon="1.05532">
        <ele>74.011134563878</ele>
        <time>2017-09-11T12:54:37Z</time>
      </trkpt>
      <trkpt lat="44.48405" lon="1.05538">
        <ele>74.038879969887</ele>
        <time>2017-09-11T12:54:44Z</time>
      </trkpt>
      <trkpt lat="44.48414" lon="1.05542">
        <ele>73.929586098909</ele>
        <time>2017-09-11T12:54:50Z</time>
      </trkpt>
      <trkpt lat="44.48422" lon="1.05548">
        <ele>73.751663554373</ele>
        <time>2017-09-11T12:54:57Z</time>
      </trkpt>
      <trkpt lat="44.48429" lon="1.05552">
        <ele>73.420925789169</ele>
        <time>2017-09-11T12:55:06Z</time>
      </trkpt>
      <trkpt lat="44.48437" lon="1.05556">
        <ele>72.882894297194</ele>
        <time>2017-09-11T12:55:23Z</time>
      </trkpt>
      <trkpt lat="44.48445" lon="1.05559">
        <ele>72.564556857554</ele>
        <time>2017-09-11T12:55:31Z</time>
      </trkpt>
      <trkpt lat="44.48453" lon="1.05563">
        <ele>72.628957989058</ele>
        <time>2017-09-11T12:55:39Z</time>
      </trkpt>
      <trkpt lat="44.48462" lon="1.05567">
        <ele>72.51926719124</ele>
        <time>2017-09-11T12:55:46Z</time>
      </trkpt>
      <trkpt lat="44.4847" lon="1.05572">
        <ele>72.958591145965</ele>
        <time>2017-09-11T12:55:52Z</time>
      </trkpt>
      <trkpt lat="44.48478" lon="1.05577">
        <ele>73.100346422639</ele>
        <time>2017-09-11T12:56:02Z</time>
      </trkpt>
      <trkpt lat="44.48486" lon="1.05578">
        <ele>73.110293423475</ele>
        <time>2017-09-11T12:56:19Z</time>
      </trkpt>
      <trkpt lat="44.48494" lon="1.05583">
        <ele>72.551182763136</ele>
        <time>2017-09-11T12:56:31Z</time>
      </trkpt>
      <trkpt lat="44.485" lon="1.05589">
        <ele>72.789291646669</ele>
        <time>2017-09-11T12:56:37Z</time>
      </trkpt>
      <trkpt lat="44.48508" lon="1.05593">
        <ele>73.233871448667</ele>
        <time>2017-09-11T12:56:42Z</time>
      </trkpt>
      <trkpt lat="44.48516" lon="1.05597">
        <ele>73.755026039125</ele>
        <time>2017-09-11T12:56:50Z</time>
      </trkpt>
      <trkpt lat="44.48524" lon="1.05599">
        <ele>73.937629115721</ele>
        <time>2017-09-11T12:56:59Z</time>
      </trkpt>
      <trkpt lat="44.48533" lon="1.05604">
        <ele>74.380246472573</ele>
        <time>2017-09-11T12:57:08Z</time>
      </trkpt>
      <trkpt lat="44.48541" lon="1.05609">
        <ele>74.834486332089</ele>
        <time>2017-09-11T12:57:15Z</time>
      </trkpt>
      <trkpt lat="44.48549" lon="1.05614">
        <ele>74.939205165035</ele>
        <time>2017-09-11T12:57:21Z</time>
      </trkpt>
      <trkpt lat="44.48557" lon="1.05619">
        <ele>74.802669998432</ele>
        <time>2017-09-11T12:57:29Z</time>
      </trkpt>
      <trkpt lat="44.48565" lon="1.05622">
        <ele>75.384408012975</ele>
        <time>2017-09-11T12:57:36Z</time>
      </trkpt>
      <trkpt lat="44.48573" lon="1.05627">
        <ele>75.574475476556</ele>
        <time>2017-09-11T12:57:42Z</time>
      </trkpt>
      <trkpt lat="44.48581" lon="1.05629">
        <ele>74.832048766125</ele>
        <time>2017-09-11T12:57:51Z</time>
      </trkpt>
      <trkpt lat="44.48588" lon="1.05632">
        <ele>74.815031200212</ele>
        <time>2017-09-11T12:57:57Z</time>
      </trkpt>
      <trkpt lat="44.48596" lon="1.05637">
        <ele>74.652836874947</ele>
        <time>2017-09-11T12:58:03Z</time>
      </trkpt>
      <trkpt lat="44.48604" lon="1.05639">
        <ele>74.804415037965</ele>
        <time>2017-09-11T12:58:09Z</time>
      </trkpt>
      <trkpt lat="44.48612" lon="1.05643">
        <ele>74.774172628692</ele>
        <time>2017-09-11T12:58:15Z</time>
      </trkpt>
      <trkpt lat="44.4862" lon="1.05646">
        <ele>74.366566832091</ele>
        <time>2017-09-11T12:58:21Z</time>
      </trkpt>
      <trkpt lat="44.48627" lon="1.05649">
        <ele>74.558003655662</ele>
        <time>2017-09-11T12:58:27Z</time>
      </trkpt>
      <trkpt lat="44.48635" lon="1.05654">
        <ele>74.334548773584</ele>
        <time>2017-09-11T12:58:33Z</time>
      </trkpt>
      <trkpt lat="44.48644" lon="1.05658">
        <ele>73.886136243975</ele>
        <time>2017-09-11T12:58:39Z</time>
      </trkpt>
      <trkpt lat="44.48652" lon="1.05659">
        <ele>74.192491033601</ele>
        <time>2017-09-11T12:58:47Z</time>
      </trkpt>
      <trkpt lat="44.48659" lon="1.05661">
        <ele>74.36683458114</ele>
        <time>2017-09-11T12:58:53Z</time>
      </trkpt>
      <trkpt lat="44.48668" lon="1.05664">
        <ele>74.360043691107</ele>
        <time>2017-09-11T12:59:00Z</time>
      </trkpt>
      <trkpt lat="44.48677" lon="1.05664">
        <ele>74.427444278759</ele>
        <time>2017-09-11T12:59:07Z</time>
      </trkpt>
      <trkpt lat="44.48685" lon="1.05667">
        <ele>74.702794165985</ele>
        <time>2017-09-11T12:59:13Z</time>
      </trkpt>
      <trkpt lat="44.48693" lon="1.05672">
        <ele>74.842958330359</ele>
        <time>2017-09-11T12:59:20Z</time>
      </trkpt>
      <trkpt lat="44.48701" lon="1.05675">
        <ele>74.742802551818</ele>
        <time>2017-09-11T12:59:27Z</time>
      </trkpt>
      <trkpt lat="44.48709" lon="1.05678">
        <ele>73.74478864888</ele>
        <time>2017-09-11T12:59:43Z</time>
      </trkpt>
      <trkpt lat="44.48718" lon="1.05681">
        <ele>73.136983336572</ele>
        <time>2017-09-11T12:59:48Z</time>
      </trkpt>
      <trkpt lat="44.48726" lon="1.05687">
        <ele>72.583990127126</ele>
        <time>2017-09-11T12:59:56Z</time>
      </trkpt>
      <trkpt lat="44.48734" lon="1.0569">
        <ele>72.02666929203</ele>
        <time>2017-09-11T13:00:02Z</time>
      </trkpt>
      <trkpt lat="44.48742" lon="1.05692">
        <ele>71.72105622772</ele>
        <time>2017-09-11T13:00:14Z</time>
      </trkpt>
      <trkpt lat="44.4875" lon="1.05694">
        <ele>71.901179993129</ele>
        <time>2017-09-11T13:00:23Z</time>
      </trkpt>
      <trkpt lat="44.48758" lon="1.05695">
        <ele>72.0792101933</ele>
        <time>2017-09-11T13:00:32Z</time>
      </trkpt>
      <trkpt lat="44.48766" lon="1.05695">
        <ele>71.779977700857</ele>
        <time>2017-09-11T13:00:39Z</time>
      </trkpt>
      <trkpt lat="44.48775" lon="1.05696">
        <ele>71.243884296149</ele>
        <time>2017-09-11T13:00:46Z</time>
      </trkpt>
      <trkpt lat="44.48784" lon="1.057">
        <ele>71.125391841587</ele>
        <time>2017-09-11T13:00:51Z</time>
      </trkpt>
      <trkpt lat="44.48793" lon="1.05701">
        <ele>71.127309602238</ele>
        <time>2017-09-11T13:01:00Z</time>
      </trkpt>
      <trkpt lat="44.488" lon="1.05704">
        <ele>71.026976374594</ele>
        <time>2017-09-11T13:01:05Z</time>
      </trkpt>
      <trkpt lat="44.48807" lon="1.05706">
        <ele>70.755853334965</ele>
        <time>2017-09-11T13:01:11Z</time>
      </trkpt>
      <trkpt lat="44.48815" lon="1.05708">
        <ele>70.462674358838</ele>
        <time>2017-09-11T13:01:18Z</time>
      </trkpt>
      <trkpt lat="44.48823" lon="1.05709">
        <ele>71.300144380968</ele>
        <time>2017-09-11T13:01:28Z</time>
      </trkpt>
      <trkpt lat="44.48832" lon="1.05709">
        <ele>71.67651160135</ele>
        <time>2017-09-11T13:01:35Z</time>
      </trkpt>
      <trkpt lat="44.48838" lon="1.05717">
        <ele>76.491324740873</ele>
        <time>2017-09-11T13:02:08Z</time>
      </trkpt>
      <trkpt lat="44.48841" lon="1.05729">
        <ele>77.394383446093</ele>
        <time>2017-09-11T13:06:51Z</time>
      </trkpt>
      <trkpt lat="44.48841" lon="1.0574">
        <ele>77.704018210661</ele>
        <time>2017-09-11T13:07:03Z</time>
      </trkpt>
      <trkpt lat="44.4884" lon="1.05751">
        <ele>77.362336928142</ele>
        <time>2017-09-11T13:07:10Z</time>
      </trkpt>
      <trkpt lat="44.4884" lon="1.05763">
        <ele>75.674869525399</ele>
        <time>2017-09-11T13:07:22Z</time>
      </trkpt>
      <trkpt lat="44.48838" lon="1.05774">
        <ele>75.00316412687</ele>
        <time>2017-09-11T13:07:26Z</time>
      </trkpt>
      <trkpt lat="44.48836" lon="1.05786">
        <ele>75.46389503133</ele>
        <time>2017-09-11T13:07:36Z</time>
      </trkpt>
      <trkpt lat="44.48836" lon="1.05798">
        <ele>78.781099813065</ele>
        <time>2017-09-11T13:07:48Z</time>
      </trkpt>
      <trkpt lat="44.48832" lon="1.05806">
        <ele>80.501751786647</ele>
        <time>2017-09-11T13:07:56Z</time>
      </trkpt>
      <trkpt lat="44.48828" lon="1.05815">
        <ele>82.700011115572</ele>
        <time>2017-09-11T13:08:03Z</time>
      </trkpt>
      <trkpt lat="44.4882" lon="1.05819">
        <ele>84.616586342418</ele>
        <time>2017-09-11T13:08:11Z</time>
      </trkpt>
      <trkpt lat="44.48812" lon="1.05824">
        <ele>86.477204656476</ele>
        <time>2017-09-11T13:08:18Z</time>
      </trkpt>
      <trkpt lat="44.48808" lon="1.05828">
        <ele>87.723547210225</ele>
        <time>2017-09-11T13:08:23Z</time>
      </trkpt>
      <trkpt lat="44.48799" lon="1.05835">
        <ele>88.970876560643</ele>
        <time>2017-09-11T13:08:28Z</time>
      </trkpt>
      <trkpt lat="44.48791" lon="1.0584">
        <ele>91.989567409717</ele>
        <time>2017-09-11T13:08:38Z</time>
      </trkpt>
      <trkpt lat="44.48783" lon="1.05841">
        <ele>93.322058888</ele>
        <time>2017-09-11T13:08:43Z</time>
      </trkpt>
      <trkpt lat="44.48775" lon="1.05842">
        <ele>94.465015944981</ele>
        <time>2017-09-11T13:08:51Z</time>
      </trkpt>
      <trkpt lat="44.48767" lon="1.05843">
        <ele>94.516264135536</ele>
        <time>2017-09-11T13:09:01Z</time>
      </trkpt>
      <trkpt lat="44.48759" lon="1.05843">
        <ele>94.412963221212</ele>
        <time>2017-09-11T13:09:07Z</time>
      </trkpt>
      <trkpt lat="44.48751" lon="1.05841">
        <ele>94.017369016551</ele>
        <time>2017-09-11T13:09:18Z</time>
      </trkpt>
      <trkpt lat="44.48742" lon="1.05842">
        <ele>94.331775929442</ele>
        <time>2017-09-11T13:09:26Z</time>
      </trkpt>
      <trkpt lat="44.48733" lon="1.05842">
        <ele>94.509350429919</ele>
        <time>2017-09-11T13:09:35Z</time>
      </trkpt>
      <trkpt lat="44.48726" lon="1.05841">
        <ele>94.34518511954</ele>
        <time>2017-09-11T13:09:41Z</time>
      </trkpt>
      <trkpt lat="44.48718" lon="1.05843">
        <ele>94.629518307487</ele>
        <time>2017-09-11T13:09:48Z</time>
      </trkpt>
      <trkpt lat="44.48709" lon="1.05843">
        <ele>94.758448752616</ele>
        <time>2017-09-11T13:10:02Z</time>
      </trkpt>
      <trkpt lat="44.48701" lon="1.05842">
        <ele>95.158757224889</ele>
        <time>2017-09-11T13:10:15Z</time>
      </trkpt>
      <trkpt lat="44.48693" lon="1.05839">
        <ele>95.400680680369</ele>
        <time>2017-09-11T13:10:21Z</time>
      </trkpt>
      <trkpt lat="44.48684" lon="1.05837">
        <ele>96.515697626589</ele>
        <time>2017-09-11T13:10:29Z</time>
      </trkpt>
      <trkpt lat="44.48676" lon="1.05834">
        <ele>98.789233873509</ele>
        <time>2017-09-11T13:10:38Z</time>
      </trkpt>
      <trkpt lat="44.48667" lon="1.05835">
        <ele>101.12660390576</ele>
        <time>2017-09-11T13:10:47Z</time>
      </trkpt>
      <trkpt lat="44.4866" lon="1.05838">
        <ele>102.07125426897</ele>
        <time>2017-09-11T13:10:55Z</time>
      </trkpt>
      <trkpt lat="44.48652" lon="1.05841">
        <ele>102.17467869658</ele>
        <time>2017-09-11T13:11:04Z</time>
      </trkpt>
      <trkpt lat="44.48643" lon="1.05845">
        <ele>102.42707339437</ele>
        <time>2017-09-11T13:11:13Z</time>
      </trkpt>
      <trkpt lat="44.48637" lon="1.05852">
        <ele>103.02151343476</ele>
        <time>2017-09-11T13:11:24Z</time>
      </trkpt>
      <trkpt lat="44.48629" lon="1.05858">
        <ele>104.26694020366</ele>
        <time>2017-09-11T13:11:34Z</time>
      </trkpt>
      <trkpt lat="44.48621" lon="1.05859">
        <ele>104.89412269492</ele>
        <time>2017-09-11T13:11:41Z</time>
      </trkpt>
      <trkpt lat="44.48613" lon="1.0586">
        <ele>105.20524298401</ele>
        <time>2017-09-11T13:11:47Z</time>
      </trkpt>
      <trkpt lat="44.48606" lon="1.05868">
        <ele>105.35602420118</ele>
        <time>2017-09-11T13:12:06Z</time>
      </trkpt>
      <trkpt lat="44.48614" lon="1.05874">
        <ele>107.75759231376</ele>
        <time>2017-09-11T13:12:42Z</time>
      </trkpt>
      <trkpt lat="44.48623" lon="1.05877">
        <ele>108.93433132472</ele>
        <time>2017-09-11T13:12:53Z</time>
      </trkpt>
      <trkpt lat="44.48631" lon="1.05879">
        <ele>109.4501055425</ele>
        <time>2017-09-11T13:13:04Z</time>
      </trkpt>
      <trkpt lat="44.48638" lon="1.0588">
        <ele>109.52547228646</ele>
        <time>2017-09-11T13:13:09Z</time>
      </trkpt>
      <trkpt lat="44.48646" lon="1.05884">
        <ele>109.91189727192</ele>
        <time>2017-09-11T13:13:17Z</time>
      </trkpt>
      <trkpt lat="44.48654" lon="1.05891">
        <ele>110.22591985726</ele>
        <time>2017-09-11T13:13:24Z</time>
      </trkpt>
      <trkpt lat="44.48662" lon="1.05894">
        <ele>110.59424875807</ele>
        <time>2017-09-11T13:13:32Z</time>
      </trkpt>
      <trkpt lat="44.4867" lon="1.05901">
        <ele>111.30798373652</ele>
        <time>2017-09-11T13:13:43Z</time>
      </trkpt>
      <trkpt lat="44.48677" lon="1.05906">
        <ele>111.94153496862</ele>
        <time>2017-09-11T13:13:52Z</time>
      </trkpt>
      <trkpt lat="44.48685" lon="1.05911">
        <ele>112.87052084885</ele>
        <time>2017-09-11T13:14:02Z</time>
      </trkpt>
      <trkpt lat="44.48693" lon="1.05915">
        <ele>113.61212747775</ele>
        <time>2017-09-11T13:14:10Z</time>
      </trkpt>
      <trkpt lat="44.48701" lon="1.0592">
        <ele>114.57614436313</ele>
        <time>2017-09-11T13:14:19Z</time>
      </trkpt>
      <trkpt lat="44.48707" lon="1.05929">
        <ele>115.57007284833</ele>
        <time>2017-09-11T13:14:28Z</time>
      </trkpt>
      <trkpt lat="44.4871" lon="1.0594">
        <ele>116.24851437177</ele>
        <time>2017-09-11T13:14:35Z</time>
      </trkpt>
      <trkpt lat="44.48714" lon="1.0595">
        <ele>116.75852389976</ele>
        <time>2017-09-11T13:14:42Z</time>
      </trkpt>
      <trkpt lat="44.48717" lon="1.05961">
        <ele>116.88123280784</ele>
        <time>2017-09-11T13:14:49Z</time>
      </trkpt>
      <trkpt lat="44.48717" lon="1.05973">
        <ele>117.24848072969</ele>
        <time>2017-09-11T13:14:57Z</time>
      </trkpt>
      <trkpt lat="44.48718" lon="1.05985">
        <ele>117.85710553223</ele>
        <time>2017-09-11T13:15:05Z</time>
      </trkpt>
      <trkpt lat="44.48718" lon="1.05997">
        <ele>117.58937923629</ele>
        <time>2017-09-11T13:15:13Z</time>
      </trkpt>
      <trkpt lat="44.48719" lon="1.06008">
        <ele>117.69940924588</ele>
        <time>2017-09-11T13:15:19Z</time>
      </trkpt>
      <trkpt lat="44.4872" lon="1.0602">
        <ele>118.56644890697</ele>
        <time>2017-09-11T13:15:27Z</time>
      </trkpt>
      <trkpt lat="44.48723" lon="1.06031">
        <ele>118.59243613266</ele>
        <time>2017-09-11T13:15:34Z</time>
      </trkpt>
      <trkpt lat="44.48724" lon="1.06041">
        <ele>119.17241935116</ele>
        <time>2017-09-11T13:15:40Z</time>
      </trkpt>
      <trkpt lat="44.48726" lon="1.06053">
        <ele>119.73997078572</ele>
        <time>2017-09-11T13:15:48Z</time>
      </trkpt>
      <trkpt lat="44.48731" lon="1.06063">
        <ele>117.99299337954</ele>
        <time>2017-09-11T13:16:09Z</time>
      </trkpt>
      <trkpt lat="44.48733" lon="1.06075">
        <ele>117.93816460811</ele>
        <time>2017-09-11T13:16:16Z</time>
      </trkpt>
      <trkpt lat="44.48732" lon="1.06087">
        <ele>118.25314852062</ele>
        <time>2017-09-11T13:16:25Z</time>
      </trkpt>
      <trkpt lat="44.48732" lon="1.06099">
        <ele>118.86546826626</ele>
        <time>2017-09-11T13:16:33Z</time>
      </trkpt>
      <trkpt lat="44.4873" lon="1.06111">
        <ele>119.25486638149</ele>
        <time>2017-09-11T13:16:43Z</time>
      </trkpt>
      <trkpt lat="44.48727" lon="1.06121">
        <ele>119.38716523566</ele>
        <time>2017-09-11T13:16:49Z</time>
      </trkpt>
      <trkpt lat="44.48724" lon="1.06131">
        <ele>119.06787214403</ele>
        <time>2017-09-11T13:16:56Z</time>
      </trkpt>
      <trkpt lat="44.48721" lon="1.06142">
        <ele>119.05936922677</ele>
        <time>2017-09-11T13:17:03Z</time>
      </trkpt>
      <trkpt lat="44.48722" lon="1.06155">
        <ele>119.14121464691</ele>
        <time>2017-09-11T13:17:09Z</time>
      </trkpt>
      <trkpt lat="44.48715" lon="1.06162">
        <ele>120.21287151049</ele>
        <time>2017-09-11T13:17:22Z</time>
      </trkpt>
      <trkpt lat="44.48708" lon="1.0617">
        <ele>120.70849093546</ele>
        <time>2017-09-11T13:17:42Z</time>
      </trkpt>
      <trkpt lat="44.48704" lon="1.06181">
        <ele>121.30319044869</ele>
        <time>2017-09-11T13:17:48Z</time>
      </trkpt>
      <trkpt lat="44.48699" lon="1.06191">
        <ele>122.02275084926</ele>
        <time>2017-09-11T13:17:55Z</time>
      </trkpt>
      <trkpt lat="44.48703" lon="1.0618">
        <ele>125.12564063904</ele>
        <time>2017-09-11T13:18:40Z</time>
      </trkpt>
      <trkpt lat="44.48709" lon="1.06172">
        <ele>125.05701316397</ele>
        <time>2017-09-11T13:18:47Z</time>
      </trkpt>
      <trkpt lat="44.48717" lon="1.06173">
        <ele>125.16946489409</ele>
        <time>2017-09-11T13:18:53Z</time>
      </trkpt>
      <trkpt lat="44.48723" lon="1.06182">
        <ele>125.54335940989</ele>
        <time>2017-09-11T13:18:59Z</time>
      </trkpt>
      <trkpt lat="44.48725" lon="1.06194">
        <ele>126.16891005108</ele>
        <time>2017-09-11T13:19:11Z</time>
      </trkpt>
      <trkpt lat="44.48728" lon="1.06205">
        <ele>126.85421730528</ele>
        <time>2017-09-11T13:19:20Z</time>
      </trkpt>
      <trkpt lat="44.48732" lon="1.06215">
        <ele>127.58832052881</ele>
        <time>2017-09-11T13:19:26Z</time>
      </trkpt>
      <trkpt lat="44.48731" lon="1.06227">
        <ele>127.54650542378</ele>
        <time>2017-09-11T13:19:32Z</time>
      </trkpt>
      <trkpt lat="44.48726" lon="1.06238">
        <ele>127.80824403687</ele>
        <time>2017-09-11T13:19:37Z</time>
      </trkpt>
      <trkpt lat="44.48721" lon="1.06244">
        <ele>128.6876757254</ele>
        <time>2017-09-11T13:19:42Z</time>
      </trkpt>
      <trkpt lat="44.48715" lon="1.06252">
        <ele>129.28135119081</ele>
        <time>2017-09-11T13:19:47Z</time>
      </trkpt>
      <trkpt lat="44.4871" lon="1.0626">
        <ele>129.85239520103</ele>
        <time>2017-09-11T13:19:54Z</time>
      </trkpt>
      <trkpt lat="44.48703" lon="1.06269">
        <ele>130.20549227373</ele>
        <time>2017-09-11T13:20:00Z</time>
      </trkpt>
      <trkpt lat="44.48697" lon="1.06275">
        <ele>130.66892922977</ele>
        <time>2017-09-11T13:20:06Z</time>
      </trkpt>
      <trkpt lat="44.48691" lon="1.06284">
        <ele>130.75683659996</ele>
        <time>2017-09-11T13:20:13Z</time>
      </trkpt>
      <trkpt lat="44.48686" lon="1.06292">
        <ele>131.35885498089</ele>
        <time>2017-09-11T13:20:19Z</time>
      </trkpt>
      <trkpt lat="44.48681" lon="1.063">
        <ele>132.31534046254</ele>
        <time>2017-09-11T13:20:24Z</time>
      </trkpt>
      <trkpt lat="44.48675" lon="1.06309">
        <ele>133.20184352637</ele>
        <time>2017-09-11T13:20:29Z</time>
      </trkpt>
      <trkpt lat="44.48668" lon="1.06316">
        <ele>134.50080313539</ele>
        <time>2017-09-11T13:20:36Z</time>
      </trkpt>
      <trkpt lat="44.48661" lon="1.06322">
        <ele>134.68424728403</ele>
        <time>2017-09-11T13:20:42Z</time>
      </trkpt>
      <trkpt lat="44.48656" lon="1.06331">
        <ele>134.46574244002</ele>
        <time>2017-09-11T13:20:48Z</time>
      </trkpt>
      <trkpt lat="44.4865" lon="1.06339">
        <ele>134.81759500216</ele>
        <time>2017-09-11T13:20:55Z</time>
      </trkpt>
      <trkpt lat="44.48644" lon="1.06347">
        <ele>137.09543327004</ele>
        <time>2017-09-11T13:21:20Z</time>
      </trkpt>
      <trkpt lat="44.48639" lon="1.06356">
        <ele>137.30216931675</ele>
        <time>2017-09-11T13:21:24Z</time>
      </trkpt>
      <trkpt lat="44.48633" lon="1.06365">
        <ele>137.46236177725</ele>
        <time>2017-09-11T13:21:31Z</time>
      </trkpt>
      <trkpt lat="44.48628" lon="1.06375">
        <ele>138.08926242457</ele>
        <time>2017-09-11T13:21:37Z</time>
      </trkpt>
      <trkpt lat="44.48621" lon="1.06383">
        <ele>138.33583857522</ele>
        <time>2017-09-11T13:21:45Z</time>
      </trkpt>
      <trkpt lat="44.48616" lon="1.06391">
        <ele>137.93580998889</ele>
        <time>2017-09-11T13:21:50Z</time>
      </trkpt>
      <trkpt lat="44.4861" lon="1.064">
        <ele>137.7373484814</ele>
        <time>2017-09-11T13:21:56Z</time>
      </trkpt>
      <trkpt lat="44.48605" lon="1.06408">
        <ele>138.06704586038</ele>
        <time>2017-09-11T13:22:01Z</time>
      </trkpt>
      <trkpt lat="44.48599" lon="1.06416">
        <ele>138.10162857667</ele>
        <time>2017-09-11T13:22:07Z</time>
      </trkpt>
      <trkpt lat="44.48593" lon="1.06424">
        <ele>137.23221623811</ele>
        <time>2017-09-11T13:22:14Z</time>
      </trkpt>
      <trkpt lat="44.48585" lon="1.06429">
        <ele>136.47171358359</ele>
        <time>2017-09-11T13:22:20Z</time>
      </trkpt>
      <trkpt lat="44.48577" lon="1.06429">
        <ele>136.45926772305</ele>
        <time>2017-09-11T13:22:25Z</time>
      </trkpt>
      <trkpt lat="44.48571" lon="1.06422">
        <ele>136.40044646443</ele>
        <time>2017-09-11T13:22:30Z</time>
      </trkpt>
      <trkpt lat="44.48565" lon="1.06416">
        <ele>136.24953323809</ele>
        <time>2017-09-11T13:22:35Z</time>
      </trkpt>
      <trkpt lat="44.48558" lon="1.06409">
        <ele>136.45348863167</ele>
        <time>2017-09-11T13:22:40Z</time>
      </trkpt>
      <trkpt lat="44.48552" lon="1.06401">
        <ele>135.9117657968</ele>
        <time>2017-09-11T13:22:45Z</time>
      </trkpt>
      <trkpt lat="44.48545" lon="1.06394">
        <ele>135.25694213559</ele>
        <time>2017-09-11T13:22:51Z</time>
      </trkpt>
      <trkpt lat="44.48538" lon="1.0639">
        <ele>135.04598670695</ele>
        <time>2017-09-11T13:22:56Z</time>
      </trkpt>
      <trkpt lat="44.48531" lon="1.06384">
        <ele>134.59484451375</ele>
        <time>2017-09-11T13:23:02Z</time>
      </trkpt>
      <trkpt lat="44.48525" lon="1.06377">
        <ele>134.33698321995</ele>
        <time>2017-09-11T13:23:08Z</time>
      </trkpt>
      <trkpt lat="44.48518" lon="1.0637">
        <ele>133.93730981674</ele>
        <time>2017-09-11T13:23:15Z</time>
      </trkpt>
      <trkpt lat="44.48511" lon="1.06365">
        <ele>134.11135203956</ele>
        <time>2017-09-11T13:23:21Z</time>
      </trkpt>
      <trkpt lat="44.48505" lon="1.06359">
        <ele>133.59020103921</ele>
        <time>2017-09-11T13:23:27Z</time>
      </trkpt>
      <trkpt lat="44.48498" lon="1.06353">
        <ele>133.52360108227</ele>
        <time>2017-09-11T13:23:31Z</time>
      </trkpt>
      <trkpt lat="44.48492" lon="1.06346">
        <ele>132.65316076461</ele>
        <time>2017-09-11T13:23:38Z</time>
      </trkpt>
      <trkpt lat="44.48486" lon="1.06339">
        <ele>132.36256617155</ele>
        <time>2017-09-11T13:23:43Z</time>
      </trkpt>
      <trkpt lat="44.48477" lon="1.06333">
        <ele>132.46318863001</ele>
        <time>2017-09-11T13:23:48Z</time>
      </trkpt>
      <trkpt lat="44.48471" lon="1.06325">
        <ele>132.75698775496</ele>
        <time>2017-09-11T13:23:56Z</time>
      </trkpt>
      <trkpt lat="44.48465" lon="1.06316">
        <ele>132.63833754948</ele>
        <time>2017-09-11T13:24:04Z</time>
      </trkpt>
      <trkpt lat="44.48463" lon="1.06305">
        <ele>132.7560094711</ele>
        <time>2017-09-11T13:24:08Z</time>
      </trkpt>
      <trkpt lat="44.48458" lon="1.06315">
        <ele>133.08898845334</ele>
        <time>2017-09-11T13:24:43Z</time>
      </trkpt>
      <trkpt lat="44.48453" lon="1.06324">
        <ele>134.89094589263</ele>
        <time>2017-09-11T13:28:27Z</time>
      </trkpt>
      <trkpt lat="44.48452" lon="1.06335">
        <ele>134.76041024689</ele>
        <time>2017-09-11T13:28:33Z</time>
      </trkpt>
      <trkpt lat="44.4845" lon="1.06346">
        <ele>134.4198534442</ele>
        <time>2017-09-11T13:28:42Z</time>
      </trkpt>
      <trkpt lat="44.48444" lon="1.06355">
        <ele>133.98874760953</ele>
        <time>2017-09-11T13:28:49Z</time>
      </trkpt>
      <trkpt lat="44.48439" lon="1.06365">
        <ele>133.50490509321</ele>
        <time>2017-09-11T13:28:56Z</time>
      </trkpt>
      <trkpt lat="44.48434" lon="1.06373">
        <ele>133.20528379018</ele>
        <time>2017-09-11T13:29:04Z</time>
      </trkpt>
      <trkpt lat="44.48428" lon="1.06381">
        <ele>133.40563228799</ele>
        <time>2017-09-11T13:29:10Z</time>
      </trkpt>
      <trkpt lat="44.48421" lon="1.06388">
        <ele>133.73655109101</ele>
        <time>2017-09-11T13:29:18Z</time>
      </trkpt>
      <trkpt lat="44.48415" lon="1.06398">
        <ele>133.72437363414</ele>
        <time>2017-09-11T13:29:25Z</time>
      </trkpt>
      <trkpt lat="44.4841" lon="1.06407">
        <ele>133.83043147544</ele>
        <time>2017-09-11T13:29:33Z</time>
      </trkpt>
      <trkpt lat="44.48403" lon="1.06414">
        <ele>134.583968642</ele>
        <time>2017-09-11T13:29:39Z</time>
      </trkpt>
      <trkpt lat="44.48398" lon="1.06422">
        <ele>134.72074047596</ele>
        <time>2017-09-11T13:29:47Z</time>
      </trkpt>
      <trkpt lat="44.48392" lon="1.06432">
        <ele>134.79301404761</ele>
        <time>2017-09-11T13:29:57Z</time>
      </trkpt>
      <trkpt lat="44.48387" lon="1.06441">
        <ele>135.9639606602</ele>
        <time>2017-09-11T13:30:14Z</time>
      </trkpt>
      <trkpt lat="44.48379" lon="1.06446">
        <ele>137.81548670217</ele>
        <time>2017-09-11T13:30:27Z</time>
      </trkpt>
      <trkpt lat="44.48373" lon="1.06454">
        <ele>137.73617543751</ele>
        <time>2017-09-11T13:30:35Z</time>
      </trkpt>
      <trkpt lat="44.48367" lon="1.06463">
        <ele>137.71171324342</ele>
        <time>2017-09-11T13:30:40Z</time>
      </trkpt>
      <trkpt lat="44.48361" lon="1.0647">
        <ele>137.48767660265</ele>
        <time>2017-09-11T13:30:47Z</time>
      </trkpt>
      <trkpt lat="44.48353" lon="1.06476">
        <ele>137.68143850843</ele>
        <time>2017-09-11T13:30:53Z</time>
      </trkpt>
      <trkpt lat="44.48346" lon="1.06479">
        <ele>138.13241345031</ele>
        <time>2017-09-11T13:31:00Z</time>
      </trkpt>
      <trkpt lat="44.48339" lon="1.06485">
        <ele>138.03132688029</ele>
        <time>2017-09-11T13:31:06Z</time>
      </trkpt>
      <trkpt lat="44.48335" lon="1.06495">
        <ele>138.20451181251</ele>
        <time>2017-09-11T13:31:13Z</time>
      </trkpt>
      <trkpt lat="44.4833" lon="1.06505">
        <ele>138.48752653104</ele>
        <time>2017-09-11T13:31:20Z</time>
      </trkpt>
      <trkpt lat="44.4833" lon="1.06517">
        <ele>139.20093156704</ele>
        <time>2017-09-11T13:31:30Z</time>
      </trkpt>
      <trkpt lat="44.48329" lon="1.0653">
        <ele>139.53477253804</ele>
        <time>2017-09-11T13:31:40Z</time>
      </trkpt>
      <trkpt lat="44.48327" lon="1.0654">
        <ele>139.71352413627</ele>
        <time>2017-09-11T13:31:46Z</time>
      </trkpt>
      <trkpt lat="44.48327" lon="1.06551">
        <ele>139.92477871463</ele>
        <time>2017-09-11T13:31:51Z</time>
      </trkpt>
      <trkpt lat="44.48329" lon="1.06563">
        <ele>139.97099701704</ele>
        <time>2017-09-11T13:31:57Z</time>
      </trkpt>
      <trkpt lat="44.48328" lon="1.06573">
        <ele>139.44860691518</ele>
        <time>2017-09-11T13:32:04Z</time>
      </trkpt>
      <trkpt lat="44.48328" lon="1.06586">
        <ele>138.96883170494</ele>
        <time>2017-09-11T13:32:13Z</time>
      </trkpt>
      <trkpt lat="44.48326" lon="1.06597">
        <ele>138.62062842402</ele>
        <time>2017-09-11T13:32:20Z</time>
      </trkpt>
      <trkpt lat="44.48324" lon="1.06609">
        <ele>138.45895536103</ele>
        <time>2017-09-11T13:32:28Z</time>
      </trkpt>
      <trkpt lat="44.48323" lon="1.06619">
        <ele>138.08695474346</ele>
        <time>2017-09-11T13:32:34Z</time>
      </trkpt>
      <trkpt lat="44.48322" lon="1.0663">
        <ele>137.11499623393</ele>
        <time>2017-09-11T13:32:40Z</time>
      </trkpt>
      <trkpt lat="44.4832" lon="1.06641">
        <ele>135.98530307611</ele>
        <time>2017-09-11T13:32:46Z</time>
      </trkpt>
      <trkpt lat="44.48319" lon="1.06652">
        <ele>135.06587182414</ele>
        <time>2017-09-11T13:32:52Z</time>
      </trkpt>
      <trkpt lat="44.48314" lon="1.06661">
        <ele>134.43646401363</ele>
        <time>2017-09-11T13:32:57Z</time>
      </trkpt>
      <trkpt lat="44.48308" lon="1.06669">
        <ele>134.25252464328</ele>
        <time>2017-09-11T13:33:04Z</time>
      </trkpt>
      <trkpt lat="44.48302" lon="1.06677">
        <ele>134.14456803929</ele>
        <time>2017-09-11T13:33:09Z</time>
      </trkpt>
      <trkpt lat="44.48297" lon="1.06685">
        <ele>134.19097846541</ele>
        <time>2017-09-11T13:33:16Z</time>
      </trkpt>
      <trkpt lat="44.48293" lon="1.06697">
        <ele>133.66824296352</ele>
        <time>2017-09-11T13:33:28Z</time>
      </trkpt>
      <trkpt lat="44.483" lon="1.06706">
        <ele>133.63541190141</ele>
        <time>2017-09-11T13:33:36Z</time>
      </trkpt>
      <trkpt lat="44.48307" lon="1.06713">
        <ele>133.96212101657</ele>
        <time>2017-09-11T13:33:45Z</time>
      </trkpt>
      <trkpt lat="44.48313" lon="1.06721">
        <ele>133.84293322411</ele>
        <time>2017-09-11T13:33:53Z</time>
      </trkpt>
      <trkpt lat="44.48318" lon="1.06731">
        <ele>134.17937702987</ele>
        <time>2017-09-11T13:33:59Z</time>
      </trkpt>
      <trkpt lat="44.4832" lon="1.06742">
        <ele>134.29521810339</ele>
        <time>2017-09-11T13:34:07Z</time>
      </trkpt>
      <trkpt lat="44.48317" lon="1.06753">
        <ele>134.07961072603</ele>
        <time>2017-09-11T13:34:13Z</time>
      </trkpt>
      <trkpt lat="44.48312" lon="1.06763">
        <ele>133.46991085885</ele>
        <time>2017-09-11T13:34:19Z</time>
      </trkpt>
      <trkpt lat="44.48306" lon="1.06771">
        <ele>133.37117394375</ele>
        <time>2017-09-11T13:34:26Z</time>
      </trkpt>
      <trkpt lat="44.48301" lon="1.0678">
        <ele>133.41244345605</ele>
        <time>2017-09-11T13:34:33Z</time>
      </trkpt>
      <trkpt lat="44.48295" lon="1.06789">
        <ele>133.75258271618</ele>
        <time>2017-09-11T13:34:41Z</time>
      </trkpt>
      <trkpt lat="44.48289" lon="1.06797">
        <ele>134.16015424002</ele>
        <time>2017-09-11T13:35:16Z</time>
      </trkpt>
      <trkpt lat="44.48285" lon="1.06806">
        <ele>133.54234424661</ele>
        <time>2017-09-11T13:35:23Z</time>
      </trkpt>
      <trkpt lat="44.4828" lon="1.06816">
        <ele>132.7584844842</ele>
        <time>2017-09-11T13:35:30Z</time>
      </trkpt>
      <trkpt lat="44.48275" lon="1.06825">
        <ele>132.09689328971</ele>
        <time>2017-09-11T13:35:38Z</time>
      </trkpt>
      <trkpt lat="44.48269" lon="1.06832">
        <ele>131.70798063035</ele>
        <time>2017-09-11T13:35:43Z</time>
      </trkpt>
      <trkpt lat="44.48264" lon="1.06841">
        <ele>131.12761519418</ele>
        <time>2017-09-11T13:35:50Z</time>
      </trkpt>
      <trkpt lat="44.48258" lon="1.06851">
        <ele>130.60719547226</ele>
        <time>2017-09-11T13:35:56Z</time>
      </trkpt>
      <trkpt lat="44.48255" lon="1.0686">
        <ele>130.40074770465</ele>
        <time>2017-09-11T13:36:03Z</time>
      </trkpt>
      <trkpt lat="44.4825" lon="1.06869">
        <ele>130.22056584852</ele>
        <time>2017-09-11T13:36:10Z</time>
      </trkpt>
      <trkpt lat="44.48245" lon="1.06877">
        <ele>130.30424247755</ele>
        <time>2017-09-11T13:36:16Z</time>
      </trkpt>
      <trkpt lat="44.48238" lon="1.06883">
        <ele>130.48717254015</ele>
        <time>2017-09-11T13:36:21Z</time>
      </trkpt>
      <trkpt lat="44.48229" lon="1.06885">
        <ele>130.68203080631</ele>
        <time>2017-09-11T13:36:30Z</time>
      </trkpt>
      <trkpt lat="44.4822" lon="1.06884">
        <ele>130.04948395501</ele>
        <time>2017-09-11T13:37:08Z</time>
      </trkpt>
      <trkpt lat="44.48216" lon="1.06893">
        <ele>128.21011346988</ele>
        <time>2017-09-11T13:37:25Z</time>
      </trkpt>
      <trkpt lat="44.48215" lon="1.06904">
        <ele>126.52392698552</ele>
        <time>2017-09-11T13:37:32Z</time>
      </trkpt>
      <trkpt lat="44.48215" lon="1.06916">
        <ele>125.43441764091</ele>
        <time>2017-09-11T13:37:39Z</time>
      </trkpt>
      <trkpt lat="44.48214" lon="1.06927">
        <ele>124.83306243023</ele>
        <time>2017-09-11T13:37:44Z</time>
      </trkpt>
      <trkpt lat="44.4821" lon="1.06938">
        <ele>124.82506387195</ele>
        <time>2017-09-11T13:37:52Z</time>
      </trkpt>
      <trkpt lat="44.48204" lon="1.06945">
        <ele>125.05199112967</ele>
        <time>2017-09-11T13:37:59Z</time>
      </trkpt>
      <trkpt lat="44.48199" lon="1.06955">
        <ele>125.47898959638</ele>
        <time>2017-09-11T13:38:08Z</time>
      </trkpt>
      <trkpt lat="44.48194" lon="1.06964">
        <ele>125.98313904923</ele>
        <time>2017-09-11T13:38:15Z</time>
      </trkpt>
      <trkpt lat="44.48192" lon="1.06976">
        <ele>126.22811125056</ele>
        <time>2017-09-11T13:38:21Z</time>
      </trkpt>
      <trkpt lat="44.4819" lon="1.06987">
        <ele>125.11446996821</ele>
        <time>2017-09-11T13:38:30Z</time>
      </trkpt>
      <trkpt lat="44.48188" lon="1.06999">
        <ele>124.48910313002</ele>
        <time>2017-09-11T13:38:35Z</time>
      </trkpt>
      <trkpt lat="44.48186" lon="1.07009">
        <ele>124.07526697419</ele>
        <time>2017-09-11T13:38:42Z</time>
      </trkpt>
      <trkpt lat="44.48184" lon="1.07022">
        <ele>123.37051628653</ele>
        <time>2017-09-11T13:38:50Z</time>
      </trkpt>
      <trkpt lat="44.48183" lon="1.07033">
        <ele>122.81270282398</ele>
        <time>2017-09-11T13:38:56Z</time>
      </trkpt>
      <trkpt lat="44.4818" lon="1.07043">
        <ele>122.48715818146</ele>
        <time>2017-09-11T13:39:01Z</time>
      </trkpt>
      <trkpt lat="44.48177" lon="1.07054">
        <ele>121.60595431384</ele>
        <time>2017-09-11T13:39:06Z</time>
      </trkpt>
      <trkpt lat="44.48173" lon="1.07065">
        <ele>120.88248849203</ele>
        <time>2017-09-11T13:39:14Z</time>
      </trkpt>
      <trkpt lat="44.48171" lon="1.07077">
        <ele>119.81419555064</ele>
        <time>2017-09-11T13:39:22Z</time>
      </trkpt>
      <trkpt lat="44.48169" lon="1.07089">
        <ele>118.3805015699</ele>
        <time>2017-09-11T13:39:30Z</time>
      </trkpt>
      <trkpt lat="44.48167" lon="1.07099">
        <ele>117.46589347245</ele>
        <time>2017-09-11T13:39:36Z</time>
      </trkpt>
      <trkpt lat="44.48165" lon="1.07111">
        <ele>116.82907341765</ele>
        <time>2017-09-11T13:39:44Z</time>
      </trkpt>
      <trkpt lat="44.48163" lon="1.07123">
        <ele>115.76866744232</ele>
        <time>2017-09-11T13:39:51Z</time>
      </trkpt>
      <trkpt lat="44.48158" lon="1.07132">
        <ele>114.82990846651</ele>
        <time>2017-09-11T13:39:57Z</time>
      </trkpt>
      <trkpt lat="44.48156" lon="1.07143">
        <ele>113.77724366531</ele>
        <time>2017-09-11T13:40:04Z</time>
      </trkpt>
      <trkpt lat="44.48151" lon="1.07153">
        <ele>113.37531959131</ele>
        <time>2017-09-11T13:40:10Z</time>
      </trkpt>
      <trkpt lat="44.48146" lon="1.07163">
        <ele>113.22240567391</ele>
        <time>2017-09-11T13:40:16Z</time>
      </trkpt>
      <trkpt lat="44.48142" lon="1.07172">
        <ele>113.83572992832</ele>
        <time>2017-09-11T13:40:23Z</time>
      </trkpt>
      <trkpt lat="44.48137" lon="1.07182">
        <ele>114.12096914604</ele>
        <time>2017-09-11T13:40:30Z</time>
      </trkpt>
      <trkpt lat="44.48133" lon="1.07193">
        <ele>113.93687770724</ele>
        <time>2017-09-11T13:40:39Z</time>
      </trkpt>
      <trkpt lat="44.48129" lon="1.07203">
        <ele>113.21334947584</ele>
        <time>2017-09-11T13:40:46Z</time>
      </trkpt>
      <trkpt lat="44.48126" lon="1.07214">
        <ele>113.16496320607</ele>
        <time>2017-09-11T13:40:53Z</time>
      </trkpt>
      <trkpt lat="44.48122" lon="1.07225">
        <ele>113.28785082274</ele>
        <time>2017-09-11T13:41:00Z</time>
      </trkpt>
      <trkpt lat="44.48122" lon="1.07237">
        <ele>113.46536836603</ele>
        <time>2017-09-11T13:41:12Z</time>
      </trkpt>
      <trkpt lat="44.4813" lon="1.07244">
        <ele>112.84254836704</ele>
        <time>2017-09-11T13:41:20Z</time>
      </trkpt>
      <trkpt lat="44.48136" lon="1.07252">
        <ele>112.53637068418</ele>
        <time>2017-09-11T13:41:29Z</time>
      </trkpt>
      <trkpt lat="44.48141" lon="1.07261">
        <ele>112.86071660365</ele>
        <time>2017-09-11T13:41:38Z</time>
      </trkpt>
      <trkpt lat="44.48146" lon="1.0727">
        <ele>112.43539755563</ele>
        <time>2017-09-11T13:41:44Z</time>
      </trkpt>
      <trkpt lat="44.48149" lon="1.0728">
        <ele>112.32549374358</ele>
        <time>2017-09-11T13:41:49Z</time>
      </trkpt>
      <trkpt lat="44.48148" lon="1.07291">
        <ele>112.16117180979</ele>
        <time>2017-09-11T13:41:55Z</time>
      </trkpt>
      <trkpt lat="44.48144" lon="1.07301">
        <ele>111.99196010166</ele>
        <time>2017-09-11T13:42:02Z</time>
      </trkpt>
      <trkpt lat="44.48141" lon="1.07313">
        <ele>111.63724989213</ele>
        <time>2017-09-11T13:42:09Z</time>
      </trkpt>
      <trkpt lat="44.48138" lon="1.07324">
        <ele>111.86255055874</ele>
        <time>2017-09-11T13:42:17Z</time>
      </trkpt>
      <trkpt lat="44.48134" lon="1.07334">
        <ele>111.70670661372</ele>
        <time>2017-09-11T13:42:24Z</time>
      </trkpt>
      <trkpt lat="44.4813" lon="1.07345">
        <ele>111.50769140815</ele>
        <time>2017-09-11T13:42:31Z</time>
      </trkpt>
      <trkpt lat="44.48126" lon="1.07355">
        <ele>111.69510418245</ele>
        <time>2017-09-11T13:42:39Z</time>
      </trkpt>
      <trkpt lat="44.48122" lon="1.07366">
        <ele>112.25299913984</ele>
        <time>2017-09-11T13:42:47Z</time>
      </trkpt>
      <trkpt lat="44.48119" lon="1.07378">
        <ele>112.63417623352</ele>
        <time>2017-09-11T13:42:55Z</time>
      </trkpt>
      <trkpt lat="44.48117" lon="1.07389">
        <ele>113.0457689691</ele>
        <time>2017-09-11T13:43:03Z</time>
      </trkpt>
      <trkpt lat="44.48112" lon="1.07399">
        <ele>114.03515087756</ele>
        <time>2017-09-11T13:43:12Z</time>
      </trkpt>
      <trkpt lat="44.48106" lon="1.07408">
        <ele>114.12666446433</ele>
        <time>2017-09-11T13:43:19Z</time>
      </trkpt>
      <trkpt lat="44.48102" lon="1.07419">
        <ele>114.45540507936</ele>
        <time>2017-09-11T13:43:27Z</time>
      </trkpt>
      <trkpt lat="44.48097" lon="1.07428">
        <ele>114.62910956238</ele>
        <time>2017-09-11T13:43:35Z</time>
      </trkpt>
      <trkpt lat="44.48092" lon="1.07438">
        <ele>114.30082943665</ele>
        <time>2017-09-11T13:43:41Z</time>
      </trkpt>
      <trkpt lat="44.48086" lon="1.07447">
        <ele>115.5635281632</ele>
        <time>2017-09-11T13:44:13Z</time>
      </trkpt>
      <trkpt lat="44.48084" lon="1.07459">
        <ele>118.36595098221</ele>
        <time>2017-09-11T13:44:38Z</time>
      </trkpt>
      <trkpt lat="44.48081" lon="1.0747">
        <ele>118.43789396873</ele>
        <time>2017-09-11T13:45:00Z</time>
      </trkpt>
      <trkpt lat="44.48079" lon="1.07482">
        <ele>118.54236168117</ele>
        <time>2017-09-11T13:45:08Z</time>
      </trkpt>
      <trkpt lat="44.48077" lon="1.07492">
        <ele>119.106923796</ele>
        <time>2017-09-11T13:45:15Z</time>
      </trkpt>
      <trkpt lat="44.48072" lon="1.07502">
        <ele>119.55959957001</ele>
        <time>2017-09-11T13:45:20Z</time>
      </trkpt>
      <trkpt lat="44.48068" lon="1.07513">
        <ele>120.19679504262</ele>
        <time>2017-09-11T13:45:27Z</time>
      </trkpt>
      <trkpt lat="44.48063" lon="1.07524">
        <ele>120.70150349117</ele>
        <time>2017-09-11T13:45:40Z</time>
      </trkpt>
      <trkpt lat="44.4806" lon="1.07534">
        <ele>120.67975928577</ele>
        <time>2017-09-11T13:45:48Z</time>
      </trkpt>
      <trkpt lat="44.48056" lon="1.07545">
        <ele>120.34651958353</ele>
        <time>2017-09-11T13:45:55Z</time>
      </trkpt>
      <trkpt lat="44.48054" lon="1.07555">
        <ele>120.65301863478</ele>
        <time>2017-09-11T13:46:04Z</time>
      </trkpt>
      <trkpt lat="44.48051" lon="1.07566">
        <ele>120.5734591341</ele>
        <time>2017-09-11T13:46:11Z</time>
      </trkpt>
      <trkpt lat="44.48048" lon="1.07577">
        <ele>119.97872674984</ele>
        <time>2017-09-11T13:46:18Z</time>
      </trkpt>
      <trkpt lat="44.48045" lon="1.07588">
        <ele>119.37807970779</ele>
        <time>2017-09-11T13:46:25Z</time>
      </trkpt>
      <trkpt lat="44.4804" lon="1.07598">
        <ele>118.98980753528</ele>
        <time>2017-09-11T13:46:32Z</time>
      </trkpt>
      <trkpt lat="44.48035" lon="1.07608">
        <ele>118.80654917696</ele>
        <time>2017-09-11T13:46:40Z</time>
      </trkpt>
      <trkpt lat="44.48034" lon="1.0762">
        <ele>119.26736931218</ele>
        <time>2017-09-11T13:46:46Z</time>
      </trkpt>
      <trkpt lat="44.48032" lon="1.07631">
        <ele>120.03171592495</ele>
        <time>2017-09-11T13:46:54Z</time>
      </trkpt>
      <trkpt lat="44.48029" lon="1.07642">
        <ele>120.15276630203</ele>
        <time>2017-09-11T13:47:01Z</time>
      </trkpt>
      <trkpt lat="44.48025" lon="1.07652">
        <ele>120.60333376645</ele>
        <time>2017-09-11T13:47:07Z</time>
      </trkpt>
      <trkpt lat="44.48021" lon="1.07662">
        <ele>120.73290439567</ele>
        <time>2017-09-11T13:47:13Z</time>
      </trkpt>
      <trkpt lat="44.48014" lon="1.0767">
        <ele>121.05392893874</ele>
        <time>2017-09-11T13:47:20Z</time>
      </trkpt>
      <trkpt lat="44.4801" lon="1.07679">
        <ele>121.04914159836</ele>
        <time>2017-09-11T13:47:26Z</time>
      </trkpt>
      <trkpt lat="44.48009" lon="1.07688">
        <ele>121.22467579393</ele>
        <time>2017-09-11T13:47:31Z</time>
      </trkpt>
      <trkpt lat="44.48005" lon="1.07699">
        <ele>121.21935655647</ele>
        <time>2017-09-11T13:47:36Z</time>
      </trkpt>
      <trkpt lat="44.48003" lon="1.0771">
        <ele>121.38901617173</ele>
        <time>2017-09-11T13:47:42Z</time>
      </trkpt>
      <trkpt lat="44.48" lon="1.07721">
        <ele>121.37630152037</ele>
        <time>2017-09-11T13:47:49Z</time>
      </trkpt>
      <trkpt lat="44.47996" lon="1.07731">
        <ele>121.35102033465</ele>
        <time>2017-09-11T13:47:55Z</time>
      </trkpt>
      <trkpt lat="44.47994" lon="1.07743">
        <ele>121.63740315406</ele>
        <time>2017-09-11T13:48:03Z</time>
      </trkpt>
      <trkpt lat="44.47996" lon="1.07755">
        <ele>122.10707056038</ele>
        <time>2017-09-11T13:48:12Z</time>
      </trkpt>
      <trkpt lat="44.47998" lon="1.07766">
        <ele>123.06996111248</ele>
        <time>2017-09-11T13:48:20Z</time>
      </trkpt>
      <trkpt lat="44.48004" lon="1.07773">
        <ele>123.1437798417</ele>
        <time>2017-09-11T13:48:28Z</time>
      </trkpt>
      <trkpt lat="44.48011" lon="1.0778">
        <ele>123.13520186778</ele>
        <time>2017-09-11T13:48:35Z</time>
      </trkpt>
      <trkpt lat="44.48018" lon="1.07787">
        <ele>122.66854469528</ele>
        <time>2017-09-11T13:48:42Z</time>
      </trkpt>
      <trkpt lat="44.48026" lon="1.07792">
        <ele>122.77629184281</ele>
        <time>2017-09-11T13:48:49Z</time>
      </trkpt>
      <trkpt lat="44.48034" lon="1.07799">
        <ele>122.5553196727</ele>
        <time>2017-09-11T13:48:57Z</time>
      </trkpt>
      <trkpt lat="44.48041" lon="1.07793">
        <ele>121.47580858544</ele>
        <time>2017-09-11T13:49:58Z</time>
      </trkpt>
      <trkpt lat="44.48036" lon="1.07803">
        <ele>122.68404542997</ele>
        <time>2017-09-11T13:50:52Z</time>
      </trkpt>
      <trkpt lat="44.48039" lon="1.07814">
        <ele>124.53781459928</ele>
        <time>2017-09-11T13:52:35Z</time>
      </trkpt>
      <trkpt lat="44.4804" lon="1.07826">
        <ele>124.45336686986</ele>
        <time>2017-09-11T13:52:42Z</time>
      </trkpt>
      <trkpt lat="44.4804" lon="1.07838">
        <ele>124.91854491991</ele>
        <time>2017-09-11T13:52:52Z</time>
      </trkpt>
      <trkpt lat="44.48038" lon="1.07849">
        <ele>125.0479612778</ele>
        <time>2017-09-11T13:53:02Z</time>
      </trkpt>
      <trkpt lat="44.48037" lon="1.0786">
        <ele>124.89169386601</ele>
        <time>2017-09-11T13:53:08Z</time>
      </trkpt>
      <trkpt lat="44.48032" lon="1.0787">
        <ele>124.69399354475</ele>
        <time>2017-09-11T13:53:15Z</time>
      </trkpt>
      <trkpt lat="44.48029" lon="1.07879">
        <ele>124.64758031729</ele>
        <time>2017-09-11T13:53:21Z</time>
      </trkpt>
      <trkpt lat="44.48025" lon="1.07889">
        <ele>124.66615006457</ele>
        <time>2017-09-11T13:53:29Z</time>
      </trkpt>
      <trkpt lat="44.48022" lon="1.07901">
        <ele>124.86980910819</ele>
        <time>2017-09-11T13:53:35Z</time>
      </trkpt>
      <trkpt lat="44.48019" lon="1.07912">
        <ele>125.21626986706</ele>
        <time>2017-09-11T13:53:43Z</time>
      </trkpt>
      <trkpt lat="44.48016" lon="1.07922">
        <ele>125.43633246948</ele>
        <time>2017-09-11T13:53:51Z</time>
      </trkpt>
      <trkpt lat="44.48012" lon="1.07933">
        <ele>125.90258886465</ele>
        <time>2017-09-11T13:53:58Z</time>
      </trkpt>
      <trkpt lat="44.48009" lon="1.07945">
        <ele>125.90557688239</ele>
        <time>2017-09-11T13:54:06Z</time>
      </trkpt>
      <trkpt lat="44.48005" lon="1.07954">
        <ele>126.66877003269</ele>
        <time>2017-09-11T13:54:15Z</time>
      </trkpt>
      <trkpt lat="44.48006" lon="1.07966">
        <ele>127.72288079514</ele>
        <time>2017-09-11T13:54:31Z</time>
      </trkpt>
      <trkpt lat="44.48012" lon="1.07975">
        <ele>128.65668938998</ele>
        <time>2017-09-11T13:54:38Z</time>
      </trkpt>
      <trkpt lat="44.4802" lon="1.0798">
        <ele>129.51863042609</ele>
        <time>2017-09-11T13:54:46Z</time>
      </trkpt>
      <trkpt lat="44.48027" lon="1.07985">
        <ele>130.28983972311</ele>
        <time>2017-09-11T13:54:52Z</time>
      </trkpt>
      <trkpt lat="44.48036" lon="1.07987">
        <ele>131.12871120358</ele>
        <time>2017-09-11T13:55:03Z</time>
      </trkpt>
      <trkpt lat="44.48042" lon="1.07992">
        <ele>131.4272911848</ele>
        <time>2017-09-11T13:55:11Z</time>
      </trkpt>
      <trkpt lat="44.4805" lon="1.07996">
        <ele>132.19642124695</ele>
        <time>2017-09-11T13:55:18Z</time>
      </trkpt>
      <trkpt lat="44.48059" lon="1.08001">
        <ele>133.03025119584</ele>
        <time>2017-09-11T13:55:23Z</time>
      </trkpt>
      <trkpt lat="44.48064" lon="1.08003">
        <ele>133.53334130483</ele>
        <time>2017-09-11T13:55:27Z</time>
      </trkpt>
      <trkpt lat="44.48069" lon="1.08013">
        <ele>133.65458818018</ele>
        <time>2017-09-11T13:55:35Z</time>
      </trkpt>
      <trkpt lat="44.48077" lon="1.08017">
        <ele>133.14627143271</ele>
        <time>2017-09-11T13:55:43Z</time>
      </trkpt>
      <trkpt lat="44.48085" lon="1.0802">
        <ele>132.95194868631</ele>
        <time>2017-09-11T13:55:49Z</time>
      </trkpt>
      <trkpt lat="44.48094" lon="1.08022">
        <ele>132.96383563714</ele>
        <time>2017-09-11T13:55:56Z</time>
      </trkpt>
      <trkpt lat="44.48102" lon="1.08024">
        <ele>133.03307822043</ele>
        <time>2017-09-11T13:56:02Z</time>
      </trkpt>
      <trkpt lat="44.48109" lon="1.0803">
        <ele>133.57574544246</ele>
        <time>2017-09-11T13:56:10Z</time>
      </trkpt>
      <trkpt lat="44.48117" lon="1.08031">
        <ele>133.99997703524</ele>
        <time>2017-09-11T13:56:18Z</time>
      </trkpt>
      <trkpt lat="44.48124" lon="1.08035">
        <ele>134.14155883268</ele>
        <time>2017-09-11T13:56:24Z</time>
      </trkpt>
      <trkpt lat="44.48132" lon="1.08037">
        <ele>134.20866542315</ele>
        <time>2017-09-11T13:56:31Z</time>
      </trkpt>
      <trkpt lat="44.4814" lon="1.08042">
        <ele>134.74307867148</ele>
        <time>2017-09-11T13:56:38Z</time>
      </trkpt>
      <trkpt lat="44.48148" lon="1.08046">
        <ele>135.39205464074</ele>
        <time>2017-09-11T13:56:47Z</time>
      </trkpt>
      <trkpt lat="44.48157" lon="1.08049">
        <ele>137.30729368787</ele>
        <time>2017-09-11T13:57:08Z</time>
      </trkpt>
      <trkpt lat="44.48163" lon="1.08057">
        <ele>137.83365726915</ele>
        <time>2017-09-11T13:57:15Z</time>
      </trkpt>
      <trkpt lat="44.48168" lon="1.08066">
        <ele>137.42055268126</ele>
        <time>2017-09-11T13:57:23Z</time>
      </trkpt>
      <trkpt lat="44.48175" lon="1.08071">
        <ele>137.15556627773</ele>
        <time>2017-09-11T13:57:29Z</time>
      </trkpt>
      <trkpt lat="44.48181" lon="1.08079">
        <ele>135.66967138889</ele>
        <time>2017-09-11T13:57:37Z</time>
      </trkpt>
      <trkpt lat="44.48184" lon="1.0809">
        <ele>134.87663878799</ele>
        <time>2017-09-11T13:57:47Z</time>
      </trkpt>
      <trkpt lat="44.48178" lon="1.08098">
        <ele>134.42294030212</ele>
        <time>2017-09-11T13:57:56Z</time>
      </trkpt>
      <trkpt lat="44.4817" lon="1.08099">
        <ele>134.44282956356</ele>
        <time>2017-09-11T13:58:03Z</time>
      </trkpt>
      <trkpt lat="44.48161" lon="1.08101">
        <ele>134.96965186744</ele>
        <time>2017-09-11T13:58:15Z</time>
      </trkpt>
      <trkpt lat="44.48153" lon="1.08102">
        <ele>135.35158935318</ele>
        <time>2017-09-11T13:58:20Z</time>
      </trkpt>
      <trkpt lat="44.4816" lon="1.08096">
        <ele>137.53695090545</ele>
        <time>2017-09-11T13:58:45Z</time>
      </trkpt>
      <trkpt lat="44.48168" lon="1.08095">
        <ele>137.54133934286</ele>
        <time>2017-09-11T13:58:54Z</time>
      </trkpt>
      <trkpt lat="44.48176" lon="1.08091">
        <ele>137.6358749081</ele>
        <time>2017-09-11T13:59:01Z</time>
      </trkpt>
      <trkpt lat="44.48183" lon="1.08084">
        <ele>137.12792841696</ele>
        <time>2017-09-11T13:59:08Z</time>
      </trkpt>
      <trkpt lat="44.48191" lon="1.08085">
        <ele>136.41301306729</ele>
        <time>2017-09-11T13:59:14Z</time>
      </trkpt>
      <trkpt lat="44.48199" lon="1.08089">
        <ele>135.35410864758</ele>
        <time>2017-09-11T13:59:22Z</time>
      </trkpt>
      <trkpt lat="44.48205" lon="1.08096">
        <ele>135.34744496023</ele>
        <time>2017-09-11T13:59:28Z</time>
      </trkpt>
      <trkpt lat="44.4821" lon="1.08106">
        <ele>135.36412878569</ele>
        <time>2017-09-11T13:59:34Z</time>
      </trkpt>
      <trkpt lat="44.48216" lon="1.08114">
        <ele>135.77086498051</ele>
        <time>2017-09-11T13:59:41Z</time>
      </trkpt>
      <trkpt lat="44.48219" lon="1.08124">
        <ele>136.56862343958</ele>
        <time>2017-09-11T13:59:49Z</time>
      </trkpt>
      <trkpt lat="44.48219" lon="1.08134">
        <ele>136.801868612</ele>
        <time>2017-09-11T13:59:54Z</time>
      </trkpt>
      <trkpt lat="44.48217" lon="1.08146">
        <ele>137.99175144026</ele>
        <time>2017-09-11T14:05:19Z</time>
      </trkpt>
      <trkpt lat="44.4821" lon="1.08153">
        <ele>133.97103469738</ele>
        <time>2017-09-11T14:14:22Z</time>
      </trkpt>
      <trkpt lat="44.48203" lon="1.08159">
        <ele>133.79196483099</ele>
        <time>2017-09-11T14:20:19Z</time>
      </trkpt>
      <trkpt lat="44.48197" lon="1.08168">
        <ele>133.87985197053</ele>
        <time>2017-09-11T14:20:27Z</time>
      </trkpt>
      <trkpt lat="44.48191" lon="1.08175">
        <ele>133.10499952179</ele>
        <time>2017-09-11T14:20:35Z</time>
      </trkpt>
      <trkpt lat="44.48184" lon="1.08182">
        <ele>132.10256071613</ele>
        <time>2017-09-11T14:20:46Z</time>
      </trkpt>
      <trkpt lat="44.48177" lon="1.0819">
        <ele>130.9551530001</ele>
        <time>2017-09-11T14:20:56Z</time>
      </trkpt>
      <trkpt lat="44.48171" lon="1.08197">
        <ele>129.59085174489</ele>
        <time>2017-09-11T14:21:17Z</time>
      </trkpt>
      <trkpt lat="44.48165" lon="1.08207">
        <ele>129.46565609827</ele>
        <time>2017-09-11T14:21:27Z</time>
      </trkpt>
      <trkpt lat="44.48173" lon="1.08213">
        <ele>128.73375155288</ele>
        <time>2017-09-11T14:22:18Z</time>
      </trkpt>
      <trkpt lat="44.48181" lon="1.08214">
        <ele>126.3982959401</ele>
        <time>2017-09-11T14:22:37Z</time>
      </trkpt>
      <trkpt lat="44.48174" lon="1.0822">
        <ele>120.69840063179</ele>
        <time>2017-09-11T14:23:28Z</time>
      </trkpt>
      <trkpt lat="44.48166" lon="1.08218">
        <ele>121.51081446957</ele>
        <time>2017-09-11T14:23:37Z</time>
      </trkpt>
      <trkpt lat="44.48161" lon="1.08209">
        <ele>123.12762444178</ele>
        <time>2017-09-11T14:23:47Z</time>
      </trkpt>
      <trkpt lat="44.48169" lon="1.08214">
        <ele>128.51843605885</ele>
        <time>2017-09-11T14:24:26Z</time>
      </trkpt>
      <trkpt lat="44.48169" lon="1.08226">
        <ele>128.73847511873</ele>
        <time>2017-09-11T14:24:31Z</time>
      </trkpt>
      <trkpt lat="44.48174" lon="1.08236">
        <ele>128.1820416231</ele>
        <time>2017-09-11T14:25:01Z</time>
      </trkpt>
      <trkpt lat="44.4818" lon="1.08242">
        <ele>127.87809053018</ele>
        <time>2017-09-11T14:25:08Z</time>
      </trkpt>
      <trkpt lat="44.48187" lon="1.08249">
        <ele>127.6721943578</ele>
        <time>2017-09-11T14:25:16Z</time>
      </trkpt>
      <trkpt lat="44.48192" lon="1.08257">
        <ele>127.36434129563</ele>
        <time>2017-09-11T14:25:24Z</time>
      </trkpt>
      <trkpt lat="44.48198" lon="1.08267">
        <ele>127.35160181152</ele>
        <time>2017-09-11T14:25:31Z</time>
      </trkpt>
      <trkpt lat="44.48204" lon="1.08271">
        <ele>127.0090070324</ele>
        <time>2017-09-11T14:25:40Z</time>
      </trkpt>
      <trkpt lat="44.48212" lon="1.08278">
        <ele>126.73636270293</ele>
        <time>2017-09-11T14:25:49Z</time>
      </trkpt>
      <trkpt lat="44.48217" lon="1.08287">
        <ele>126.10583729611</ele>
        <time>2017-09-11T14:25:57Z</time>
      </trkpt>
      <trkpt lat="44.48222" lon="1.08297">
        <ele>125.94582378011</ele>
        <time>2017-09-11T14:26:03Z</time>
      </trkpt>
      <trkpt lat="44.48226" lon="1.08307">
        <ele>126.22588527454</ele>
        <time>2017-09-11T14:26:11Z</time>
      </trkpt>
      <trkpt lat="44.48222" lon="1.08318">
        <ele>126.28331568254</ele>
        <time>2017-09-11T14:26:16Z</time>
      </trkpt>
      <trkpt lat="44.4822" lon="1.08331">
        <ele>126.59879308062</ele>
        <time>2017-09-11T14:26:26Z</time>
      </trkpt>
      <trkpt lat="44.48216" lon="1.0834">
        <ele>126.88485196473</ele>
        <time>2017-09-11T14:26:35Z</time>
      </trkpt>
      <trkpt lat="44.48212" lon="1.08352">
        <ele>126.56002338104</ele>
        <time>2017-09-11T14:26:42Z</time>
      </trkpt>
      <trkpt lat="44.48208" lon="1.08361">
        <ele>125.95709543619</ele>
        <time>2017-09-11T14:26:50Z</time>
      </trkpt>
      <trkpt lat="44.48202" lon="1.0837">
        <ele>124.89107040013</ele>
        <time>2017-09-11T14:26:59Z</time>
      </trkpt>
      <trkpt lat="44.48198" lon="1.08379">
        <ele>124.61651273196</ele>
        <time>2017-09-11T14:27:05Z</time>
      </trkpt>
      <trkpt lat="44.48194" lon="1.08392">
        <ele>124.7287700009</ele>
        <time>2017-09-11T14:27:10Z</time>
      </trkpt>
      <trkpt lat="44.48189" lon="1.08401">
        <ele>124.49159585611</ele>
        <time>2017-09-11T14:27:17Z</time>
      </trkpt>
      <trkpt lat="44.48184" lon="1.0841">
        <ele>124.65343394333</ele>
        <time>2017-09-11T14:27:22Z</time>
      </trkpt>
      <trkpt lat="44.4818" lon="1.08419">
        <ele>125.22307319222</ele>
        <time>2017-09-11T14:27:29Z</time>
      </trkpt>
      <trkpt lat="44.48176" lon="1.08429">
        <ele>125.45161729744</ele>
        <time>2017-09-11T14:27:36Z</time>
      </trkpt>
      <trkpt lat="44.48171" lon="1.08439">
        <ele>125.63674964875</ele>
        <time>2017-09-11T14:27:43Z</time>
      </trkpt>
      <trkpt lat="44.48165" lon="1.08447">
        <ele>125.66135553613</ele>
        <time>2017-09-11T14:27:49Z</time>
      </trkpt>
      <trkpt lat="44.48161" lon="1.08457">
        <ele>125.7714752786</ele>
        <time>2017-09-11T14:27:56Z</time>
      </trkpt>
      <trkpt lat="44.48156" lon="1.08466">
        <ele>125.91815973978</ele>
        <time>2017-09-11T14:28:01Z</time>
      </trkpt>
      <trkpt lat="44.4815" lon="1.08475">
        <ele>126.06415396594</ele>
        <time>2017-09-11T14:28:07Z</time>
      </trkpt>
      <trkpt lat="44.48144" lon="1.08484">
        <ele>125.78700210739</ele>
        <time>2017-09-11T14:28:14Z</time>
      </trkpt>
      <trkpt lat="44.48137" lon="1.08491">
        <ele>124.63949195799</ele>
        <time>2017-09-11T14:28:22Z</time>
      </trkpt>
      <trkpt lat="44.48132" lon="1.08501">
        <ele>123.29633806735</ele>
        <time>2017-09-11T14:28:33Z</time>
      </trkpt>
      <trkpt lat="44.48126" lon="1.08509">
        <ele>123.09371494835</ele>
        <time>2017-09-11T14:28:38Z</time>
      </trkpt>
      <trkpt lat="44.48121" lon="1.08519">
        <ele>122.12622365253</ele>
        <time>2017-09-11T14:28:48Z</time>
      </trkpt>
      <trkpt lat="44.48115" lon="1.08527">
        <ele>120.33902341581</ele>
        <time>2017-09-11T14:28:57Z</time>
      </trkpt>
      <trkpt lat="44.4811" lon="1.08536">
        <ele>119.38368295627</ele>
        <time>2017-09-11T14:29:02Z</time>
      </trkpt>
      <trkpt lat="44.48105" lon="1.08546">
        <ele>118.21349559716</ele>
        <time>2017-09-11T14:29:10Z</time>
      </trkpt>
      <trkpt lat="44.48099" lon="1.08554">
        <ele>117.59902464223</ele>
        <time>2017-09-11T14:29:17Z</time>
      </trkpt>
      <trkpt lat="44.48095" lon="1.08563">
        <ele>117.1294809695</ele>
        <time>2017-09-11T14:29:24Z</time>
      </trkpt>
      <trkpt lat="44.48088" lon="1.0857">
        <ele>116.68246999905</ele>
        <time>2017-09-11T14:29:32Z</time>
      </trkpt>
      <trkpt lat="44.48083" lon="1.08577">
        <ele>115.89053309</ele>
        <time>2017-09-11T14:29:38Z</time>
      </trkpt>
      <trkpt lat="44.48077" lon="1.08586">
        <ele>115.24315088012</ele>
        <time>2017-09-11T14:29:45Z</time>
      </trkpt>
      <trkpt lat="44.48071" lon="1.08594">
        <ele>114.69876458572</ele>
        <time>2017-09-11T14:29:53Z</time>
      </trkpt>
      <trkpt lat="44.48062" lon="1.08612">
        <ele>114.40958808415</ele>
        <time>2017-09-11T14:29:58Z</time>
      </trkpt>
      <trkpt lat="44.48058" lon="1.08622">
        <ele>114.37244759112</ele>
        <time>2017-09-11T14:30:08Z</time>
      </trkpt>
      <trkpt lat="44.48054" lon="1.08631">
        <ele>114.30366550814</ele>
        <time>2017-09-11T14:30:13Z</time>
      </trkpt>
      <trkpt lat="44.48046" lon="1.08638">
        <ele>114.28104604453</ele>
        <time>2017-09-11T14:30:21Z</time>
      </trkpt>
      <trkpt lat="44.4804" lon="1.08647">
        <ele>113.9227805014</ele>
        <time>2017-09-11T14:30:30Z</time>
      </trkpt>
      <trkpt lat="44.48036" lon="1.08657">
        <ele>113.3705020775</ele>
        <time>2017-09-11T14:30:38Z</time>
      </trkpt>
      <trkpt lat="44.4803" lon="1.08665">
        <ele>112.94067993583</ele>
        <time>2017-09-11T14:30:47Z</time>
      </trkpt>
      <trkpt lat="44.48025" lon="1.08673">
        <ele>112.83128310266</ele>
        <time>2017-09-11T14:30:56Z</time>
      </trkpt>
      <trkpt lat="44.48019" lon="1.08682">
        <ele>112.48779338989</ele>
        <time>2017-09-11T14:31:03Z</time>
      </trkpt>
      <trkpt lat="44.48015" lon="1.08693">
        <ele>112.6653952087</ele>
        <time>2017-09-11T14:31:09Z</time>
      </trkpt>
      <trkpt lat="44.48009" lon="1.08702">
        <ele>112.32315564085</ele>
        <time>2017-09-11T14:31:14Z</time>
      </trkpt>
      <trkpt lat="44.48004" lon="1.08712">
        <ele>112.41434675322</ele>
        <time>2017-09-11T14:31:18Z</time>
      </trkpt>
      <trkpt lat="44.48" lon="1.08722">
        <ele>112.84018042122</ele>
        <time>2017-09-11T14:31:26Z</time>
      </trkpt>
      <trkpt lat="44.48" lon="1.08734">
        <ele>113.61079649155</ele>
        <time>2017-09-11T14:31:42Z</time>
      </trkpt>
      <trkpt lat="44.47995" lon="1.08742">
        <ele>114.55669043385</ele>
        <time>2017-09-11T14:31:49Z</time>
      </trkpt>
      <trkpt lat="44.47989" lon="1.08751">
        <ele>115.06453437755</ele>
        <time>2017-09-11T14:31:56Z</time>
      </trkpt>
      <trkpt lat="44.47984" lon="1.08759">
        <ele>115.22705764078</ele>
        <time>2017-09-11T14:32:03Z</time>
      </trkpt>
      <trkpt lat="44.47978" lon="1.08767">
        <ele>115.06872981075</ele>
        <time>2017-09-11T14:32:08Z</time>
      </trkpt>
      <trkpt lat="44.47972" lon="1.08776">
        <ele>114.87522505523</ele>
        <time>2017-09-11T14:32:17Z</time>
      </trkpt>
      <trkpt lat="44.47966" lon="1.08785">
        <ele>114.59129885534</ele>
        <time>2017-09-11T14:32:23Z</time>
      </trkpt>
      <trkpt lat="44.4796" lon="1.08795">
        <ele>114.59073586606</ele>
        <time>2017-09-11T14:32:31Z</time>
      </trkpt>
      <trkpt lat="44.47956" lon="1.08803">
        <ele>115.19346523189</ele>
        <time>2017-09-11T14:32:37Z</time>
      </trkpt>
      <trkpt lat="44.4795" lon="1.08813">
        <ele>115.31693726487</ele>
        <time>2017-09-11T14:32:43Z</time>
      </trkpt>
      <trkpt lat="44.47945" lon="1.08821">
        <ele>115.6631473052</ele>
        <time>2017-09-11T14:32:51Z</time>
      </trkpt>
      <trkpt lat="44.4794" lon="1.0883">
        <ele>115.95419843277</ele>
        <time>2017-09-11T14:33:00Z</time>
      </trkpt>
      <trkpt lat="44.47936" lon="1.0884">
        <ele>115.94847206786</ele>
        <time>2017-09-11T14:33:08Z</time>
      </trkpt>
      <trkpt lat="44.47931" lon="1.08847">
        <ele>115.95752004261</ele>
        <time>2017-09-11T14:33:14Z</time>
      </trkpt>
      <trkpt lat="44.47925" lon="1.08856">
        <ele>116.43944528001</ele>
        <time>2017-09-11T14:33:21Z</time>
      </trkpt>
      <trkpt lat="44.47922" lon="1.08864">
        <ele>116.51798999266</ele>
        <time>2017-09-11T14:33:25Z</time>
      </trkpt>
      <trkpt lat="44.47919" lon="1.08876">
        <ele>116.8572584509</ele>
        <time>2017-09-11T14:33:32Z</time>
      </trkpt>
      <trkpt lat="44.47915" lon="1.08885">
        <ele>116.95628426786</ele>
        <time>2017-09-11T14:33:39Z</time>
      </trkpt>
      <trkpt lat="44.4791" lon="1.08894">
        <ele>117.53652946527</ele>
        <time>2017-09-11T14:33:44Z</time>
      </trkpt>
      <trkpt lat="44.47906" lon="1.08904">
        <ele>118.27907895464</ele>
        <time>2017-09-11T14:33:53Z</time>
      </trkpt>
      <trkpt lat="44.47901" lon="1.08914">
        <ele>118.40003391172</ele>
        <time>2017-09-11T14:34:00Z</time>
      </trkpt>
      <trkpt lat="44.47896" lon="1.08924">
        <ele>118.50854278503</ele>
        <time>2017-09-11T14:34:06Z</time>
      </trkpt>
      <trkpt lat="44.47892" lon="1.08934">
        <ele>118.84347111459</ele>
        <time>2017-09-11T14:34:14Z</time>
      </trkpt>
      <trkpt lat="44.47888" lon="1.08945">
        <ele>118.69367792689</ele>
        <time>2017-09-11T14:34:24Z</time>
      </trkpt>
      <trkpt lat="44.47884" lon="1.08954">
        <ele>118.68336757436</ele>
        <time>2017-09-11T14:34:29Z</time>
      </trkpt>
      <trkpt lat="44.47878" lon="1.08962">
        <ele>117.8019897382</ele>
        <time>2017-09-11T14:34:40Z</time>
      </trkpt>
      <trkpt lat="44.47872" lon="1.08972">
        <ele>117.48841161095</ele>
        <time>2017-09-11T14:34:46Z</time>
      </trkpt>
      <trkpt lat="44.4787" lon="1.08981">
        <ele>117.18409945998</ele>
        <time>2017-09-11T14:34:52Z</time>
      </trkpt>
      <trkpt lat="44.47866" lon="1.08993">
        <ele>116.98692096825</ele>
        <time>2017-09-11T14:34:57Z</time>
      </trkpt>
      <trkpt lat="44.47861" lon="1.09003">
        <ele>115.93261406534</ele>
        <time>2017-09-11T14:35:07Z</time>
      </trkpt>
      <trkpt lat="44.47857" lon="1.09012">
        <ele>114.67948036648</ele>
        <time>2017-09-11T14:35:14Z</time>
      </trkpt>
      <trkpt lat="44.47853" lon="1.09022">
        <ele>113.76395103416</ele>
        <time>2017-09-11T14:35:34Z</time>
      </trkpt>
      <trkpt lat="44.47847" lon="1.09029">
        <ele>113.37033247933</ele>
        <time>2017-09-11T14:35:39Z</time>
      </trkpt>
      <trkpt lat="44.47841" lon="1.09036">
        <ele>113.01391536598</ele>
        <time>2017-09-11T14:35:44Z</time>
      </trkpt>
      <trkpt lat="44.47833" lon="1.09041">
        <ele>112.01885025417</ele>
        <time>2017-09-11T14:35:53Z</time>
      </trkpt>
      <trkpt lat="44.47833" lon="1.09053">
        <ele>111.63386273514</ele>
        <time>2017-09-11T14:35:58Z</time>
      </trkpt>
      <trkpt lat="44.47835" lon="1.09065">
        <ele>111.63689022788</ele>
        <time>2017-09-11T14:36:02Z</time>
      </trkpt>
      <trkpt lat="44.47837" lon="1.09076">
        <ele>111.53577335726</ele>
        <time>2017-09-11T14:36:09Z</time>
      </trkpt>
      <trkpt lat="44.47839" lon="1.09087">
        <ele>111.25140911015</ele>
        <time>2017-09-11T14:36:15Z</time>
      </trkpt>
      <trkpt lat="44.47842" lon="1.09099">
        <ele>110.92709862392</ele>
        <time>2017-09-11T14:36:23Z</time>
      </trkpt>
      <trkpt lat="44.47842" lon="1.09111">
        <ele>108.8788027774</ele>
        <time>2017-09-11T14:36:37Z</time>
      </trkpt>
      <trkpt lat="44.47842" lon="1.09122">
        <ele>107.62537629946</ele>
        <time>2017-09-11T14:36:43Z</time>
      </trkpt>
      <trkpt lat="44.47844" lon="1.09134">
        <ele>106.57766096004</ele>
        <time>2017-09-11T14:36:50Z</time>
      </trkpt>
      <trkpt lat="44.47847" lon="1.09145">
        <ele>105.99182995724</ele>
        <time>2017-09-11T14:36:55Z</time>
      </trkpt>
      <trkpt lat="44.47846" lon="1.09155">
        <ele>105.39833577462</ele>
        <time>2017-09-11T14:37:01Z</time>
      </trkpt>
      <trkpt lat="44.4785" lon="1.09166">
        <ele>105.04070248305</ele>
        <time>2017-09-11T14:37:08Z</time>
      </trkpt>
      <trkpt lat="44.47854" lon="1.09176">
        <ele>104.56836388214</ele>
        <time>2017-09-11T14:37:14Z</time>
      </trkpt>
      <trkpt lat="44.47857" lon="1.09187">
        <ele>104.22836102759</ele>
        <time>2017-09-11T14:37:19Z</time>
      </trkpt>
      <trkpt lat="44.4786" lon="1.09198">
        <ele>104.09592890531</ele>
        <time>2017-09-11T14:37:25Z</time>
      </trkpt>
      <trkpt lat="44.47862" lon="1.09211">
        <ele>103.7640780861</ele>
        <time>2017-09-11T14:37:32Z</time>
      </trkpt>
      <trkpt lat="44.47864" lon="1.09223">
        <ele>103.56539296671</ele>
        <time>2017-09-11T14:37:39Z</time>
      </trkpt>
      <trkpt lat="44.47868" lon="1.09234">
        <ele>103.23309018316</ele>
        <time>2017-09-11T14:37:45Z</time>
      </trkpt>
      <trkpt lat="44.47872" lon="1.09245">
        <ele>102.74215238222</ele>
        <time>2017-09-11T14:37:53Z</time>
      </trkpt>
      <trkpt lat="44.47875" lon="1.09254">
        <ele>102.58451258321</ele>
        <time>2017-09-11T14:38:00Z</time>
      </trkpt>
      <trkpt lat="44.47877" lon="1.09265">
        <ele>102.61335192214</ele>
        <time>2017-09-11T14:38:06Z</time>
      </trkpt>
      <trkpt lat="44.4788" lon="1.09276">
        <ele>102.44649764657</ele>
        <time>2017-09-11T14:38:12Z</time>
      </trkpt>
      <trkpt lat="44.47883" lon="1.09287">
        <ele>102.41270518774</ele>
        <time>2017-09-11T14:38:21Z</time>
      </trkpt>
      <trkpt lat="44.47884" lon="1.09298">
        <ele>102.74856424576</ele>
        <time>2017-09-11T14:38:29Z</time>
      </trkpt>
      <trkpt lat="44.47878" lon="1.09307">
        <ele>102.95539715484</ele>
        <time>2017-09-11T14:38:37Z</time>
      </trkpt>
      <trkpt lat="44.47872" lon="1.09315">
        <ele>102.84765434105</ele>
        <time>2017-09-11T14:38:44Z</time>
      </trkpt>
      <trkpt lat="44.47865" lon="1.09323">
        <ele>102.43770175173</ele>
        <time>2017-09-11T14:38:51Z</time>
      </trkpt>
      <trkpt lat="44.47858" lon="1.09329">
        <ele>102.24961705043</ele>
        <time>2017-09-11T14:38:57Z</time>
      </trkpt>
      <trkpt lat="44.47851" lon="1.09336">
        <ele>102.13504355624</ele>
        <time>2017-09-11T14:39:06Z</time>
      </trkpt>
      <trkpt lat="44.47845" lon="1.09342">
        <ele>102.00588476993</ele>
        <time>2017-09-11T14:39:13Z</time>
      </trkpt>
      <trkpt lat="44.47839" lon="1.09351">
        <ele>101.88978852215</ele>
        <time>2017-09-11T14:39:19Z</time>
      </trkpt>
      <trkpt lat="44.47831" lon="1.09358">
        <ele>101.22927742709</ele>
        <time>2017-09-11T14:39:28Z</time>
      </trkpt>
      <trkpt lat="44.47825" lon="1.09364">
        <ele>101.0742157711</ele>
        <time>2017-09-11T14:39:33Z</time>
      </trkpt>
      <trkpt lat="44.47818" lon="1.09372">
        <ele>101.06567492106</ele>
        <time>2017-09-11T14:39:39Z</time>
      </trkpt>
      <trkpt lat="44.47814" lon="1.09381">
        <ele>101.17702472687</ele>
        <time>2017-09-11T14:39:44Z</time>
      </trkpt>
      <trkpt lat="44.47807" lon="1.09389">
        <ele>101.40093711953</ele>
        <time>2017-09-11T14:39:51Z</time>
      </trkpt>
      <trkpt lat="44.478" lon="1.09397">
        <ele>101.71595158973</ele>
        <time>2017-09-11T14:39:58Z</time>
      </trkpt>
      <trkpt lat="44.47793" lon="1.09405">
        <ele>101.83464944738</ele>
        <time>2017-09-11T14:40:05Z</time>
      </trkpt>
      <trkpt lat="44.47787" lon="1.09413">
        <ele>101.96324114808</ele>
        <time>2017-09-11T14:40:12Z</time>
      </trkpt>
      <trkpt lat="44.47779" lon="1.09418">
        <ele>102.18141221258</ele>
        <time>2017-09-11T14:40:20Z</time>
      </trkpt>
      <trkpt lat="44.47772" lon="1.09423">
        <ele>102.08186769655</ele>
        <time>2017-09-11T14:40:27Z</time>
      </trkpt>
      <trkpt lat="44.47765" lon="1.09431">
        <ele>102.32949492855</ele>
        <time>2017-09-11T14:40:33Z</time>
      </trkpt>
      <trkpt lat="44.47759" lon="1.09439">
        <ele>102.84222129217</ele>
        <time>2017-09-11T14:40:40Z</time>
      </trkpt>
      <trkpt lat="44.47753" lon="1.09446">
        <ele>103.47013030206</ele>
        <time>2017-09-11T14:40:48Z</time>
      </trkpt>
      <trkpt lat="44.47746" lon="1.09452">
        <ele>103.93845349086</ele>
        <time>2017-09-11T14:40:53Z</time>
      </trkpt>
      <trkpt lat="44.47741" lon="1.0946">
        <ele>103.99921138077</ele>
        <time>2017-09-11T14:40:59Z</time>
      </trkpt>
      <trkpt lat="44.47734" lon="1.09467">
        <ele>104.25946093641</ele>
        <time>2017-09-11T14:41:04Z</time>
      </trkpt>
      <trkpt lat="44.47729" lon="1.09473">
        <ele>104.58954396196</ele>
        <time>2017-09-11T14:41:10Z</time>
      </trkpt>
      <trkpt lat="44.47722" lon="1.0948">
        <ele>104.95353039791</ele>
        <time>2017-09-11T14:41:16Z</time>
      </trkpt>
      <trkpt lat="44.47714" lon="1.09485">
        <ele>105.24597739818</ele>
        <time>2017-09-11T14:41:21Z</time>
      </trkpt>
      <trkpt lat="44.47707" lon="1.0949">
        <ele>105.76892341428</ele>
        <time>2017-09-11T14:41:28Z</time>
      </trkpt>
      <trkpt lat="44.47699" lon="1.09495">
        <ele>106.33682674992</ele>
        <time>2017-09-11T14:41:34Z</time>
      </trkpt>
      <trkpt lat="44.47691" lon="1.09494">
        <ele>106.63696278145</ele>
        <time>2017-09-11T14:41:42Z</time>
      </trkpt>
      <trkpt lat="44.47682" lon="1.09492">
        <ele>107.02618790594</ele>
        <time>2017-09-11T14:41:49Z</time>
      </trkpt>
      <trkpt lat="44.47674" lon="1.09492">
        <ele>107.61485937639</ele>
        <time>2017-09-11T14:41:55Z</time>
      </trkpt>
      <trkpt lat="44.47665" lon="1.09492">
        <ele>108.14657078195</ele>
        <time>2017-09-11T14:42:01Z</time>
      </trkpt>
      <trkpt lat="44.47656" lon="1.09491">
        <ele>108.97322218522</ele>
        <time>2017-09-11T14:42:09Z</time>
      </trkpt>
      <trkpt lat="44.47649" lon="1.09486">
        <ele>109.4026775571</ele>
        <time>2017-09-11T14:42:14Z</time>
      </trkpt>
      <trkpt lat="44.4764" lon="1.09484">
        <ele>109.99859640596</ele>
        <time>2017-09-11T14:42:22Z</time>
      </trkpt>
      <trkpt lat="44.47632" lon="1.09484">
        <ele>110.26641178235</ele>
        <time>2017-09-11T14:42:28Z</time>
      </trkpt>
      <trkpt lat="44.47624" lon="1.09482">
        <ele>110.76910074812</ele>
        <time>2017-09-11T14:42:34Z</time>
      </trkpt>
      <trkpt lat="44.47615" lon="1.0948">
        <ele>111.64516666546</ele>
        <time>2017-09-11T14:42:41Z</time>
      </trkpt>
      <trkpt lat="44.47607" lon="1.09476">
        <ele>112.51898768245</ele>
        <time>2017-09-11T14:42:48Z</time>
      </trkpt>
      <trkpt lat="44.47598" lon="1.09474">
        <ele>113.48949051528</ele>
        <time>2017-09-11T14:43:00Z</time>
      </trkpt>
      <trkpt lat="44.4759" lon="1.09473">
        <ele>113.83219634583</ele>
        <time>2017-09-11T14:43:06Z</time>
      </trkpt>
      <trkpt lat="44.47582" lon="1.09471">
        <ele>114.03718981402</ele>
        <time>2017-09-11T14:43:12Z</time>
      </trkpt>
      <trkpt lat="44.47574" lon="1.0947">
        <ele>114.05327584938</ele>
        <time>2017-09-11T14:43:19Z</time>
      </trkpt>
      <trkpt lat="44.47566" lon="1.09469">
        <ele>114.13208757844</ele>
        <time>2017-09-11T14:43:25Z</time>
      </trkpt>
      <trkpt lat="44.47558" lon="1.09465">
        <ele>114.56181156443</ele>
        <time>2017-09-11T14:43:32Z</time>
      </trkpt>
      <trkpt lat="44.4755" lon="1.09465">
        <ele>115.22764131547</ele>
        <time>2017-09-11T14:43:40Z</time>
      </trkpt>
      <trkpt lat="44.47541" lon="1.09465">
        <ele>115.87233807583</ele>
        <time>2017-09-11T14:43:46Z</time>
      </trkpt>
      <trkpt lat="44.47533" lon="1.09465">
        <ele>116.53847457539</ele>
        <time>2017-09-11T14:43:54Z</time>
      </trkpt>
      <trkpt lat="44.47524" lon="1.09466">
        <ele>116.78729975791</ele>
        <time>2017-09-11T14:44:00Z</time>
      </trkpt>
      <trkpt lat="44.47517" lon="1.09461">
        <ele>117.18688657136</ele>
        <time>2017-09-11T14:44:06Z</time>
      </trkpt>
      <trkpt lat="44.47509" lon="1.09457">
        <ele>117.717643017</ele>
        <time>2017-09-11T14:44:14Z</time>
      </trkpt>
      <trkpt lat="44.47502" lon="1.09455">
        <ele>117.90489923479</ele>
        <time>2017-09-11T14:44:20Z</time>
      </trkpt>
      <trkpt lat="44.47494" lon="1.09451">
        <ele>118.26991223774</ele>
        <time>2017-09-11T14:44:27Z</time>
      </trkpt>
      <trkpt lat="44.47486" lon="1.09449">
        <ele>118.76610969306</ele>
        <time>2017-09-11T14:44:34Z</time>
      </trkpt>
      <trkpt lat="44.47478" lon="1.09446">
        <ele>119.50061084171</ele>
        <time>2017-09-11T14:44:40Z</time>
      </trkpt>
      <trkpt lat="44.4747" lon="1.09447">
        <ele>120.29707538731</ele>
        <time>2017-09-11T14:44:47Z</time>
      </trkpt>
      <trkpt lat="44.47464" lon="1.09441">
        <ele>121.31961898746</ele>
        <time>2017-09-11T14:44:54Z</time>
      </trkpt>
      <trkpt lat="44.47457" lon="1.09433">
        <ele>121.03564937883</ele>
        <time>2017-09-11T14:45:05Z</time>
      </trkpt>
      <trkpt lat="44.47449" lon="1.09427">
        <ele>121.44707119891</ele>
        <time>2017-09-11T14:45:15Z</time>
      </trkpt>
      <trkpt lat="44.47444" lon="1.09419">
        <ele>121.25510368692</ele>
        <time>2017-09-11T14:45:26Z</time>
      </trkpt>
      <trkpt lat="44.47436" lon="1.09412">
        <ele>121.01205390649</ele>
        <time>2017-09-11T14:45:31Z</time>
      </trkpt>
      <trkpt lat="44.47431" lon="1.09402">
        <ele>121.05388845205</ele>
        <time>2017-09-11T14:45:38Z</time>
      </trkpt>
      <trkpt lat="44.47426" lon="1.09393">
        <ele>120.52619149857</ele>
        <time>2017-09-11T14:45:47Z</time>
      </trkpt>
      <trkpt lat="44.47419" lon="1.09385">
        <ele>120.25340607191</ele>
        <time>2017-09-11T14:45:58Z</time>
      </trkpt>
      <trkpt lat="44.47412" lon="1.09378">
        <ele>119.79907061014</ele>
        <time>2017-09-11T14:46:05Z</time>
      </trkpt>
      <trkpt lat="44.47406" lon="1.0937">
        <ele>119.85594106884</ele>
        <time>2017-09-11T14:46:11Z</time>
      </trkpt>
      <trkpt lat="44.474" lon="1.09362">
        <ele>119.64381678816</ele>
        <time>2017-09-11T14:46:17Z</time>
      </trkpt>
      <trkpt lat="44.47394" lon="1.09354">
        <ele>119.90338189975</ele>
        <time>2017-09-11T14:46:23Z</time>
      </trkpt>
      <trkpt lat="44.47386" lon="1.09348">
        <ele>120.79481644837</ele>
        <time>2017-09-11T14:46:30Z</time>
      </trkpt>
      <trkpt lat="44.47381" lon="1.09343">
        <ele>122.44536699846</ele>
        <time>2017-09-11T14:46:40Z</time>
      </trkpt>
      <trkpt lat="44.47373" lon="1.09335">
        <ele>123.0910530913</ele>
        <time>2017-09-11T14:46:45Z</time>
      </trkpt>
      <trkpt lat="44.47367" lon="1.09326">
        <ele>125.41507006242</ele>
        <time>2017-09-11T14:46:56Z</time>
      </trkpt>
      <trkpt lat="44.47362" lon="1.09319">
        <ele>129.09183103141</ele>
        <time>2017-09-11T14:47:10Z</time>
      </trkpt>
      <trkpt lat="44.47355" lon="1.09314">
        <ele>131.11555430376</ele>
        <time>2017-09-11T14:47:15Z</time>
      </trkpt>
      <trkpt lat="44.47349" lon="1.09306">
        <ele>132.47895251005</ele>
        <time>2017-09-11T14:47:20Z</time>
      </trkpt>
      <trkpt lat="44.47343" lon="1.09298">
        <ele>133.47965596591</ele>
        <time>2017-09-11T14:47:25Z</time>
      </trkpt>
      <trkpt lat="44.47335" lon="1.09292">
        <ele>134.67509554498</ele>
        <time>2017-09-11T14:47:35Z</time>
      </trkpt>
      <trkpt lat="44.4733" lon="1.09289">
        <ele>134.20420484104</ele>
        <time>2017-09-11T14:47:41Z</time>
      </trkpt>
      <trkpt lat="44.47321" lon="1.09286">
        <ele>133.69926885358</ele>
        <time>2017-09-11T14:47:46Z</time>
      </trkpt>
      <trkpt lat="44.47314" lon="1.09279">
        <ele>133.04146616875</ele>
        <time>2017-09-11T14:48:00Z</time>
      </trkpt>
      <trkpt lat="44.47307" lon="1.09272">
        <ele>133.24604984548</ele>
        <time>2017-09-11T14:48:07Z</time>
      </trkpt>
      <trkpt lat="44.473" lon="1.09266">
        <ele>133.11006689968</ele>
        <time>2017-09-11T14:48:14Z</time>
      </trkpt>
      <trkpt lat="44.47292" lon="1.09264">
        <ele>132.91148830546</ele>
        <time>2017-09-11T14:48:24Z</time>
      </trkpt>
      <trkpt lat="44.47283" lon="1.09265">
        <ele>133.08946999202</ele>
        <time>2017-09-11T14:48:33Z</time>
      </trkpt>
      <trkpt lat="44.47275" lon="1.09262">
        <ele>133.65621728421</ele>
        <time>2017-09-11T14:48:40Z</time>
      </trkpt>
      <trkpt lat="44.47266" lon="1.09259">
        <ele>135.04789099785</ele>
        <time>2017-09-11T14:48:49Z</time>
      </trkpt>
      <trkpt lat="44.47257" lon="1.09258">
        <ele>138.02590345624</ele>
        <time>2017-09-11T14:49:02Z</time>
      </trkpt>
      <trkpt lat="44.47246" lon="1.09254">
        <ele>139.07182553156</ele>
        <time>2017-09-11T14:49:07Z</time>
      </trkpt>
      <trkpt lat="44.47238" lon="1.09251">
        <ele>140.57359855412</ele>
        <time>2017-09-11T14:49:19Z</time>
      </trkpt>
      <trkpt lat="44.47231" lon="1.09247">
        <ele>140.60457642684</ele>
        <time>2017-09-11T14:49:29Z</time>
      </trkpt>
      <trkpt lat="44.47221" lon="1.09239">
        <ele>140.43613911994</ele>
        <time>2017-09-11T14:49:33Z</time>
      </trkpt>
      <trkpt lat="44.47215" lon="1.0924">
        <ele>140.18148491014</ele>
        <time>2017-09-11T14:49:37Z</time>
      </trkpt>
      <trkpt lat="44.47207" lon="1.0924">
        <ele>141.38160792195</ele>
        <time>2017-09-11T14:49:46Z</time>
      </trkpt>
      <trkpt lat="44.47199" lon="1.0924">
        <ele>143.76864156774</ele>
        <time>2017-09-11T14:49:54Z</time>
      </trkpt>
      <trkpt lat="44.47191" lon="1.09237">
        <ele>144.95208095409</ele>
        <time>2017-09-11T14:49:58Z</time>
      </trkpt>
      <trkpt lat="44.47183" lon="1.09236">
        <ele>146.41287331881</ele>
        <time>2017-09-11T14:50:08Z</time>
      </trkpt>
      <trkpt lat="44.47174" lon="1.09236">
        <ele>147.22976602338</ele>
        <time>2017-09-11T14:50:20Z</time>
      </trkpt>
      <trkpt lat="44.47168" lon="1.09233">
        <ele>148.79740731142</ele>
        <time>2017-09-11T14:50:29Z</time>
      </trkpt>
      <trkpt lat="44.47161" lon="1.09229">
        <ele>150.82709839476</ele>
        <time>2017-09-11T14:50:35Z</time>
      </trkpt>
      <trkpt lat="44.47152" lon="1.0923">
        <ele>152.17363931829</ele>
        <time>2017-09-11T14:50:39Z</time>
      </trkpt>
      <trkpt lat="44.47145" lon="1.09227">
        <ele>153.63951424261</ele>
        <time>2017-09-11T14:50:48Z</time>
      </trkpt>
      <trkpt lat="44.47137" lon="1.09226">
        <ele>154.89074319052</ele>
        <time>2017-09-11T14:50:56Z</time>
      </trkpt>
      <trkpt lat="44.4713" lon="1.09223">
        <ele>155.61220183365</ele>
        <time>2017-09-11T14:51:04Z</time>
      </trkpt>
      <trkpt lat="44.47121" lon="1.09219">
        <ele>156.60147253015</ele>
        <time>2017-09-11T14:51:08Z</time>
      </trkpt>
      <trkpt lat="44.47114" lon="1.09214">
        <ele>158.12695190148</ele>
        <time>2017-09-11T14:51:19Z</time>
      </trkpt>
      <trkpt lat="44.47109" lon="1.09214">
        <ele>158.51637084387</ele>
        <time>2017-09-11T14:51:23Z</time>
      </trkpt>
      <trkpt lat="44.47101" lon="1.09208">
        <ele>159.86547352711</ele>
        <time>2017-09-11T14:51:30Z</time>
      </trkpt>
      <trkpt lat="44.47095" lon="1.09207">
        <ele>162.08328534638</ele>
        <time>2017-09-11T14:51:39Z</time>
      </trkpt>
      <trkpt lat="44.47086" lon="1.09207">
        <ele>162.82481476718</ele>
        <time>2017-09-11T14:51:44Z</time>
      </trkpt>
      <trkpt lat="44.47078" lon="1.092">
        <ele>163.99432383766</ele>
        <time>2017-09-11T14:51:49Z</time>
      </trkpt>
      <trkpt lat="44.47071" lon="1.09196">
        <ele>165.1548867453</ele>
        <time>2017-09-11T14:51:56Z</time>
      </trkpt>
      <trkpt lat="44.47062" lon="1.09193">
        <ele>167.0398427651</ele>
        <time>2017-09-11T14:52:09Z</time>
      </trkpt>
      <trkpt lat="44.47054" lon="1.09188">
        <ele>166.99424456512</ele>
        <time>2017-09-11T14:52:18Z</time>
      </trkpt>
      <trkpt lat="44.47047" lon="1.09182">
        <ele>166.97629133355</ele>
        <time>2017-09-11T14:52:26Z</time>
      </trkpt>
      <trkpt lat="44.4704" lon="1.09178">
        <ele>167.91038538768</ele>
        <time>2017-09-11T14:52:34Z</time>
      </trkpt>
      <trkpt lat="44.47033" lon="1.09174">
        <ele>168.37728253585</ele>
        <time>2017-09-11T14:52:39Z</time>
      </trkpt>
      <trkpt lat="44.47022" lon="1.09167">
        <ele>168.75105863869</ele>
        <time>2017-09-11T14:52:43Z</time>
      </trkpt>
      <trkpt lat="44.47016" lon="1.0916">
        <ele>172.13759117675</ele>
        <time>2017-09-11T14:52:58Z</time>
      </trkpt>
      <trkpt lat="44.47008" lon="1.09153">
        <ele>173.59131981221</ele>
        <time>2017-09-11T14:53:07Z</time>
      </trkpt>
      <trkpt lat="44.47001" lon="1.0915">
        <ele>174.08771842587</ele>
        <time>2017-09-11T14:53:14Z</time>
      </trkpt>
      <trkpt lat="44.46992" lon="1.09148">
        <ele>175.03912901677</ele>
        <time>2017-09-11T14:53:24Z</time>
      </trkpt>
      <trkpt lat="44.46985" lon="1.09147">
        <ele>175.5149292951</ele>
        <time>2017-09-11T14:53:30Z</time>
      </trkpt>
      <trkpt lat="44.46977" lon="1.09149">
        <ele>175.38301159726</ele>
        <time>2017-09-11T14:53:35Z</time>
      </trkpt>
      <trkpt lat="44.46968" lon="1.0915">
        <ele>175.18002468934</ele>
        <time>2017-09-11T14:53:53Z</time>
      </trkpt>
      <trkpt lat="44.4696" lon="1.09155">
        <ele>175.12697897643</ele>
        <time>2017-09-11T14:54:02Z</time>
      </trkpt>
      <trkpt lat="44.46952" lon="1.09154">
        <ele>175.15876019734</ele>
        <time>2017-09-11T14:54:10Z</time>
      </trkpt>
      <trkpt lat="44.46943" lon="1.09154">
        <ele>176.0028394103</ele>
        <time>2017-09-11T14:54:17Z</time>
      </trkpt>
      <trkpt lat="44.46935" lon="1.09156">
        <ele>177.38320992675</ele>
        <time>2017-09-11T14:54:25Z</time>
      </trkpt>
      <trkpt lat="44.46927" lon="1.09159">
        <ele>178.75342005719</ele>
        <time>2017-09-11T14:54:34Z</time>
      </trkpt>
      <trkpt lat="44.46918" lon="1.0916">
        <ele>179.74883992122</ele>
        <time>2017-09-11T14:54:43Z</time>
      </trkpt>
      <trkpt lat="44.4691" lon="1.0916">
        <ele>180.23088009213</ele>
        <time>2017-09-11T14:54:48Z</time>
      </trkpt>
      <trkpt lat="44.46902" lon="1.0916">
        <ele>180.32879201102</ele>
        <time>2017-09-11T14:54:53Z</time>
      </trkpt>
      <trkpt lat="44.46894" lon="1.0916">
        <ele>180.42145609671</ele>
        <time>2017-09-11T14:55:09Z</time>
      </trkpt>
      <trkpt lat="44.46885" lon="1.0916">
        <ele>181.1802308156</ele>
        <time>2017-09-11T14:55:19Z</time>
      </trkpt>
      <trkpt lat="44.46877" lon="1.09164">
        <ele>183.0423763579</ele>
        <time>2017-09-11T14:55:29Z</time>
      </trkpt>
      <trkpt lat="44.4687" lon="1.09165">
        <ele>183.91338492456</ele>
        <time>2017-09-11T14:55:34Z</time>
      </trkpt>
      <trkpt lat="44.46862" lon="1.09163">
        <ele>184.46886251619</ele>
        <time>2017-09-11T14:55:40Z</time>
      </trkpt>
      <trkpt lat="44.46855" lon="1.09171">
        <ele>185.68912202153</ele>
        <time>2017-09-11T14:55:57Z</time>
      </trkpt>
      <trkpt lat="44.46847" lon="1.09168">
        <ele>186.56913559817</ele>
        <time>2017-09-11T14:56:07Z</time>
      </trkpt>
      <trkpt lat="44.46839" lon="1.09161">
        <ele>187.66587591884</ele>
        <time>2017-09-11T14:56:17Z</time>
      </trkpt>
      <trkpt lat="44.46841" lon="1.0915">
        <ele>189.95448693892</ele>
        <time>2017-09-11T14:56:29Z</time>
      </trkpt>
      <trkpt lat="44.46847" lon="1.09141">
        <ele>190.54705565987</ele>
        <time>2017-09-11T14:56:35Z</time>
      </trkpt>
      <trkpt lat="44.46849" lon="1.09129">
        <ele>190.89591795477</ele>
        <time>2017-09-11T14:56:39Z</time>
      </trkpt>
      <trkpt lat="44.46852" lon="1.09118">
        <ele>190.07689338687</ele>
        <time>2017-09-11T14:56:50Z</time>
      </trkpt>
      <trkpt lat="44.46856" lon="1.09107">
        <ele>189.95707780764</ele>
        <time>2017-09-11T14:57:01Z</time>
      </trkpt>
      <trkpt lat="44.46862" lon="1.09098">
        <ele>190.2972355503</ele>
        <time>2017-09-11T14:57:13Z</time>
      </trkpt>
      <trkpt lat="44.46869" lon="1.09093">
        <ele>190.1575965917</ele>
        <time>2017-09-11T14:57:20Z</time>
      </trkpt>
      <trkpt lat="44.4686" lon="1.09092">
        <ele>191.9198179427</ele>
        <time>2017-09-11T14:57:44Z</time>
      </trkpt>
      <trkpt lat="44.46852" lon="1.09095">
        <ele>193.65721459665</ele>
        <time>2017-09-11T14:57:57Z</time>
      </trkpt>
      <trkpt lat="44.46845" lon="1.09099">
        <ele>194.76373147266</ele>
        <time>2017-09-11T14:58:04Z</time>
      </trkpt>
      <trkpt lat="44.46838" lon="1.09107">
        <ele>195.38070895745</ele>
        <time>2017-09-11T14:58:12Z</time>
      </trkpt>
      <trkpt lat="44.46831" lon="1.09112">
        <ele>196.73155957566</ele>
        <time>2017-09-11T14:58:19Z</time>
      </trkpt>
      <trkpt lat="44.46824" lon="1.09118">
        <ele>197.81959685966</ele>
        <time>2017-09-11T14:58:31Z</time>
      </trkpt>
      <trkpt lat="44.46816" lon="1.09123">
        <ele>198.72977490827</ele>
        <time>2017-09-11T14:58:37Z</time>
      </trkpt>
      <trkpt lat="44.4681" lon="1.09131">
        <ele>200.29249041479</ele>
        <time>2017-09-11T14:58:45Z</time>
      </trkpt>
      <trkpt lat="44.46808" lon="1.0914">
        <ele>202.67984257943</ele>
        <time>2017-09-11T14:58:58Z</time>
      </trkpt>
      <trkpt lat="44.46802" lon="1.09148">
        <ele>203.42579602999</ele>
        <time>2017-09-11T14:59:05Z</time>
      </trkpt>
      <trkpt lat="44.46796" lon="1.09157">
        <ele>204.2184256017</ele>
        <time>2017-09-11T14:59:15Z</time>
      </trkpt>
      <trkpt lat="44.46793" lon="1.09168">
        <ele>204.17148591729</ele>
        <time>2017-09-11T14:59:26Z</time>
      </trkpt>
      <trkpt lat="44.46789" lon="1.09178">
        <ele>204.82113970127</ele>
        <time>2017-09-11T14:59:35Z</time>
      </trkpt>
      <trkpt lat="44.46784" lon="1.09188">
        <ele>208.17053109029</ele>
        <time>2017-09-11T14:59:48Z</time>
      </trkpt>
      <trkpt lat="44.46781" lon="1.09197">
        <ele>209.14178790984</ele>
        <time>2017-09-11T14:59:55Z</time>
      </trkpt>
      <trkpt lat="44.4678" lon="1.09209">
        <ele>209.65633278</ele>
        <time>2017-09-11T15:00:00Z</time>
      </trkpt>
      <trkpt lat="44.46779" lon="1.09221">
        <ele>210.72343838048</ele>
        <time>2017-09-11T15:00:12Z</time>
      </trkpt>
      <trkpt lat="44.46773" lon="1.09228">
        <ele>211.07944064828</ele>
        <time>2017-09-11T15:00:17Z</time>
      </trkpt>
      <trkpt lat="44.46767" lon="1.09237">
        <ele>211.83749376929</ele>
        <time>2017-09-11T15:00:28Z</time>
      </trkpt>
      <trkpt lat="44.46769" lon="1.0925">
        <ele>213.38593329112</ele>
        <time>2017-09-11T15:00:49Z</time>
      </trkpt>
      <trkpt lat="44.46762" lon="1.09256">
        <ele>213.91643405629</ele>
        <time>2017-09-11T15:01:59Z</time>
      </trkpt>
      <trkpt lat="44.4676" lon="1.09267">
        <ele>214.54974280825</ele>
        <time>2017-09-11T15:02:08Z</time>
      </trkpt>
      <trkpt lat="44.46752" lon="1.09265">
        <ele>224.07406598458</ele>
        <time>2017-09-11T15:04:30Z</time>
      </trkpt>
      <trkpt lat="44.46745" lon="1.09257">
        <ele>223.97681931757</ele>
        <time>2017-09-11T15:04:42Z</time>
      </trkpt>
      <trkpt lat="44.46739" lon="1.09247">
        <ele>224.26884835281</ele>
        <time>2017-09-11T15:04:50Z</time>
      </trkpt>
      <trkpt lat="44.46735" lon="1.09237">
        <ele>225.00767754632</ele>
        <time>2017-09-11T15:04:58Z</time>
      </trkpt>
      <trkpt lat="44.46731" lon="1.09226">
        <ele>225.85427702531</ele>
        <time>2017-09-11T15:05:06Z</time>
      </trkpt>
      <trkpt lat="44.46726" lon="1.09216">
        <ele>226.3964704511</ele>
        <time>2017-09-11T15:05:14Z</time>
      </trkpt>
      <trkpt lat="44.46722" lon="1.09205">
        <ele>227.17114721812</ele>
        <time>2017-09-11T15:05:23Z</time>
      </trkpt>
      <trkpt lat="44.46717" lon="1.09196">
        <ele>228.40363701488</ele>
        <time>2017-09-11T15:05:34Z</time>
      </trkpt>
      <trkpt lat="44.46709" lon="1.09192">
        <ele>228.82878072694</ele>
        <time>2017-09-11T15:05:43Z</time>
      </trkpt>
      <trkpt lat="44.46703" lon="1.09183">
        <ele>229.56360988743</ele>
        <time>2017-09-11T15:05:51Z</time>
      </trkpt>
      <trkpt lat="44.46698" lon="1.09174">
        <ele>230.19175446598</ele>
        <time>2017-09-11T15:05:59Z</time>
      </trkpt>
      <trkpt lat="44.46692" lon="1.09167">
        <ele>231.35056427432</ele>
        <time>2017-09-11T15:06:09Z</time>
      </trkpt>
      <trkpt lat="44.46689" lon="1.09156">
        <ele>231.32318745269</ele>
        <time>2017-09-11T15:06:18Z</time>
      </trkpt>
      <trkpt lat="44.46686" lon="1.09145">
        <ele>232.18555479522</ele>
        <time>2017-09-11T15:06:27Z</time>
      </trkpt>
      <trkpt lat="44.46678" lon="1.09139">
        <ele>233.20069390484</ele>
        <time>2017-09-11T15:06:34Z</time>
      </trkpt>
      <trkpt lat="44.46672" lon="1.09132">
        <ele>234.3704848724</ele>
        <time>2017-09-11T15:06:41Z</time>
      </trkpt>
      <trkpt lat="44.46669" lon="1.09121">
        <ele>237.18997934236</ele>
        <time>2017-09-11T15:07:05Z</time>
      </trkpt>
      <trkpt lat="44.46661" lon="1.09116">
        <ele>238.11862165155</ele>
        <time>2017-09-11T15:07:14Z</time>
      </trkpt>
      <trkpt lat="44.46654" lon="1.09111">
        <ele>238.80616992243</ele>
        <time>2017-09-11T15:07:20Z</time>
      </trkpt>
      <trkpt lat="44.46648" lon="1.09103">
        <ele>239.33032070539</ele>
        <time>2017-09-11T15:07:26Z</time>
      </trkpt>
      <trkpt lat="44.46642" lon="1.09097">
        <ele>239.38094034557</ele>
        <time>2017-09-11T15:07:33Z</time>
      </trkpt>
      <trkpt lat="44.46636" lon="1.09088">
        <ele>239.17904102842</ele>
        <time>2017-09-11T15:07:41Z</time>
      </trkpt>
      <trkpt lat="44.46629" lon="1.0908">
        <ele>239.19635689773</ele>
        <time>2017-09-11T15:07:48Z</time>
      </trkpt>
      <trkpt lat="44.46623" lon="1.09071">
        <ele>238.85701022357</ele>
        <time>2017-09-11T15:07:56Z</time>
      </trkpt>
      <trkpt lat="44.46617" lon="1.09061">
        <ele>238.70805870906</ele>
        <time>2017-09-11T15:08:04Z</time>
      </trkpt>
      <trkpt lat="44.46611" lon="1.09054">
        <ele>238.42564033167</ele>
        <time>2017-09-11T15:08:10Z</time>
      </trkpt>
      <trkpt lat="44.46605" lon="1.09048">
        <ele>238.08246273955</ele>
        <time>2017-09-11T15:08:15Z</time>
      </trkpt>
      <trkpt lat="44.46599" lon="1.0904">
        <ele>237.95293973124</ele>
        <time>2017-09-11T15:08:21Z</time>
      </trkpt>
      <trkpt lat="44.46593" lon="1.09031">
        <ele>237.4676455174</ele>
        <time>2017-09-11T15:08:29Z</time>
      </trkpt>
      <trkpt lat="44.46587" lon="1.09023">
        <ele>237.09866438583</ele>
        <time>2017-09-11T15:08:35Z</time>
      </trkpt>
      <trkpt lat="44.4658" lon="1.09016">
        <ele>236.79401008917</ele>
        <time>2017-09-11T15:08:42Z</time>
      </trkpt>
      <trkpt lat="44.46576" lon="1.09006">
        <ele>235.88835055491</ele>
        <time>2017-09-11T15:08:51Z</time>
      </trkpt>
      <trkpt lat="44.46579" lon="1.08994">
        <ele>235.59284087469</ele>
        <time>2017-09-11T15:08:58Z</time>
      </trkpt>
      <trkpt lat="44.46582" lon="1.08984">
        <ele>235.41819469622</ele>
        <time>2017-09-11T15:09:04Z</time>
      </trkpt>
      <trkpt lat="44.46586" lon="1.08973">
        <ele>235.48449575604</ele>
        <time>2017-09-11T15:09:12Z</time>
      </trkpt>
      <trkpt lat="44.46589" lon="1.08962">
        <ele>235.46980614664</ele>
        <time>2017-09-11T15:09:17Z</time>
      </trkpt>
      <trkpt lat="44.46593" lon="1.08951">
        <ele>234.94266127216</ele>
        <time>2017-09-11T15:09:24Z</time>
      </trkpt>
      <trkpt lat="44.46596" lon="1.08942">
        <ele>234.4699549417</ele>
        <time>2017-09-11T15:09:31Z</time>
      </trkpt>
      <trkpt lat="44.46598" lon="1.0893">
        <ele>234.37082888997</ele>
        <time>2017-09-11T15:09:37Z</time>
      </trkpt>
      <trkpt lat="44.46601" lon="1.08919">
        <ele>234.57155803399</ele>
        <time>2017-09-11T15:09:43Z</time>
      </trkpt>
      <trkpt lat="44.46605" lon="1.08909">
        <ele>234.54013102391</ele>
        <time>2017-09-11T15:09:49Z</time>
      </trkpt>
      <trkpt lat="44.46608" lon="1.08899">
        <ele>234.93637194287</ele>
        <time>2017-09-11T15:09:57Z</time>
      </trkpt>
      <trkpt lat="44.4661" lon="1.08888">
        <ele>235.07331832747</ele>
        <time>2017-09-11T15:10:03Z</time>
      </trkpt>
      <trkpt lat="44.46611" lon="1.08876">
        <ele>235.58975246101</ele>
        <time>2017-09-11T15:10:10Z</time>
      </trkpt>
      <trkpt lat="44.46613" lon="1.08865">
        <ele>235.80975799401</ele>
        <time>2017-09-11T15:10:17Z</time>
      </trkpt>
      <trkpt lat="44.46616" lon="1.08854">
        <ele>236.11249796999</ele>
        <time>2017-09-11T15:10:23Z</time>
      </trkpt>
      <trkpt lat="44.46616" lon="1.08843">
        <ele>235.9082556028</ele>
        <time>2017-09-11T15:10:29Z</time>
      </trkpt>
      <trkpt lat="44.46617" lon="1.08831">
        <ele>236.34871705885</ele>
        <time>2017-09-11T15:10:37Z</time>
      </trkpt>
      <trkpt lat="44.46618" lon="1.08819">
        <ele>236.47490426742</ele>
        <time>2017-09-11T15:10:46Z</time>
      </trkpt>
      <trkpt lat="44.46616" lon="1.08807">
        <ele>236.33288145663</ele>
        <time>2017-09-11T15:10:53Z</time>
      </trkpt>
      <trkpt lat="44.46615" lon="1.08795">
        <ele>236.58722643514</ele>
        <time>2017-09-11T15:11:00Z</time>
      </trkpt>
      <trkpt lat="44.46612" lon="1.08783">
        <ele>236.74373834882</ele>
        <time>2017-09-11T15:11:06Z</time>
      </trkpt>
      <trkpt lat="44.4661" lon="1.08772">
        <ele>237.13989690354</ele>
        <time>2017-09-11T15:11:12Z</time>
      </trkpt>
      <trkpt lat="44.46608" lon="1.0876">
        <ele>237.40466125379</ele>
        <time>2017-09-11T15:11:19Z</time>
      </trkpt>
      <trkpt lat="44.46605" lon="1.08749">
        <ele>237.6847084646</ele>
        <time>2017-09-11T15:11:27Z</time>
      </trkpt>
      <trkpt lat="44.46604" lon="1.08737">
        <ele>237.98753868055</ele>
        <time>2017-09-11T15:11:34Z</time>
      </trkpt>
      <trkpt lat="44.46603" lon="1.08726">
        <ele>238.22336481357</ele>
        <time>2017-09-11T15:11:41Z</time>
      </trkpt>
      <trkpt lat="44.46601" lon="1.08715">
        <ele>238.18358061028</ele>
        <time>2017-09-11T15:11:47Z</time>
      </trkpt>
      <trkpt lat="44.46602" lon="1.08703">
        <ele>238.42038575785</ele>
        <time>2017-09-11T15:11:53Z</time>
      </trkpt>
      <trkpt lat="44.466" lon="1.08692">
        <ele>238.43833287023</ele>
        <time>2017-09-11T15:12:00Z</time>
      </trkpt>
      <trkpt lat="44.466" lon="1.08681">
        <ele>238.47136616618</ele>
        <time>2017-09-11T15:12:07Z</time>
      </trkpt>
      <trkpt lat="44.46599" lon="1.08671">
        <ele>238.76539379379</ele>
        <time>2017-09-11T15:12:12Z</time>
      </trkpt>
      <trkpt lat="44.466" lon="1.0866">
        <ele>238.92864281558</ele>
        <time>2017-09-11T15:12:17Z</time>
      </trkpt>
      <trkpt lat="44.46598" lon="1.08649">
        <ele>239.2831884522</ele>
        <time>2017-09-11T15:12:23Z</time>
      </trkpt>
      <trkpt lat="44.46598" lon="1.08637">
        <ele>239.81324019842</ele>
        <time>2017-09-11T15:12:29Z</time>
      </trkpt>
      <trkpt lat="44.46597" lon="1.08624">
        <ele>240.31688374221</ele>
        <time>2017-09-11T15:12:37Z</time>
      </trkpt>
      <trkpt lat="44.46596" lon="1.08613">
        <ele>240.88944439456</ele>
        <time>2017-09-11T15:12:44Z</time>
      </trkpt>
      <trkpt lat="44.46595" lon="1.08602">
        <ele>240.91580812466</ele>
        <time>2017-09-11T15:12:51Z</time>
      </trkpt>
      <trkpt lat="44.46595" lon="1.08591">
        <ele>241.11955359738</ele>
        <time>2017-09-11T15:12:57Z</time>
      </trkpt>
      <trkpt lat="44.46594" lon="1.08579">
        <ele>240.83261751027</ele>
        <time>2017-09-11T15:13:03Z</time>
      </trkpt>
      <trkpt lat="44.46592" lon="1.08568">
        <ele>240.67625759176</ele>
        <time>2017-09-11T15:13:10Z</time>
      </trkpt>
      <trkpt lat="44.46591" lon="1.08556">
        <ele>240.88075587949</ele>
        <time>2017-09-11T15:13:18Z</time>
      </trkpt>
      <trkpt lat="44.46589" lon="1.08546">
        <ele>240.63888889554</ele>
        <time>2017-09-11T15:13:26Z</time>
      </trkpt>
      <trkpt lat="44.46587" lon="1.08535">
        <ele>240.6116766694</ele>
        <time>2017-09-11T15:13:33Z</time>
      </trkpt>
      <trkpt lat="44.46584" lon="1.08525">
        <ele>240.28543281723</ele>
        <time>2017-09-11T15:13:41Z</time>
      </trkpt>
      <trkpt lat="44.46584" lon="1.08513">
        <ele>240.50713997279</ele>
        <time>2017-09-11T15:13:47Z</time>
      </trkpt>
      <trkpt lat="44.46583" lon="1.08503">
        <ele>240.82700718339</ele>
        <time>2017-09-11T15:13:53Z</time>
      </trkpt>
      <trkpt lat="44.46579" lon="1.08493">
        <ele>241.32065137351</ele>
        <time>2017-09-11T15:13:58Z</time>
      </trkpt>
      <trkpt lat="44.46576" lon="1.08482">
        <ele>241.48923076559</ele>
        <time>2017-09-11T15:14:04Z</time>
      </trkpt>
      <trkpt lat="44.46574" lon="1.08472">
        <ele>241.76109348496</ele>
        <time>2017-09-11T15:14:11Z</time>
      </trkpt>
      <trkpt lat="44.46572" lon="1.08462">
        <ele>242.03953497343</ele>
        <time>2017-09-11T15:14:18Z</time>
      </trkpt>
      <trkpt lat="44.46571" lon="1.08451">
        <ele>242.71291039564</ele>
        <time>2017-09-11T15:14:25Z</time>
      </trkpt>
      <trkpt lat="44.4657" lon="1.08439">
        <ele>242.92001425635</ele>
        <time>2017-09-11T15:14:33Z</time>
      </trkpt>
      <trkpt lat="44.46568" lon="1.08427">
        <ele>243.27268950192</ele>
        <time>2017-09-11T15:14:40Z</time>
      </trkpt>
      <trkpt lat="44.46565" lon="1.08417">
        <ele>243.61679321616</ele>
        <time>2017-09-11T15:14:45Z</time>
      </trkpt>
      <trkpt lat="44.46564" lon="1.08406">
        <ele>244.2611147112</ele>
        <time>2017-09-11T15:14:51Z</time>
      </trkpt>
      <trkpt lat="44.46565" lon="1.08396">
        <ele>244.83440099747</ele>
        <time>2017-09-11T15:14:57Z</time>
      </trkpt>
      <trkpt lat="44.46566" lon="1.08384">
        <ele>245.0809159854</ele>
        <time>2017-09-11T15:15:01Z</time>
      </trkpt>
      <trkpt lat="44.46566" lon="1.08372">
        <ele>245.12114589001</ele>
        <time>2017-09-11T15:15:10Z</time>
      </trkpt>
      <trkpt lat="44.46565" lon="1.0836">
        <ele>244.61726182605</ele>
        <time>2017-09-11T15:15:18Z</time>
      </trkpt>
      <trkpt lat="44.46565" lon="1.08349">
        <ele>244.96982290948</ele>
        <time>2017-09-11T15:15:25Z</time>
      </trkpt>
      <trkpt lat="44.46563" lon="1.08337">
        <ele>245.73014161009</ele>
        <time>2017-09-11T15:15:32Z</time>
      </trkpt>
      <trkpt lat="44.46561" lon="1.08325">
        <ele>246.97769209453</ele>
        <time>2017-09-11T15:15:41Z</time>
      </trkpt>
      <trkpt lat="44.46561" lon="1.08313">
        <ele>247.73770745319</ele>
        <time>2017-09-11T15:15:48Z</time>
      </trkpt>
      <trkpt lat="44.46567" lon="1.08304">
        <ele>250.33027092472</ele>
        <time>2017-09-11T15:16:35Z</time>
      </trkpt>
      <trkpt lat="44.46576" lon="1.08303">
        <ele>251.76804118903</ele>
        <time>2017-09-11T15:17:24Z</time>
      </trkpt>
      <trkpt lat="44.46583" lon="1.08299">
        <ele>251.89373089275</ele>
        <time>2017-09-11T15:17:31Z</time>
      </trkpt>
      <trkpt lat="44.46592" lon="1.08296">
        <ele>252.34641590808</ele>
        <time>2017-09-11T15:17:37Z</time>
      </trkpt>
      <trkpt lat="44.46599" lon="1.08295">
        <ele>252.69815124799</ele>
        <time>2017-09-11T15:17:42Z</time>
      </trkpt>
      <trkpt lat="44.46607" lon="1.08295">
        <ele>253.31739033926</ele>
        <time>2017-09-11T15:17:48Z</time>
      </trkpt>
      <trkpt lat="44.46616" lon="1.08295">
        <ele>254.09958067681</ele>
        <time>2017-09-11T15:17:55Z</time>
      </trkpt>
      <trkpt lat="44.46624" lon="1.08293">
        <ele>254.81086047044</ele>
        <time>2017-09-11T15:18:02Z</time>
      </trkpt>
      <trkpt lat="44.46632" lon="1.0829">
        <ele>255.45469044131</ele>
        <time>2017-09-11T15:18:09Z</time>
      </trkpt>
      <trkpt lat="44.4664" lon="1.08288">
        <ele>256.21806334217</ele>
        <time>2017-09-11T15:18:16Z</time>
      </trkpt>
      <trkpt lat="44.46648" lon="1.08286">
        <ele>256.92219779984</ele>
        <time>2017-09-11T15:18:23Z</time>
      </trkpt>
      <trkpt lat="44.46656" lon="1.08285">
        <ele>257.64314219302</ele>
        <time>2017-09-11T15:18:30Z</time>
      </trkpt>
      <trkpt lat="44.46665" lon="1.08286">
        <ele>258.39758330313</ele>
        <time>2017-09-11T15:18:37Z</time>
      </trkpt>
      <trkpt lat="44.46673" lon="1.08285">
        <ele>259.28996466328</ele>
        <time>2017-09-11T15:18:44Z</time>
      </trkpt>
      <trkpt lat="44.46682" lon="1.08285">
        <ele>260.01564265692</ele>
        <time>2017-09-11T15:18:51Z</time>
      </trkpt>
      <trkpt lat="44.4669" lon="1.08284">
        <ele>261.01733344341</ele>
        <time>2017-09-11T15:19:00Z</time>
      </trkpt>
      <trkpt lat="44.46699" lon="1.08283">
        <ele>261.71205574278</ele>
        <time>2017-09-11T15:19:07Z</time>
      </trkpt>
      <trkpt lat="44.46707" lon="1.08281">
        <ele>261.8821859593</ele>
        <time>2017-09-11T15:19:14Z</time>
      </trkpt>
      <trkpt lat="44.46715" lon="1.08279">
        <ele>262.30698692406</ele>
        <time>2017-09-11T15:19:20Z</time>
      </trkpt>
      <trkpt lat="44.46723" lon="1.08276">
        <ele>263.00290002931</ele>
        <time>2017-09-11T15:19:26Z</time>
      </trkpt>
      <trkpt lat="44.4673" lon="1.08273">
        <ele>263.63293330966</ele>
        <time>2017-09-11T15:19:31Z</time>
      </trkpt>
      <trkpt lat="44.46736" lon="1.08267">
        <ele>264.04847517522</ele>
        <time>2017-09-11T15:19:38Z</time>
      </trkpt>
      <trkpt lat="44.46743" lon="1.0826">
        <ele>264.67248373433</ele>
        <time>2017-09-11T15:19:45Z</time>
      </trkpt>
      <trkpt lat="44.46749" lon="1.0825">
        <ele>265.5859151645</ele>
        <time>2017-09-11T15:19:52Z</time>
      </trkpt>
      <trkpt lat="44.46755" lon="1.08243">
        <ele>266.26208616561</ele>
        <time>2017-09-11T15:19:58Z</time>
      </trkpt>
      <trkpt lat="44.46761" lon="1.08233">
        <ele>267.02952084509</ele>
        <time>2017-09-11T15:20:05Z</time>
      </trkpt>
      <trkpt lat="44.46766" lon="1.08225">
        <ele>267.55868837383</ele>
        <time>2017-09-11T15:20:12Z</time>
      </trkpt>
      <trkpt lat="44.46771" lon="1.08217">
        <ele>267.61998408806</ele>
        <time>2017-09-11T15:20:18Z</time>
      </trkpt>
      <trkpt lat="44.46778" lon="1.08208">
        <ele>267.14144055285</ele>
        <time>2017-09-11T15:20:24Z</time>
      </trkpt>
      <trkpt lat="44.46785" lon="1.08203">
        <ele>266.9070866306</ele>
        <time>2017-09-11T15:20:31Z</time>
      </trkpt>
      <trkpt lat="44.46791" lon="1.08196">
        <ele>266.91107216849</ele>
        <time>2017-09-11T15:20:39Z</time>
      </trkpt>
      <trkpt lat="44.46797" lon="1.08187">
        <ele>266.85154303572</ele>
        <time>2017-09-11T15:20:45Z</time>
      </trkpt>
      <trkpt lat="44.46802" lon="1.0818">
        <ele>266.77811153523</ele>
        <time>2017-09-11T15:20:51Z</time>
      </trkpt>
      <trkpt lat="44.46808" lon="1.08172">
        <ele>267.04738300067</ele>
        <time>2017-09-11T15:20:57Z</time>
      </trkpt>
      <trkpt lat="44.46815" lon="1.08165">
        <ele>267.13933955223</ele>
        <time>2017-09-11T15:21:04Z</time>
      </trkpt>
      <trkpt lat="44.4682" lon="1.08156">
        <ele>267.07017129246</ele>
        <time>2017-09-11T15:21:08Z</time>
      </trkpt>
      <trkpt lat="44.46825" lon="1.08147">
        <ele>267.70219796859</ele>
        <time>2017-09-11T15:21:15Z</time>
      </trkpt>
      <trkpt lat="44.46832" lon="1.0814">
        <ele>268.16525490615</ele>
        <time>2017-09-11T15:21:22Z</time>
      </trkpt>
      <trkpt lat="44.46838" lon="1.08133">
        <ele>268.46108864102</ele>
        <time>2017-09-11T15:21:28Z</time>
      </trkpt>
      <trkpt lat="44.46845" lon="1.08129">
        <ele>268.39129673158</ele>
        <time>2017-09-11T15:21:34Z</time>
      </trkpt>
      <trkpt lat="44.46852" lon="1.08121">
        <ele>268.55223299925</ele>
        <time>2017-09-11T15:21:40Z</time>
      </trkpt>
      <trkpt lat="44.46858" lon="1.08112">
        <ele>268.47397212518</ele>
        <time>2017-09-11T15:21:48Z</time>
      </trkpt>
      <trkpt lat="44.46862" lon="1.08102">
        <ele>268.52653674241</ele>
        <time>2017-09-11T15:21:55Z</time>
      </trkpt>
      <trkpt lat="44.46865" lon="1.08093">
        <ele>268.62916819184</ele>
        <time>2017-09-11T15:22:00Z</time>
      </trkpt>
      <trkpt lat="44.4687" lon="1.08082">
        <ele>268.68604134386</ele>
        <time>2017-09-11T15:22:06Z</time>
      </trkpt>
      <trkpt lat="44.46876" lon="1.08073">
        <ele>267.77128125766</ele>
        <time>2017-09-11T15:22:15Z</time>
      </trkpt>
      <trkpt lat="44.46883" lon="1.08068">
        <ele>266.99942834238</ele>
        <time>2017-09-11T15:22:23Z</time>
      </trkpt>
      <trkpt lat="44.4689" lon="1.08064">
        <ele>266.33005087667</ele>
        <time>2017-09-11T15:22:30Z</time>
      </trkpt>
      <trkpt lat="44.46892" lon="1.08052">
        <ele>265.56244931063</ele>
        <time>2017-09-11T15:22:36Z</time>
      </trkpt>
      <trkpt lat="44.46886" lon="1.08044">
        <ele>264.38789107643</ele>
        <time>2017-09-11T15:22:42Z</time>
      </trkpt>
      <trkpt lat="44.46878" lon="1.08039">
        <ele>263.0246406801</ele>
        <time>2017-09-11T15:22:47Z</time>
      </trkpt>
      <trkpt lat="44.4687" lon="1.08036">
        <ele>260.35319324444</ele>
        <time>2017-09-11T15:22:56Z</time>
      </trkpt>
      <trkpt lat="44.46862" lon="1.08032">
        <ele>258.5903014279</ele>
        <time>2017-09-11T15:23:03Z</time>
      </trkpt>
      <trkpt lat="44.46856" lon="1.08025">
        <ele>256.65941539553</ele>
        <time>2017-09-11T15:23:12Z</time>
      </trkpt>
      <trkpt lat="44.46851" lon="1.08015">
        <ele>254.84938972627</ele>
        <time>2017-09-11T15:23:19Z</time>
      </trkpt>
      <trkpt lat="44.46846" lon="1.08005">
        <ele>253.19782786061</ele>
        <time>2017-09-11T15:23:26Z</time>
      </trkpt>
      <trkpt lat="44.46841" lon="1.07996">
        <ele>252.62864321166</ele>
        <time>2017-09-11T15:23:33Z</time>
      </trkpt>
      <trkpt lat="44.4684" lon="1.07984">
        <ele>252.27828943533</ele>
        <time>2017-09-11T15:23:40Z</time>
      </trkpt>
      <trkpt lat="44.46835" lon="1.07974">
        <ele>251.63343463289</ele>
        <time>2017-09-11T15:23:48Z</time>
      </trkpt>
      <trkpt lat="44.46833" lon="1.07962">
        <ele>251.34677103563</ele>
        <time>2017-09-11T15:23:55Z</time>
      </trkpt>
      <trkpt lat="44.46831" lon="1.0795">
        <ele>250.79855925869</ele>
        <time>2017-09-11T15:24:03Z</time>
      </trkpt>
      <trkpt lat="44.46828" lon="1.07939">
        <ele>250.42678644248</ele>
        <time>2017-09-11T15:24:08Z</time>
      </trkpt>
      <trkpt lat="44.46826" lon="1.07928">
        <ele>250.00241560444</ele>
        <time>2017-09-11T15:24:16Z</time>
      </trkpt>
      <trkpt lat="44.46825" lon="1.07917">
        <ele>250.24485680257</ele>
        <time>2017-09-11T15:24:21Z</time>
      </trkpt>
      <trkpt lat="44.46824" lon="1.07905">
        <ele>250.30148939731</ele>
        <time>2017-09-11T15:24:28Z</time>
      </trkpt>
      <trkpt lat="44.46822" lon="1.07894">
        <ele>250.0820893542</ele>
        <time>2017-09-11T15:24:34Z</time>
      </trkpt>
      <trkpt lat="44.4682" lon="1.07882">
        <ele>249.78253200294</ele>
        <time>2017-09-11T15:24:42Z</time>
      </trkpt>
      <trkpt lat="44.46819" lon="1.0787">
        <ele>249.88349752801</ele>
        <time>2017-09-11T15:24:48Z</time>
      </trkpt>
      <trkpt lat="44.46816" lon="1.07859">
        <ele>250.28881118351</ele>
        <time>2017-09-11T15:24:54Z</time>
      </trkpt>
      <trkpt lat="44.46814" lon="1.07848">
        <ele>250.65374606305</ele>
        <time>2017-09-11T15:25:00Z</time>
      </trkpt>
      <trkpt lat="44.46814" lon="1.07836">
        <ele>251.19109621059</ele>
        <time>2017-09-11T15:25:07Z</time>
      </trkpt>
      <trkpt lat="44.46816" lon="1.07824">
        <ele>251.40746188978</ele>
        <time>2017-09-11T15:25:15Z</time>
      </trkpt>
      <trkpt lat="44.46816" lon="1.07812">
        <ele>252.12786346076</ele>
        <time>2017-09-11T15:25:21Z</time>
      </trkpt>
      <trkpt lat="44.46817" lon="1.078">
        <ele>252.86595857362</ele>
        <time>2017-09-11T15:25:27Z</time>
      </trkpt>
      <trkpt lat="44.46819" lon="1.07788">
        <ele>253.98765405133</ele>
        <time>2017-09-11T15:25:34Z</time>
      </trkpt>
      <trkpt lat="44.4682" lon="1.07777">
        <ele>254.75913856731</ele>
        <time>2017-09-11T15:25:41Z</time>
      </trkpt>
      <trkpt lat="44.46822" lon="1.07767">
        <ele>255.33443598186</ele>
        <time>2017-09-11T15:25:47Z</time>
      </trkpt>
      <trkpt lat="44.46822" lon="1.07755">
        <ele>255.73387002012</ele>
        <time>2017-09-11T15:25:53Z</time>
      </trkpt>
      <trkpt lat="44.4682" lon="1.07743">
        <ele>255.56446839586</ele>
        <time>2017-09-11T15:26:01Z</time>
      </trkpt>
      <trkpt lat="44.46813" lon="1.07737">
        <ele>255.13730698043</ele>
        <time>2017-09-11T15:26:09Z</time>
      </trkpt>
      <trkpt lat="44.46805" lon="1.0773">
        <ele>254.6061970199</ele>
        <time>2017-09-11T15:26:16Z</time>
      </trkpt>
      <trkpt lat="44.46797" lon="1.07726">
        <ele>254.05022220402</ele>
        <time>2017-09-11T15:26:23Z</time>
      </trkpt>
      <trkpt lat="44.4679" lon="1.07721">
        <ele>253.85039392145</ele>
        <time>2017-09-11T15:26:32Z</time>
      </trkpt>
      <trkpt lat="44.46784" lon="1.07715">
        <ele>253.50576566977</ele>
        <time>2017-09-11T15:26:38Z</time>
      </trkpt>
      <trkpt lat="44.46777" lon="1.07708">
        <ele>253.58843891065</ele>
        <time>2017-09-11T15:26:47Z</time>
      </trkpt>
      <trkpt lat="44.46768" lon="1.07708">
        <ele>253.06827373502</ele>
        <time>2017-09-11T15:26:57Z</time>
      </trkpt>
      <trkpt lat="44.46759" lon="1.07705">
        <ele>253.38065909969</ele>
        <time>2017-09-11T15:27:06Z</time>
      </trkpt>
      <trkpt lat="44.46752" lon="1.07698">
        <ele>253.65824263011</ele>
        <time>2017-09-11T15:27:11Z</time>
      </trkpt>
      <trkpt lat="44.46745" lon="1.07694">
        <ele>253.26403740504</ele>
        <time>2017-09-11T15:27:17Z</time>
      </trkpt>
      <trkpt lat="44.46737" lon="1.07692">
        <ele>252.38816137365</ele>
        <time>2017-09-11T15:27:23Z</time>
      </trkpt>
      <trkpt lat="44.46729" lon="1.07688">
        <ele>251.52968955535</ele>
        <time>2017-09-11T15:27:28Z</time>
      </trkpt>
      <trkpt lat="44.46721" lon="1.07683">
        <ele>250.53049338644</ele>
        <time>2017-09-11T15:27:34Z</time>
      </trkpt>
      <trkpt lat="44.46715" lon="1.07676">
        <ele>249.46469407411</ele>
        <time>2017-09-11T15:27:42Z</time>
      </trkpt>
      <trkpt lat="44.4671" lon="1.07668">
        <ele>248.67294551132</ele>
        <time>2017-09-11T15:27:46Z</time>
      </trkpt>
      <trkpt lat="44.46705" lon="1.07658">
        <ele>246.69725301717</ele>
        <time>2017-09-11T15:27:53Z</time>
      </trkpt>
      <trkpt lat="44.46702" lon="1.07648">
        <ele>244.38460830884</ele>
        <time>2017-09-11T15:28:02Z</time>
      </trkpt>
      <trkpt lat="44.467" lon="1.07637">
        <ele>242.38292187913</ele>
        <time>2017-09-11T15:28:11Z</time>
      </trkpt>
      <trkpt lat="44.46674" lon="1.07618">
        <ele>245.25579433505</ele>
        <time>2017-09-11T15:28:30Z</time>
      </trkpt>
      <trkpt lat="44.46677" lon="1.07606">
        <ele>245.16870901135</ele>
        <time>2017-09-11T15:28:45Z</time>
      </trkpt>
      <trkpt lat="44.46678" lon="1.07595">
        <ele>243.0045561239</ele>
        <time>2017-09-11T15:28:54Z</time>
      </trkpt>
      <trkpt lat="44.46677" lon="1.07582">
        <ele>240.85443722577</ele>
        <time>2017-09-11T15:28:59Z</time>
      </trkpt>
      <trkpt lat="44.46675" lon="1.07571">
        <ele>236.64606656801</ele>
        <time>2017-09-11T15:29:11Z</time>
      </trkpt>
      <trkpt lat="44.4667" lon="1.07564">
        <ele>231.71022902709</ele>
        <time>2017-09-11T15:29:36Z</time>
      </trkpt>
      <trkpt lat="44.46667" lon="1.07553">
        <ele>230.04393109249</ele>
        <time>2017-09-11T15:29:42Z</time>
      </trkpt>
      <trkpt lat="44.46665" lon="1.07542">
        <ele>228.64381245979</ele>
        <time>2017-09-11T15:30:09Z</time>
      </trkpt>
      <trkpt lat="44.4666" lon="1.07533">
        <ele>228.74688202302</ele>
        <time>2017-09-11T15:30:16Z</time>
      </trkpt>
      <trkpt lat="44.46655" lon="1.07523">
        <ele>229.22438452546</ele>
        <time>2017-09-11T15:30:26Z</time>
      </trkpt>
      <trkpt lat="44.46651" lon="1.07512">
        <ele>228.41235131179</ele>
        <time>2017-09-11T15:30:34Z</time>
      </trkpt>
      <trkpt lat="44.46644" lon="1.07504">
        <ele>226.00506817316</ele>
        <time>2017-09-11T15:30:41Z</time>
      </trkpt>
      <trkpt lat="44.46638" lon="1.07498">
        <ele>223.99374255272</ele>
        <time>2017-09-11T15:30:47Z</time>
      </trkpt>
      <trkpt lat="44.46632" lon="1.0749">
        <ele>222.60239814906</ele>
        <time>2017-09-11T15:30:53Z</time>
      </trkpt>
      <trkpt lat="44.46626" lon="1.07482">
        <ele>221.65132730716</ele>
        <time>2017-09-11T15:30:58Z</time>
      </trkpt>
      <trkpt lat="44.46619" lon="1.07476">
        <ele>220.97934344012</ele>
        <time>2017-09-11T15:31:04Z</time>
      </trkpt>
      <trkpt lat="44.46612" lon="1.07469">
        <ele>220.56251803305</ele>
        <time>2017-09-11T15:31:11Z</time>
      </trkpt>
      <trkpt lat="44.46605" lon="1.07461">
        <ele>219.61000888021</ele>
        <time>2017-09-11T15:31:19Z</time>
      </trkpt>
      <trkpt lat="44.46601" lon="1.0745">
        <ele>218.88301653061</ele>
        <time>2017-09-11T15:31:26Z</time>
      </trkpt>
      <trkpt lat="44.46598" lon="1.07441">
        <ele>218.46037683758</ele>
        <time>2017-09-11T15:31:31Z</time>
      </trkpt>
      <trkpt lat="44.46593" lon="1.0743">
        <ele>218.28552255336</ele>
        <time>2017-09-11T15:31:38Z</time>
      </trkpt>
      <trkpt lat="44.4659" lon="1.07419">
        <ele>218.27665049449</ele>
        <time>2017-09-11T15:31:44Z</time>
      </trkpt>
      <trkpt lat="44.4659" lon="1.07407">
        <ele>218.01656824782</ele>
        <time>2017-09-11T15:31:52Z</time>
      </trkpt>
      <trkpt lat="44.46588" lon="1.07397">
        <ele>217.82987771186</ele>
        <time>2017-09-11T15:31:57Z</time>
      </trkpt>
      <trkpt lat="44.46586" lon="1.07386">
        <ele>218.28801438719</ele>
        <time>2017-09-11T15:32:04Z</time>
      </trkpt>
      <trkpt lat="44.46585" lon="1.07375">
        <ele>219.04746161314</ele>
        <time>2017-09-11T15:32:10Z</time>
      </trkpt>
      <trkpt lat="44.46582" lon="1.07364">
        <ele>219.87434824616</ele>
        <time>2017-09-11T15:32:16Z</time>
      </trkpt>
      <trkpt lat="44.46582" lon="1.07353">
        <ele>220.27318999771</ele>
        <time>2017-09-11T15:32:22Z</time>
      </trkpt>
      <trkpt lat="44.46582" lon="1.07342">
        <ele>221.35528504351</ele>
        <time>2017-09-11T15:32:30Z</time>
      </trkpt>
      <trkpt lat="44.46581" lon="1.07329">
        <ele>222.11028139268</ele>
        <time>2017-09-11T15:32:38Z</time>
      </trkpt>
      <trkpt lat="44.46582" lon="1.07317">
        <ele>222.24149153183</ele>
        <time>2017-09-11T15:32:46Z</time>
      </trkpt>
      <trkpt lat="44.46581" lon="1.07305">
        <ele>222.05066153847</ele>
        <time>2017-09-11T15:32:53Z</time>
      </trkpt>
      <trkpt lat="44.4658" lon="1.07294">
        <ele>222.03840735045</ele>
        <time>2017-09-11T15:33:00Z</time>
      </trkpt>
      <trkpt lat="44.46578" lon="1.07284">
        <ele>222.53729821413</ele>
        <time>2017-09-11T15:33:06Z</time>
      </trkpt>
      <trkpt lat="44.46577" lon="1.07273">
        <ele>222.67748542952</ele>
        <time>2017-09-11T15:33:11Z</time>
      </trkpt>
      <trkpt lat="44.46576" lon="1.07261">
        <ele>222.53066804201</ele>
        <time>2017-09-11T15:33:19Z</time>
      </trkpt>
      <trkpt lat="44.46577" lon="1.07249">
        <ele>221.65607641903</ele>
        <time>2017-09-11T15:33:29Z</time>
      </trkpt>
      <trkpt lat="44.46575" lon="1.07238">
        <ele>221.50069790742</ele>
        <time>2017-09-11T15:33:35Z</time>
      </trkpt>
      <trkpt lat="44.46574" lon="1.07226">
        <ele>221.11913574899</ele>
        <time>2017-09-11T15:33:42Z</time>
      </trkpt>
      <trkpt lat="44.46573" lon="1.07215">
        <ele>220.56018677716</ele>
        <time>2017-09-11T15:33:47Z</time>
      </trkpt>
      <trkpt lat="44.46572" lon="1.07203">
        <ele>220.81145564986</ele>
        <time>2017-09-11T15:33:52Z</time>
      </trkpt>
      <trkpt lat="44.46571" lon="1.07193">
        <ele>221.52044347958</ele>
        <time>2017-09-11T15:33:58Z</time>
      </trkpt>
      <trkpt lat="44.46573" lon="1.07182">
        <ele>222.49916069523</ele>
        <time>2017-09-11T15:34:06Z</time>
      </trkpt>
      <trkpt lat="44.46577" lon="1.07172">
        <ele>223.21687771466</ele>
        <time>2017-09-11T15:34:12Z</time>
      </trkpt>
      <trkpt lat="44.46584" lon="1.07165">
        <ele>224.4651533991</ele>
        <time>2017-09-11T15:34:20Z</time>
      </trkpt>
      <trkpt lat="44.46587" lon="1.07153">
        <ele>224.89298952231</ele>
        <time>2017-09-11T15:34:27Z</time>
      </trkpt>
      <trkpt lat="44.4659" lon="1.07143">
        <ele>225.33113704444</ele>
        <time>2017-09-11T15:34:34Z</time>
      </trkpt>
      <trkpt lat="44.4659" lon="1.07132">
        <ele>225.88028912334</ele>
        <time>2017-09-11T15:34:40Z</time>
      </trkpt>
      <trkpt lat="44.4659" lon="1.07122">
        <ele>226.53080052074</ele>
        <time>2017-09-11T15:34:47Z</time>
      </trkpt>
      <trkpt lat="44.46591" lon="1.0711">
        <ele>226.80028633753</ele>
        <time>2017-09-11T15:34:54Z</time>
      </trkpt>
      <trkpt lat="44.46592" lon="1.07098">
        <ele>226.96726265448</ele>
        <time>2017-09-11T15:35:00Z</time>
      </trkpt>
      <trkpt lat="44.46591" lon="1.07086">
        <ele>226.96245161744</ele>
        <time>2017-09-11T15:35:09Z</time>
      </trkpt>
      <trkpt lat="44.46591" lon="1.07073">
        <ele>229.34155369928</ele>
        <time>2017-09-11T15:35:25Z</time>
      </trkpt>
      <trkpt lat="44.46593" lon="1.07061">
        <ele>230.10959621592</ele>
        <time>2017-09-11T15:35:34Z</time>
      </trkpt>
      <trkpt lat="44.46594" lon="1.0705">
        <ele>230.22809014214</ele>
        <time>2017-09-11T15:35:41Z</time>
      </trkpt>
      <trkpt lat="44.46593" lon="1.07039">
        <ele>230.54779082429</ele>
        <time>2017-09-11T15:35:46Z</time>
      </trkpt>
      <trkpt lat="44.46592" lon="1.07027">
        <ele>231.77847995648</ele>
        <time>2017-09-11T15:35:53Z</time>
      </trkpt>
      <trkpt lat="44.46595" lon="1.07015">
        <ele>233.7562426652</ele>
        <time>2017-09-11T15:36:08Z</time>
      </trkpt>
      <trkpt lat="44.46593" lon="1.07004">
        <ele>237.64714863958</ele>
        <time>2017-09-11T15:36:31Z</time>
      </trkpt>
      <trkpt lat="44.4659" lon="1.06994">
        <ele>237.0129008597</ele>
        <time>2017-09-11T15:36:46Z</time>
      </trkpt>
      <trkpt lat="44.46586" lon="1.06984">
        <ele>236.48537041084</ele>
        <time>2017-09-11T15:36:51Z</time>
      </trkpt>
      <trkpt lat="44.46583" lon="1.06974">
        <ele>236.23605574315</ele>
        <time>2017-09-11T15:36:57Z</time>
      </trkpt>
      <trkpt lat="44.46583" lon="1.06962">
        <ele>236.51101297043</ele>
        <time>2017-09-11T15:37:05Z</time>
      </trkpt>
      <trkpt lat="44.46582" lon="1.0695">
        <ele>235.54089491061</ele>
        <time>2017-09-11T15:37:14Z</time>
      </trkpt>
      <trkpt lat="44.46582" lon="1.06938">
        <ele>234.8376130751</ele>
        <time>2017-09-11T15:37:22Z</time>
      </trkpt>
      <trkpt lat="44.46579" lon="1.06927">
        <ele>234.9909879624</ele>
        <time>2017-09-11T15:37:30Z</time>
      </trkpt>
      <trkpt lat="44.46572" lon="1.06919">
        <ele>234.43120144278</ele>
        <time>2017-09-11T15:37:43Z</time>
      </trkpt>
      <trkpt lat="44.46565" lon="1.06911">
        <ele>233.75222617896</ele>
        <time>2017-09-11T15:37:58Z</time>
      </trkpt>
      <trkpt lat="44.46563" lon="1.06913">
        <ele>229.79069772216</ele>
        <time>2017-09-11T15:38:31Z</time>
      </trkpt>
      <trkpt lat="44.46563" lon="1.06913">
        <ele>229.79069772216</ele>
        <time>2017-09-11T15:38:31Z</time>
      </trkpt>
    </trkseg>
  </trk>
</gpx>